<?xml version="1.0" encoding="UTF-8"?>
<gpx version="1.1" creator="https://www.youtrack.es" xsi:schemaLocation="http://www.topografix.com/GPX/1/1 http://www.topografix.com/GPX/1/1/gpx.xsd http://www.garmin.com/xmlschemas/GpxExtensions/v3 http://www.garmin.com/xmlschemas/GpxExtensionsv3.xsd http://www.garmin.com/xmlschemas/TrackPointExtension/v1 http://www.garmin.com/xmlschemas/TrackPointExtensionv1.xsd" xmlns:gpxtpx="http://www.garmin.com/xmlschemas/TrackPointExtension/v1" xmlns:gpxx="http://www.garmin.com/xmlschemas/GpxExtensions/v3" xmlns:xsi="http://www.w3.org/2001/XMLSchema-instance">
  <metadata>
    <link href="https://www.youtrack.es">
      <text>YouTrack.es</text>
    </link>
    <time>2026-05-09T03:45:53Z</time>
  </metadata>
  <trk>
    <src>https://www.youtrack.es</src>
    <link href="https://www.youtrack.es/ruta/4576-grace">
      <text>YouTrack.es</text>
    </link>
    <trkseg>
      <trkpt lat="41.71797889" lon="2.538384441">
        <ele>94.000000</ele>
        <time>2019-03-16T09:42:39Z</time>
      </trkpt>
      <trkpt lat="41.71784453" lon="2.538221916">
        <ele>92.000000</ele>
        <time>2019-03-16T09:42:59Z</time>
      </trkpt>
      <trkpt lat="41.71776398" lon="2.538007339">
        <ele>91.000000</ele>
        <time>2019-03-16T09:43:15Z</time>
      </trkpt>
      <trkpt lat="41.71777848" lon="2.537951683">
        <ele>91.000000</ele>
        <time>2019-03-16T09:43:18Z</time>
      </trkpt>
      <trkpt lat="41.71789498" lon="2.537778262">
        <ele>92.000000</ele>
        <time>2019-03-16T09:43:35Z</time>
      </trkpt>
      <trkpt lat="41.71788945" lon="2.537770047">
        <ele>92.000000</ele>
        <time>2019-03-16T09:43:37Z</time>
      </trkpt>
      <trkpt lat="41.71794737" lon="2.537526050">
        <ele>92.000000</ele>
        <time>2019-03-16T09:43:47Z</time>
      </trkpt>
      <trkpt lat="41.71813890" lon="2.537491600">
        <ele>96.000000</ele>
        <time>2019-03-16T09:43:59Z</time>
      </trkpt>
      <trkpt lat="41.71824392" lon="2.537285825">
        <ele>97.000000</ele>
        <time>2019-03-16T09:44:17Z</time>
      </trkpt>
      <trkpt lat="41.71835448" lon="2.537097567">
        <ele>99.000000</ele>
        <time>2019-03-16T09:44:34Z</time>
      </trkpt>
      <trkpt lat="41.71843654" lon="2.536876704">
        <ele>99.000000</ele>
        <time>2019-03-16T09:44:51Z</time>
      </trkpt>
      <trkpt lat="41.71850125" lon="2.536648968">
        <ele>100.00000</ele>
        <time>2019-03-16T09:45:09Z</time>
      </trkpt>
      <trkpt lat="41.71860208" lon="2.536455513">
        <ele>101.00000</ele>
        <time>2019-03-16T09:45:27Z</time>
      </trkpt>
      <trkpt lat="41.71864785" lon="2.536383848">
        <ele>102.00000</ele>
        <time>2019-03-16T09:45:33Z</time>
      </trkpt>
      <trkpt lat="41.71879051" lon="2.536231549">
        <ele>103.00000</ele>
        <time>2019-03-16T09:45:50Z</time>
      </trkpt>
      <trkpt lat="41.71894071" lon="2.536071036">
        <ele>105.00000</ele>
        <time>2019-03-16T09:46:08Z</time>
      </trkpt>
      <trkpt lat="41.71906225" lon="2.535878252">
        <ele>106.00000</ele>
        <time>2019-03-16T09:46:24Z</time>
      </trkpt>
      <trkpt lat="41.71918714" lon="2.535701561">
        <ele>108.00000</ele>
        <time>2019-03-16T09:46:39Z</time>
      </trkpt>
      <trkpt lat="41.71927004" lon="2.535580107">
        <ele>109.00000</ele>
        <time>2019-03-16T09:46:49Z</time>
      </trkpt>
      <trkpt lat="41.71941379" lon="2.535415235">
        <ele>110.00000</ele>
        <time>2019-03-16T09:47:04Z</time>
      </trkpt>
      <trkpt lat="41.71942326" lon="2.535405177">
        <ele>110.00000</ele>
        <time>2019-03-16T09:47:05Z</time>
      </trkpt>
      <trkpt lat="41.71950289" lon="2.535315155">
        <ele>111.00000</ele>
        <time>2019-03-16T09:47:14Z</time>
      </trkpt>
      <trkpt lat="41.71951973" lon="2.535268552">
        <ele>112.00000</ele>
        <time>2019-03-16T09:47:17Z</time>
      </trkpt>
      <trkpt lat="41.71963959" lon="2.535130418">
        <ele>113.00000</ele>
        <time>2019-03-16T09:47:31Z</time>
      </trkpt>
      <trkpt lat="41.71968410" lon="2.535081133">
        <ele>113.00000</ele>
        <time>2019-03-16T09:47:36Z</time>
      </trkpt>
      <trkpt lat="41.71973129" lon="2.535026818">
        <ele>113.00000</ele>
        <time>2019-03-16T09:47:41Z</time>
      </trkpt>
      <trkpt lat="41.71980338" lon="2.534968229">
        <ele>113.00000</ele>
        <time>2019-03-16T09:47:48Z</time>
      </trkpt>
      <trkpt lat="41.71994931" lon="2.534820372">
        <ele>115.00000</ele>
        <time>2019-03-16T09:48:05Z</time>
      </trkpt>
      <trkpt lat="41.72009658" lon="2.534691877">
        <ele>117.00000</ele>
        <time>2019-03-16T09:48:22Z</time>
      </trkpt>
      <trkpt lat="41.72024334" lon="2.534813666">
        <ele>120.00000</ele>
        <time>2019-03-16T09:48:39Z</time>
      </trkpt>
      <trkpt lat="41.72036966" lon="2.534984154">
        <ele>123.00000</ele>
        <time>2019-03-16T09:48:58Z</time>
      </trkpt>
      <trkpt lat="41.72049840" lon="2.535150535">
        <ele>125.00000</ele>
        <time>2019-03-16T09:49:24Z</time>
      </trkpt>
      <trkpt lat="41.72062321" lon="2.535320436">
        <ele>128.00000</ele>
        <time>2019-03-16T09:49:45Z</time>
      </trkpt>
      <trkpt lat="41.72076663" lon="2.535475334">
        <ele>130.00000</ele>
        <time>2019-03-16T09:50:11Z</time>
      </trkpt>
      <trkpt lat="41.72089629" lon="2.535644648">
        <ele>135.00000</ele>
        <time>2019-03-16T09:50:38Z</time>
      </trkpt>
      <trkpt lat="41.72105119" lon="2.535788230">
        <ele>139.00000</ele>
        <time>2019-03-16T09:51:00Z</time>
      </trkpt>
      <trkpt lat="41.72122428" lon="2.535861236">
        <ele>142.00000</ele>
        <time>2019-03-16T09:51:21Z</time>
      </trkpt>
      <trkpt lat="41.72138672" lon="2.535740537">
        <ele>145.00000</ele>
        <time>2019-03-16T09:51:37Z</time>
      </trkpt>
      <trkpt lat="41.72146576" lon="2.535678762">
        <ele>147.00000</ele>
        <time>2019-03-16T09:51:44Z</time>
      </trkpt>
      <trkpt lat="41.72151949" lon="2.535633500">
        <ele>148.00000</ele>
        <time>2019-03-16T09:51:50Z</time>
      </trkpt>
      <trkpt lat="41.72168017" lon="2.535505760">
        <ele>151.00000</ele>
        <time>2019-03-16T09:52:06Z</time>
      </trkpt>
      <trkpt lat="41.72183481" lon="2.535358238">
        <ele>153.00000</ele>
        <time>2019-03-16T09:52:19Z</time>
      </trkpt>
      <trkpt lat="41.72198795" lon="2.535218596">
        <ele>156.00000</ele>
        <time>2019-03-16T09:52:31Z</time>
      </trkpt>
      <trkpt lat="41.72201821" lon="2.535187499">
        <ele>157.00000</ele>
        <time>2019-03-16T09:52:35Z</time>
      </trkpt>
      <trkpt lat="41.72215794" lon="2.535024974">
        <ele>159.00000</ele>
        <time>2019-03-16T09:52:52Z</time>
      </trkpt>
      <trkpt lat="41.72227235" lon="2.534827496">
        <ele>159.00000</ele>
        <time>2019-03-16T09:53:10Z</time>
      </trkpt>
      <trkpt lat="41.72231292" lon="2.534756166">
        <ele>159.00000</ele>
        <time>2019-03-16T09:53:15Z</time>
      </trkpt>
      <trkpt lat="41.72236857" lon="2.534669917">
        <ele>159.00000</ele>
        <time>2019-03-16T09:53:21Z</time>
      </trkpt>
      <trkpt lat="41.72238199" lon="2.534629767">
        <ele>159.00000</ele>
        <time>2019-03-16T09:53:24Z</time>
      </trkpt>
      <trkpt lat="41.72241996" lon="2.534559024">
        <ele>159.00000</ele>
        <time>2019-03-16T09:53:29Z</time>
      </trkpt>
      <trkpt lat="41.72246161" lon="2.534512756">
        <ele>160.00000</ele>
        <time>2019-03-16T09:53:33Z</time>
      </trkpt>
      <trkpt lat="41.72248953" lon="2.534485934">
        <ele>160.00000</ele>
        <time>2019-03-16T09:53:36Z</time>
      </trkpt>
      <trkpt lat="41.72250528" lon="2.534463219">
        <ele>160.00000</ele>
        <time>2019-03-16T09:53:38Z</time>
      </trkpt>
      <trkpt lat="41.72264258" lon="2.534286193">
        <ele>161.00000</ele>
        <time>2019-03-16T09:53:53Z</time>
      </trkpt>
      <trkpt lat="41.72272531" lon="2.534192232">
        <ele>162.00000</ele>
        <time>2019-03-16T09:54:03Z</time>
      </trkpt>
      <trkpt lat="41.72287082" lon="2.534038340">
        <ele>163.00000</ele>
        <time>2019-03-16T09:54:26Z</time>
      </trkpt>
      <trkpt lat="41.72292195" lon="2.533979499">
        <ele>162.00000</ele>
        <time>2019-03-16T09:54:31Z</time>
      </trkpt>
      <trkpt lat="41.72296126" lon="2.533928873">
        <ele>163.00000</ele>
        <time>2019-03-16T09:54:36Z</time>
      </trkpt>
      <trkpt lat="41.72309688" lon="2.533753355">
        <ele>165.00000</ele>
        <time>2019-03-16T09:54:52Z</time>
      </trkpt>
      <trkpt lat="41.72322093" lon="2.533660735">
        <ele>166.00000</ele>
        <time>2019-03-16T09:55:03Z</time>
      </trkpt>
      <trkpt lat="41.72325219" lon="2.533639613">
        <ele>166.00000</ele>
        <time>2019-03-16T09:55:07Z</time>
      </trkpt>
      <trkpt lat="41.72338245" lon="2.533506089">
        <ele>164.00000</ele>
        <time>2019-03-16T09:55:20Z</time>
      </trkpt>
      <trkpt lat="41.72351664" lon="2.533342558">
        <ele>161.00000</ele>
        <time>2019-03-16T09:55:35Z</time>
      </trkpt>
      <trkpt lat="41.72365997" lon="2.533182715">
        <ele>161.00000</ele>
        <time>2019-03-16T09:55:50Z</time>
      </trkpt>
      <trkpt lat="41.72380490" lon="2.533042067">
        <ele>161.00000</ele>
        <time>2019-03-16T09:56:05Z</time>
      </trkpt>
      <trkpt lat="41.72394320" lon="2.532954644">
        <ele>160.00000</ele>
        <time>2019-03-16T09:56:18Z</time>
      </trkpt>
      <trkpt lat="41.72403330" lon="2.532914159">
        <ele>159.00000</ele>
        <time>2019-03-16T09:56:24Z</time>
      </trkpt>
      <trkpt lat="41.72414227" lon="2.532883733">
        <ele>159.00000</ele>
        <time>2019-03-16T09:56:33Z</time>
      </trkpt>
      <trkpt lat="41.72418057" lon="2.532857246">
        <ele>159.00000</ele>
        <time>2019-03-16T09:56:38Z</time>
      </trkpt>
      <trkpt lat="41.72416817" lon="2.532857917">
        <ele>158.00000</ele>
        <time>2019-03-16T09:58:08Z</time>
      </trkpt>
      <trkpt lat="41.72415769" lon="2.532929582">
        <ele>151.00000</ele>
        <time>2019-03-16T09:59:08Z</time>
      </trkpt>
      <trkpt lat="41.72422617" lon="2.532867472">
        <ele>149.00000</ele>
        <time>2019-03-16T09:59:48Z</time>
      </trkpt>
      <trkpt lat="41.72439121" lon="2.532754316">
        <ele>150.00000</ele>
        <time>2019-03-16T10:00:04Z</time>
      </trkpt>
      <trkpt lat="41.72453052" lon="2.532594809">
        <ele>150.00000</ele>
        <time>2019-03-16T10:00:21Z</time>
      </trkpt>
      <trkpt lat="41.72469631" lon="2.532489448">
        <ele>151.00000</ele>
        <time>2019-03-16T10:00:37Z</time>
      </trkpt>
      <trkpt lat="41.72487359" lon="2.532439744">
        <ele>154.00000</ele>
        <time>2019-03-16T10:00:54Z</time>
      </trkpt>
      <trkpt lat="41.72479849" lon="2.532507050">
        <ele>157.00000</ele>
        <time>2019-03-16T10:01:22Z</time>
      </trkpt>
      <trkpt lat="41.72463244" lon="2.532640323">
        <ele>158.00000</ele>
        <time>2019-03-16T10:01:38Z</time>
      </trkpt>
      <trkpt lat="41.72460160" lon="2.532673766">
        <ele>158.00000</ele>
        <time>2019-03-16T10:01:41Z</time>
      </trkpt>
      <trkpt lat="41.72454820" lon="2.532728752">
        <ele>158.00000</ele>
        <time>2019-03-16T10:01:46Z</time>
      </trkpt>
      <trkpt lat="41.72437001" lon="2.532819444">
        <ele>157.00000</ele>
        <time>2019-03-16T10:02:03Z</time>
      </trkpt>
      <trkpt lat="41.72419306" lon="2.532907705">
        <ele>155.00000</ele>
        <time>2019-03-16T10:02:17Z</time>
      </trkpt>
      <trkpt lat="41.72401528" lon="2.533004600">
        <ele>151.00000</ele>
        <time>2019-03-16T10:02:34Z</time>
      </trkpt>
      <trkpt lat="41.72384278" lon="2.533086659">
        <ele>150.00000</ele>
        <time>2019-03-16T10:02:48Z</time>
      </trkpt>
      <trkpt lat="41.72367213" lon="2.533178692">
        <ele>150.00000</ele>
        <time>2019-03-16T10:03:02Z</time>
      </trkpt>
      <trkpt lat="41.72352083" lon="2.533333338">
        <ele>151.00000</ele>
        <time>2019-03-16T10:03:16Z</time>
      </trkpt>
      <trkpt lat="41.72337147" lon="2.533521931">
        <ele>150.00000</ele>
        <time>2019-03-16T10:03:32Z</time>
      </trkpt>
      <trkpt lat="41.72331665" lon="2.533574402">
        <ele>150.00000</ele>
        <time>2019-03-16T10:03:38Z</time>
      </trkpt>
      <trkpt lat="41.72316276" lon="2.533716391">
        <ele>150.00000</ele>
        <time>2019-03-16T10:03:52Z</time>
      </trkpt>
      <trkpt lat="41.72301960" lon="2.533876402">
        <ele>150.00000</ele>
        <time>2019-03-16T10:04:07Z</time>
      </trkpt>
      <trkpt lat="41.72287442" lon="2.534035909">
        <ele>151.00000</ele>
        <time>2019-03-16T10:04:20Z</time>
      </trkpt>
      <trkpt lat="41.72272372" lon="2.534205978">
        <ele>153.00000</ele>
        <time>2019-03-16T10:04:36Z</time>
      </trkpt>
      <trkpt lat="41.72263286" lon="2.534339921">
        <ele>154.00000</ele>
        <time>2019-03-16T10:04:48Z</time>
      </trkpt>
      <trkpt lat="41.72251098" lon="2.534520048">
        <ele>154.00000</ele>
        <time>2019-03-16T10:05:04Z</time>
      </trkpt>
      <trkpt lat="41.72244946" lon="2.534606130">
        <ele>154.00000</ele>
        <time>2019-03-16T10:05:12Z</time>
      </trkpt>
      <trkpt lat="41.72232734" lon="2.534792628">
        <ele>152.00000</ele>
        <time>2019-03-16T10:05:28Z</time>
      </trkpt>
      <trkpt lat="41.72221451" lon="2.534987591">
        <ele>149.00000</ele>
        <time>2019-03-16T10:05:46Z</time>
      </trkpt>
      <trkpt lat="41.72219901" lon="2.535010641">
        <ele>148.00000</ele>
        <time>2019-03-16T10:05:48Z</time>
      </trkpt>
      <trkpt lat="41.72217965" lon="2.535072499">
        <ele>147.00000</ele>
        <time>2019-03-16T10:05:54Z</time>
      </trkpt>
      <trkpt lat="41.72206825" lon="2.535265283">
        <ele>145.00000</ele>
        <time>2019-03-16T10:06:13Z</time>
      </trkpt>
      <trkpt lat="41.72190933" lon="2.535398723">
        <ele>144.00000</ele>
        <time>2019-03-16T10:06:30Z</time>
      </trkpt>
      <trkpt lat="41.72175100" lon="2.535514142">
        <ele>143.00000</ele>
        <time>2019-03-16T10:06:44Z</time>
      </trkpt>
      <trkpt lat="41.72164203" lon="2.535610282">
        <ele>142.00000</ele>
        <time>2019-03-16T10:06:56Z</time>
      </trkpt>
      <trkpt lat="41.72151245" lon="2.535714805">
        <ele>147.00000</ele>
        <time>2019-03-16T10:07:50Z</time>
      </trkpt>
      <trkpt lat="41.72136166" lon="2.535852938">
        <ele>148.00000</ele>
        <time>2019-03-16T10:08:06Z</time>
      </trkpt>
      <trkpt lat="41.72120408" lon="2.535961903">
        <ele>148.00000</ele>
        <time>2019-03-16T10:08:22Z</time>
      </trkpt>
      <trkpt lat="41.72103501" lon="2.535891328">
        <ele>148.00000</ele>
        <time>2019-03-16T10:08:34Z</time>
      </trkpt>
      <trkpt lat="41.72088506" lon="2.535753529">
        <ele>147.00000</ele>
        <time>2019-03-16T10:08:48Z</time>
      </trkpt>
      <trkpt lat="41.72076637" lon="2.535598799">
        <ele>145.00000</ele>
        <time>2019-03-16T10:09:02Z</time>
      </trkpt>
      <trkpt lat="41.72072530" lon="2.535543562">
        <ele>144.00000</ele>
        <time>2019-03-16T10:09:07Z</time>
      </trkpt>
      <trkpt lat="41.72067862" lon="2.535469550">
        <ele>143.00000</ele>
        <time>2019-03-16T10:09:13Z</time>
      </trkpt>
      <trkpt lat="41.72065481" lon="2.535419929">
        <ele>143.00000</ele>
        <time>2019-03-16T10:09:17Z</time>
      </trkpt>
      <trkpt lat="41.72059572" lon="2.535359496">
        <ele>142.00000</ele>
        <time>2019-03-16T10:09:23Z</time>
      </trkpt>
      <trkpt lat="41.72046840" lon="2.535221362">
        <ele>140.00000</ele>
        <time>2019-03-16T10:09:36Z</time>
      </trkpt>
      <trkpt lat="41.72045591" lon="2.535196552">
        <ele>140.00000</ele>
        <time>2019-03-16T10:09:38Z</time>
      </trkpt>
      <trkpt lat="41.72042255" lon="2.535166209">
        <ele>139.00000</ele>
        <time>2019-03-16T10:09:42Z</time>
      </trkpt>
      <trkpt lat="41.72038659" lon="2.535104267">
        <ele>139.00000</ele>
        <time>2019-03-16T10:09:47Z</time>
      </trkpt>
      <trkpt lat="41.72031593" lon="2.535042492">
        <ele>138.00000</ele>
        <time>2019-03-16T10:09:55Z</time>
      </trkpt>
      <trkpt lat="41.72029556" lon="2.535034613">
        <ele>138.00000</ele>
        <time>2019-03-16T10:09:57Z</time>
      </trkpt>
      <trkpt lat="41.72021401" lon="2.534962780">
        <ele>137.00000</ele>
        <time>2019-03-16T10:10:06Z</time>
      </trkpt>
      <trkpt lat="41.72016522" lon="2.534892205">
        <ele>137.00000</ele>
        <time>2019-03-16T10:10:13Z</time>
      </trkpt>
      <trkpt lat="41.72013706" lon="2.534801010">
        <ele>137.00000</ele>
        <time>2019-03-16T10:10:19Z</time>
      </trkpt>
      <trkpt lat="41.72022197" lon="2.534647453">
        <ele>137.00000</ele>
        <time>2019-03-16T10:10:27Z</time>
      </trkpt>
      <trkpt lat="41.72031216" lon="2.534499932">
        <ele>137.00000</ele>
        <time>2019-03-16T10:10:37Z</time>
      </trkpt>
      <trkpt lat="41.72034250" lon="2.534376718">
        <ele>137.00000</ele>
        <time>2019-03-16T10:10:45Z</time>
      </trkpt>
      <trkpt lat="41.72034485" lon="2.534360708">
        <ele>137.00000</ele>
        <time>2019-03-16T10:10:46Z</time>
      </trkpt>
      <trkpt lat="41.72035390" lon="2.534253755">
        <ele>137.00000</ele>
        <time>2019-03-16T10:10:51Z</time>
      </trkpt>
      <trkpt lat="41.72035482" lon="2.534217713">
        <ele>137.00000</ele>
        <time>2019-03-16T10:10:53Z</time>
      </trkpt>
      <trkpt lat="41.72034929" lon="2.534066252">
        <ele>138.00000</ele>
        <time>2019-03-16T10:11:03Z</time>
      </trkpt>
      <trkpt lat="41.72033554" lon="2.534024426">
        <ele>138.00000</ele>
        <time>2019-03-16T10:11:07Z</time>
      </trkpt>
      <trkpt lat="41.72017972" lon="2.534013111">
        <ele>139.00000</ele>
        <time>2019-03-16T10:11:37Z</time>
      </trkpt>
      <trkpt lat="41.72013673" lon="2.533856034">
        <ele>140.00000</ele>
        <time>2019-03-16T10:12:00Z</time>
      </trkpt>
      <trkpt lat="41.72008962" lon="2.533790906">
        <ele>135.00000</ele>
        <time>2019-03-16T10:12:23Z</time>
      </trkpt>
      <trkpt lat="41.72006598" lon="2.534003388">
        <ele>133.00000</ele>
        <time>2019-03-16T10:12:55Z</time>
      </trkpt>
      <trkpt lat="41.71988820" lon="2.534075723">
        <ele>134.00000</ele>
        <time>2019-03-16T10:13:17Z</time>
      </trkpt>
      <trkpt lat="41.71970003" lon="2.534097768">
        <ele>134.00000</ele>
        <time>2019-03-16T10:13:33Z</time>
      </trkpt>
      <trkpt lat="41.71965259" lon="2.533971620">
        <ele>134.00000</ele>
        <time>2019-03-16T10:13:44Z</time>
      </trkpt>
      <trkpt lat="41.71962895" lon="2.533718403">
        <ele>135.00000</ele>
        <time>2019-03-16T10:14:02Z</time>
      </trkpt>
      <trkpt lat="41.71960204" lon="2.533584041">
        <ele>139.00000</ele>
        <time>2019-03-16T10:15:25Z</time>
      </trkpt>
      <trkpt lat="41.71966491" lon="2.533354628">
        <ele>138.00000</ele>
        <time>2019-03-16T10:15:57Z</time>
      </trkpt>
      <trkpt lat="41.71973900" lon="2.533137202">
        <ele>138.00000</ele>
        <time>2019-03-16T10:16:15Z</time>
      </trkpt>
      <trkpt lat="41.71986959" lon="2.532954895">
        <ele>139.00000</ele>
        <time>2019-03-16T10:16:32Z</time>
      </trkpt>
      <trkpt lat="41.71988342" lon="2.532934108">
        <ele>139.00000</ele>
        <time>2019-03-16T10:16:35Z</time>
      </trkpt>
      <trkpt lat="41.71997026" lon="2.532866634">
        <ele>140.00000</ele>
        <time>2019-03-16T10:16:59Z</time>
      </trkpt>
      <trkpt lat="41.72001879" lon="2.532793963">
        <ele>140.00000</ele>
        <time>2019-03-16T10:17:05Z</time>
      </trkpt>
      <trkpt lat="41.72013421" lon="2.532607968">
        <ele>141.00000</ele>
        <time>2019-03-16T10:17:19Z</time>
      </trkpt>
      <trkpt lat="41.72016933" lon="2.532507637">
        <ele>141.00000</ele>
        <time>2019-03-16T10:17:28Z</time>
      </trkpt>
      <trkpt lat="41.72015885" lon="2.532367324">
        <ele>141.00000</ele>
        <time>2019-03-16T10:17:38Z</time>
      </trkpt>
      <trkpt lat="41.72010119" lon="2.532135900">
        <ele>142.00000</ele>
        <time>2019-03-16T10:17:56Z</time>
      </trkpt>
      <trkpt lat="41.72007185" lon="2.531883856">
        <ele>143.00000</ele>
        <time>2019-03-16T10:18:12Z</time>
      </trkpt>
      <trkpt lat="41.72001125" lon="2.531644804">
        <ele>145.00000</ele>
        <time>2019-03-16T10:18:28Z</time>
      </trkpt>
      <trkpt lat="41.71996624" lon="2.531398208">
        <ele>147.00000</ele>
        <time>2019-03-16T10:18:44Z</time>
      </trkpt>
      <trkpt lat="41.71989357" lon="2.531153205">
        <ele>149.00000</ele>
        <time>2019-03-16T10:19:00Z</time>
      </trkpt>
      <trkpt lat="41.71978737" lon="2.531141890">
        <ele>151.00000</ele>
        <time>2019-03-16T10:19:21Z</time>
      </trkpt>
      <trkpt lat="41.71978267" lon="2.531227972">
        <ele>152.00000</ele>
        <time>2019-03-16T10:19:28Z</time>
      </trkpt>
      <trkpt lat="41.71973649" lon="2.531475657">
        <ele>153.00000</ele>
        <time>2019-03-16T10:19:44Z</time>
      </trkpt>
      <trkpt lat="41.71965535" lon="2.531695598">
        <ele>153.00000</ele>
        <time>2019-03-16T10:19:58Z</time>
      </trkpt>
      <trkpt lat="41.71957589" lon="2.531868936">
        <ele>153.00000</ele>
        <time>2019-03-16T10:20:10Z</time>
      </trkpt>
      <trkpt lat="41.71954127" lon="2.531943283">
        <ele>154.00000</ele>
        <time>2019-03-16T10:20:16Z</time>
      </trkpt>
      <trkpt lat="41.71942468" lon="2.532137325">
        <ele>155.00000</ele>
        <time>2019-03-16T10:20:31Z</time>
      </trkpt>
      <trkpt lat="41.71940079" lon="2.532171523">
        <ele>156.00000</ele>
        <time>2019-03-16T10:20:34Z</time>
      </trkpt>
      <trkpt lat="41.71933667" lon="2.532252660">
        <ele>157.00000</ele>
        <time>2019-03-16T10:20:41Z</time>
      </trkpt>
      <trkpt lat="41.71929619" lon="2.532294485">
        <ele>157.00000</ele>
        <time>2019-03-16T10:20:45Z</time>
      </trkpt>
      <trkpt lat="41.71914909" lon="2.532446868">
        <ele>160.00000</ele>
        <time>2019-03-16T10:21:01Z</time>
      </trkpt>
      <trkpt lat="41.71911489" lon="2.532479474">
        <ele>160.00000</ele>
        <time>2019-03-16T10:21:05Z</time>
      </trkpt>
      <trkpt lat="41.71902135" lon="2.532539488">
        <ele>162.00000</ele>
        <time>2019-03-16T10:21:16Z</time>
      </trkpt>
      <trkpt lat="41.71884055" lon="2.532497076">
        <ele>163.00000</ele>
        <time>2019-03-16T10:21:35Z</time>
      </trkpt>
      <trkpt lat="41.71869386" lon="2.532363217">
        <ele>165.00000</ele>
        <time>2019-03-16T10:21:53Z</time>
      </trkpt>
      <trkpt lat="41.71859747" lon="2.532148892">
        <ele>167.00000</ele>
        <time>2019-03-16T10:22:13Z</time>
      </trkpt>
      <trkpt lat="41.71850670" lon="2.531943200">
        <ele>169.00000</ele>
        <time>2019-03-16T10:22:31Z</time>
      </trkpt>
      <trkpt lat="41.71849270" lon="2.531898105">
        <ele>170.00000</ele>
        <time>2019-03-16T10:22:34Z</time>
      </trkpt>
      <trkpt lat="41.71845934" lon="2.531835492">
        <ele>171.00000</ele>
        <time>2019-03-16T10:22:40Z</time>
      </trkpt>
      <trkpt lat="41.71839421" lon="2.531847143">
        <ele>171.00000</ele>
        <time>2019-03-16T10:22:47Z</time>
      </trkpt>
      <trkpt lat="41.71833923" lon="2.531862650">
        <ele>172.00000</ele>
        <time>2019-03-16T10:22:53Z</time>
      </trkpt>
      <trkpt lat="41.71828441" lon="2.531862314">
        <ele>172.00000</ele>
        <time>2019-03-16T10:22:58Z</time>
      </trkpt>
      <trkpt lat="41.71812071" lon="2.531824596">
        <ele>174.00000</ele>
        <time>2019-03-16T10:23:37Z</time>
      </trkpt>
      <trkpt lat="41.71793539" lon="2.531842198">
        <ele>175.00000</ele>
        <time>2019-03-16T10:23:55Z</time>
      </trkpt>
      <trkpt lat="41.71774805" lon="2.531831720">
        <ele>175.00000</ele>
        <time>2019-03-16T10:24:10Z</time>
      </trkpt>
      <trkpt lat="41.71759173" lon="2.531818477">
        <ele>173.00000</ele>
        <time>2019-03-16T10:24:23Z</time>
      </trkpt>
      <trkpt lat="41.71746449" lon="2.531817806">
        <ele>171.00000</ele>
        <time>2019-03-16T10:24:33Z</time>
      </trkpt>
      <trkpt lat="41.71734706" lon="2.531811352">
        <ele>170.00000</ele>
        <time>2019-03-16T10:24:41Z</time>
      </trkpt>
      <trkpt lat="41.71715947" lon="2.531781513">
        <ele>167.00000</ele>
        <time>2019-03-16T10:24:54Z</time>
      </trkpt>
      <trkpt lat="41.71708052" lon="2.531764833">
        <ele>166.00000</ele>
        <time>2019-03-16T10:25:00Z</time>
      </trkpt>
      <trkpt lat="41.71689880" lon="2.531788218">
        <ele>163.00000</ele>
        <time>2019-03-16T10:25:12Z</time>
      </trkpt>
      <trkpt lat="41.71671330" lon="2.531803641">
        <ele>162.00000</ele>
        <time>2019-03-16T10:25:25Z</time>
      </trkpt>
      <trkpt lat="41.71665991" lon="2.531788805">
        <ele>161.00000</ele>
        <time>2019-03-16T10:25:30Z</time>
      </trkpt>
      <trkpt lat="41.71647978" lon="2.531803138">
        <ele>158.00000</ele>
        <time>2019-03-16T10:25:43Z</time>
      </trkpt>
      <trkpt lat="41.71630041" lon="2.531767096">
        <ele>154.00000</ele>
        <time>2019-03-16T10:25:57Z</time>
      </trkpt>
      <trkpt lat="41.71611785" lon="2.531752428">
        <ele>151.00000</ele>
        <time>2019-03-16T10:26:11Z</time>
      </trkpt>
      <trkpt lat="41.71598249" lon="2.531752595">
        <ele>148.00000</ele>
        <time>2019-03-16T10:26:22Z</time>
      </trkpt>
      <trkpt lat="41.71593119" lon="2.531745638">
        <ele>148.00000</ele>
        <time>2019-03-16T10:26:26Z</time>
      </trkpt>
      <trkpt lat="41.71574704" lon="2.531747734">
        <ele>146.00000</ele>
        <time>2019-03-16T10:26:41Z</time>
      </trkpt>
      <trkpt lat="41.71557680" lon="2.531710183">
        <ele>144.00000</ele>
        <time>2019-03-16T10:26:56Z</time>
      </trkpt>
      <trkpt lat="41.71556356" lon="2.531678164">
        <ele>144.00000</ele>
        <time>2019-03-16T10:26:58Z</time>
      </trkpt>
      <trkpt lat="41.71561578" lon="2.531450763">
        <ele>143.00000</ele>
        <time>2019-03-16T10:27:10Z</time>
      </trkpt>
      <trkpt lat="41.71569390" lon="2.531289746">
        <ele>142.00000</ele>
        <time>2019-03-16T10:27:37Z</time>
      </trkpt>
      <trkpt lat="41.71573606" lon="2.531226966">
        <ele>141.00000</ele>
        <time>2019-03-16T10:28:17Z</time>
      </trkpt>
      <trkpt lat="41.71587696" lon="2.531087324">
        <ele>136.00000</ele>
        <time>2019-03-16T10:29:07Z</time>
      </trkpt>
      <trkpt lat="41.71600378" lon="2.530917171">
        <ele>136.00000</ele>
        <time>2019-03-16T10:29:24Z</time>
      </trkpt>
      <trkpt lat="41.71607393" lon="2.530688010">
        <ele>135.00000</ele>
        <time>2019-03-16T10:29:44Z</time>
      </trkpt>
      <trkpt lat="41.71609019" lon="2.530551971">
        <ele>136.00000</ele>
        <time>2019-03-16T10:29:54Z</time>
      </trkpt>
      <trkpt lat="41.71611299" lon="2.530402438">
        <ele>135.00000</ele>
        <time>2019-03-16T10:30:06Z</time>
      </trkpt>
      <trkpt lat="41.71611165" lon="2.530341753">
        <ele>135.00000</ele>
        <time>2019-03-16T10:30:11Z</time>
      </trkpt>
      <trkpt lat="41.71615012" lon="2.530189370">
        <ele>136.00000</ele>
        <time>2019-03-16T10:30:20Z</time>
      </trkpt>
      <trkpt lat="41.71616747" lon="2.530053248">
        <ele>136.00000</ele>
        <time>2019-03-16T10:30:29Z</time>
      </trkpt>
      <trkpt lat="41.71616957" lon="2.530016787">
        <ele>136.00000</ele>
        <time>2019-03-16T10:30:31Z</time>
      </trkpt>
      <trkpt lat="41.71617946" lon="2.529939590">
        <ele>136.00000</ele>
        <time>2019-03-16T10:30:36Z</time>
      </trkpt>
      <trkpt lat="41.71615633" lon="2.529803719">
        <ele>135.00000</ele>
        <time>2019-03-16T10:30:46Z</time>
      </trkpt>
      <trkpt lat="41.71615985" lon="2.529760804">
        <ele>135.00000</ele>
        <time>2019-03-16T10:30:48Z</time>
      </trkpt>
      <trkpt lat="41.71620167" lon="2.529642116">
        <ele>134.00000</ele>
        <time>2019-03-16T10:30:53Z</time>
      </trkpt>
      <trkpt lat="41.71630393" lon="2.529437430">
        <ele>134.00000</ele>
        <time>2019-03-16T10:31:12Z</time>
      </trkpt>
      <trkpt lat="41.71643435" lon="2.529243724">
        <ele>135.00000</ele>
        <time>2019-03-16T10:31:27Z</time>
      </trkpt>
      <trkpt lat="41.71654441" lon="2.529010958">
        <ele>136.00000</ele>
        <time>2019-03-16T10:31:43Z</time>
      </trkpt>
      <trkpt lat="41.71664181" lon="2.528780456">
        <ele>138.00000</ele>
        <time>2019-03-16T10:31:59Z</time>
      </trkpt>
      <trkpt lat="41.71674926" lon="2.528589265">
        <ele>140.00000</ele>
        <time>2019-03-16T10:32:15Z</time>
      </trkpt>
      <trkpt lat="41.71685362" lon="2.528389692">
        <ele>143.00000</ele>
        <time>2019-03-16T10:32:29Z</time>
      </trkpt>
      <trkpt lat="41.71699929" lon="2.528244266">
        <ele>148.00000</ele>
        <time>2019-03-16T10:32:45Z</time>
      </trkpt>
      <trkpt lat="41.71713592" lon="2.528080064">
        <ele>151.00000</ele>
        <time>2019-03-16T10:33:00Z</time>
      </trkpt>
      <trkpt lat="41.71725989" lon="2.527889376">
        <ele>153.00000</ele>
        <time>2019-03-16T10:33:16Z</time>
      </trkpt>
      <trkpt lat="41.71744831" lon="2.527789045">
        <ele>150.00000</ele>
        <time>2019-03-16T10:33:36Z</time>
      </trkpt>
      <trkpt lat="41.71757488" lon="2.527616126">
        <ele>147.00000</ele>
        <time>2019-03-16T10:33:55Z</time>
      </trkpt>
      <trkpt lat="41.71770849" lon="2.527447901">
        <ele>147.00000</ele>
        <time>2019-03-16T10:34:10Z</time>
      </trkpt>
      <trkpt lat="41.71785148" lon="2.527357377">
        <ele>146.00000</ele>
        <time>2019-03-16T10:34:25Z</time>
      </trkpt>
      <trkpt lat="41.71800571" lon="2.527235923">
        <ele>145.00000</ele>
        <time>2019-03-16T10:34:42Z</time>
      </trkpt>
      <trkpt lat="41.71808802" lon="2.527178339">
        <ele>145.00000</ele>
        <time>2019-03-16T10:34:50Z</time>
      </trkpt>
      <trkpt lat="41.71821383" lon="2.527065938">
        <ele>145.00000</ele>
        <time>2019-03-16T10:35:03Z</time>
      </trkpt>
      <trkpt lat="41.71839178" lon="2.527005923">
        <ele>145.00000</ele>
        <time>2019-03-16T10:35:20Z</time>
      </trkpt>
      <trkpt lat="41.71856956" lon="2.526938281">
        <ele>144.00000</ele>
        <time>2019-03-16T10:35:36Z</time>
      </trkpt>
      <trkpt lat="41.71872555" lon="2.526802914">
        <ele>144.00000</ele>
        <time>2019-03-16T10:35:51Z</time>
      </trkpt>
      <trkpt lat="41.71874944" lon="2.526770979">
        <ele>144.00000</ele>
        <time>2019-03-16T10:35:54Z</time>
      </trkpt>
      <trkpt lat="41.71882940" lon="2.526706773">
        <ele>144.00000</ele>
        <time>2019-03-16T10:36:02Z</time>
      </trkpt>
      <trkpt lat="41.71894566" lon="2.526586493">
        <ele>144.00000</ele>
        <time>2019-03-16T10:36:14Z</time>
      </trkpt>
      <trkpt lat="41.71907683" lon="2.526486748">
        <ele>144.00000</ele>
        <time>2019-03-16T10:36:28Z</time>
      </trkpt>
      <trkpt lat="41.71912427" lon="2.526431595">
        <ele>144.00000</ele>
        <time>2019-03-16T10:36:33Z</time>
      </trkpt>
      <trkpt lat="41.71923550" lon="2.526339981">
        <ele>144.00000</ele>
        <time>2019-03-16T10:36:46Z</time>
      </trkpt>
      <trkpt lat="41.71928705" lon="2.526317769">
        <ele>145.00000</ele>
        <time>2019-03-16T10:36:51Z</time>
      </trkpt>
      <trkpt lat="41.71944882" lon="2.526209810">
        <ele>145.00000</ele>
        <time>2019-03-16T10:37:06Z</time>
      </trkpt>
      <trkpt lat="41.71958335" lon="2.526152143">
        <ele>145.00000</ele>
        <time>2019-03-16T10:37:18Z</time>
      </trkpt>
      <trkpt lat="41.71962233" lon="2.526106545">
        <ele>145.00000</ele>
        <time>2019-03-16T10:37:22Z</time>
      </trkpt>
      <trkpt lat="41.71972316" lon="2.526010321">
        <ele>145.00000</ele>
        <time>2019-03-16T10:37:32Z</time>
      </trkpt>
      <trkpt lat="41.71980212" lon="2.525951564">
        <ele>145.00000</ele>
        <time>2019-03-16T10:37:39Z</time>
      </trkpt>
      <trkpt lat="41.71983657" lon="2.525946032">
        <ele>145.00000</ele>
        <time>2019-03-16T10:37:42Z</time>
      </trkpt>
      <trkpt lat="41.71993187" lon="2.525921389">
        <ele>145.00000</ele>
        <time>2019-03-16T10:37:52Z</time>
      </trkpt>
      <trkpt lat="41.72009834" lon="2.525823237">
        <ele>143.00000</ele>
        <time>2019-03-16T10:38:09Z</time>
      </trkpt>
      <trkpt lat="41.72021945" lon="2.525642188">
        <ele>140.00000</ele>
        <time>2019-03-16T10:38:25Z</time>
      </trkpt>
      <trkpt lat="41.72025072" lon="2.525496762">
        <ele>137.00000</ele>
        <time>2019-03-16T10:38:38Z</time>
      </trkpt>
      <trkpt lat="41.72024686" lon="2.525446470">
        <ele>137.00000</ele>
        <time>2019-03-16T10:38:42Z</time>
      </trkpt>
      <trkpt lat="41.72022356" lon="2.525378745">
        <ele>137.00000</ele>
        <time>2019-03-16T10:38:49Z</time>
      </trkpt>
      <trkpt lat="41.72021116" lon="2.525185458">
        <ele>135.00000</ele>
        <time>2019-03-16T10:39:03Z</time>
      </trkpt>
      <trkpt lat="41.72019783" lon="2.525091329">
        <ele>135.00000</ele>
        <time>2019-03-16T10:39:09Z</time>
      </trkpt>
      <trkpt lat="41.72019121" lon="2.525016479">
        <ele>135.00000</ele>
        <time>2019-03-16T10:39:14Z</time>
      </trkpt>
      <trkpt lat="41.72017897" lon="2.524969205">
        <ele>135.00000</ele>
        <time>2019-03-16T10:39:17Z</time>
      </trkpt>
      <trkpt lat="41.72015139" lon="2.524850014">
        <ele>136.00000</ele>
        <time>2019-03-16T10:39:25Z</time>
      </trkpt>
      <trkpt lat="41.72013664" lon="2.524608448">
        <ele>136.00000</ele>
        <time>2019-03-16T10:39:40Z</time>
      </trkpt>
      <trkpt lat="41.72012449" lon="2.524360259">
        <ele>139.00000</ele>
        <time>2019-03-16T10:39:57Z</time>
      </trkpt>
      <trkpt lat="41.72023471" lon="2.524243667">
        <ele>140.00000</ele>
        <time>2019-03-16T10:40:22Z</time>
      </trkpt>
      <trkpt lat="41.72030973" lon="2.524249870">
        <ele>141.00000</ele>
        <time>2019-03-16T10:40:46Z</time>
      </trkpt>
      <trkpt lat="41.72020747" lon="2.524237129">
        <ele>138.00000</ele>
        <time>2019-03-16T10:40:58Z</time>
      </trkpt>
      <trkpt lat="41.72022574" lon="2.523987432">
        <ele>135.00000</ele>
        <time>2019-03-16T10:41:16Z</time>
      </trkpt>
      <trkpt lat="41.72031417" lon="2.523775203">
        <ele>134.00000</ele>
        <time>2019-03-16T10:41:41Z</time>
      </trkpt>
      <trkpt lat="41.72036287" lon="2.523671770">
        <ele>132.00000</ele>
        <time>2019-03-16T10:41:50Z</time>
      </trkpt>
      <trkpt lat="41.72046496" lon="2.523552831">
        <ele>132.00000</ele>
        <time>2019-03-16T10:42:02Z</time>
      </trkpt>
      <trkpt lat="41.72048768" lon="2.523495666">
        <ele>131.00000</ele>
        <time>2019-03-16T10:42:07Z</time>
      </trkpt>
      <trkpt lat="41.72058876" lon="2.523290980">
        <ele>131.00000</ele>
        <time>2019-03-16T10:42:25Z</time>
      </trkpt>
      <trkpt lat="41.72071818" lon="2.523109847">
        <ele>131.00000</ele>
        <time>2019-03-16T10:42:42Z</time>
      </trkpt>
      <trkpt lat="41.72073427" lon="2.522875405">
        <ele>133.00000</ele>
        <time>2019-03-16T10:43:08Z</time>
      </trkpt>
      <trkpt lat="41.72075078" lon="2.522634426">
        <ele>133.00000</ele>
        <time>2019-03-16T10:43:24Z</time>
      </trkpt>
      <trkpt lat="41.72083712" lon="2.522413646">
        <ele>134.00000</ele>
        <time>2019-03-16T10:43:41Z</time>
      </trkpt>
      <trkpt lat="41.72092228" lon="2.522256653">
        <ele>134.00000</ele>
        <time>2019-03-16T10:43:54Z</time>
      </trkpt>
      <trkpt lat="41.72100752" lon="2.522030510">
        <ele>135.00000</ele>
        <time>2019-03-16T10:44:11Z</time>
      </trkpt>
      <trkpt lat="41.72103124" lon="2.521884581">
        <ele>135.00000</ele>
        <time>2019-03-16T10:44:22Z</time>
      </trkpt>
      <trkpt lat="41.72106200" lon="2.521772095">
        <ele>135.00000</ele>
        <time>2019-03-16T10:44:28Z</time>
      </trkpt>
      <trkpt lat="41.72106921" lon="2.521706130">
        <ele>135.00000</ele>
        <time>2019-03-16T10:44:32Z</time>
      </trkpt>
      <trkpt lat="41.72107466" lon="2.521626502">
        <ele>136.00000</ele>
        <time>2019-03-16T10:44:37Z</time>
      </trkpt>
      <trkpt lat="41.72110693" lon="2.521430868">
        <ele>138.00000</ele>
        <time>2019-03-16T10:44:51Z</time>
      </trkpt>
      <trkpt lat="41.72114540" lon="2.521311091">
        <ele>133.00000</ele>
        <time>2019-03-16T10:45:45Z</time>
      </trkpt>
      <trkpt lat="41.72127876" lon="2.521164407">
        <ele>133.00000</ele>
        <time>2019-03-16T10:46:01Z</time>
      </trkpt>
      <trkpt lat="41.72146660" lon="2.521169269">
        <ele>133.00000</ele>
        <time>2019-03-16T10:46:20Z</time>
      </trkpt>
      <trkpt lat="41.72164849" lon="2.521157199">
        <ele>135.00000</ele>
        <time>2019-03-16T10:46:35Z</time>
      </trkpt>
      <trkpt lat="41.72183926" lon="2.521156193">
        <ele>138.00000</ele>
        <time>2019-03-16T10:46:51Z</time>
      </trkpt>
      <trkpt lat="41.72191930" lon="2.520964834">
        <ele>139.00000</ele>
        <time>2019-03-16T10:47:10Z</time>
      </trkpt>
      <trkpt lat="41.72197722" lon="2.520724106">
        <ele>140.00000</ele>
        <time>2019-03-16T10:47:28Z</time>
      </trkpt>
      <trkpt lat="41.72198016" lon="2.520477175">
        <ele>140.00000</ele>
        <time>2019-03-16T10:47:44Z</time>
      </trkpt>
      <trkpt lat="41.72196574" lon="2.520234268">
        <ele>141.00000</ele>
        <time>2019-03-16T10:48:01Z</time>
      </trkpt>
      <trkpt lat="41.72193397" lon="2.520091943">
        <ele>141.00000</ele>
        <time>2019-03-16T10:48:11Z</time>
      </trkpt>
      <trkpt lat="41.72192601" lon="2.519987840">
        <ele>141.00000</ele>
        <time>2019-03-16T10:48:17Z</time>
      </trkpt>
      <trkpt lat="41.72195468" lon="2.519926652">
        <ele>141.00000</ele>
        <time>2019-03-16T10:48:22Z</time>
      </trkpt>
      <trkpt lat="41.72213623" lon="2.519889269">
        <ele>139.00000</ele>
        <time>2019-03-16T10:48:38Z</time>
      </trkpt>
      <trkpt lat="41.72231946" lon="2.519846940">
        <ele>135.00000</ele>
        <time>2019-03-16T10:48:52Z</time>
      </trkpt>
      <trkpt lat="41.72250587" lon="2.519818525">
        <ele>133.00000</ele>
        <time>2019-03-16T10:49:07Z</time>
      </trkpt>
      <trkpt lat="41.72268801" lon="2.519757505">
        <ele>134.00000</ele>
        <time>2019-03-16T10:49:24Z</time>
      </trkpt>
      <trkpt lat="41.72274853" lon="2.519564386">
        <ele>137.00000</ele>
        <time>2019-03-16T10:49:40Z</time>
      </trkpt>
      <trkpt lat="41.72268885" lon="2.519390042">
        <ele>137.00000</ele>
        <time>2019-03-16T10:49:53Z</time>
      </trkpt>
      <trkpt lat="41.72266177" lon="2.519287867">
        <ele>137.00000</ele>
        <time>2019-03-16T10:50:00Z</time>
      </trkpt>
      <trkpt lat="41.72257410" lon="2.519074715">
        <ele>137.00000</ele>
        <time>2019-03-16T10:50:14Z</time>
      </trkpt>
      <trkpt lat="41.72253646" lon="2.518845386">
        <ele>135.00000</ele>
        <time>2019-03-16T10:50:27Z</time>
      </trkpt>
      <trkpt lat="41.72259128" lon="2.518763998">
        <ele>134.00000</ele>
        <time>2019-03-16T10:50:34Z</time>
      </trkpt>
      <trkpt lat="41.72270913" lon="2.518656207">
        <ele>134.00000</ele>
        <time>2019-03-16T10:50:49Z</time>
      </trkpt>
      <trkpt lat="41.72284064" lon="2.518579512">
        <ele>136.00000</ele>
        <time>2019-03-16T10:51:06Z</time>
      </trkpt>
      <trkpt lat="41.72301415" lon="2.518497789">
        <ele>137.00000</ele>
        <time>2019-03-16T10:51:26Z</time>
      </trkpt>
      <trkpt lat="41.72318640" lon="2.518440624">
        <ele>137.00000</ele>
        <time>2019-03-16T10:51:46Z</time>
      </trkpt>
      <trkpt lat="41.72334733" lon="2.518293773">
        <ele>136.00000</ele>
        <time>2019-03-16T10:52:02Z</time>
      </trkpt>
      <trkpt lat="41.72350365" lon="2.518168631">
        <ele>137.00000</ele>
        <time>2019-03-16T10:52:19Z</time>
      </trkpt>
      <trkpt lat="41.72367263" lon="2.518110377">
        <ele>138.00000</ele>
        <time>2019-03-16T10:52:34Z</time>
      </trkpt>
      <trkpt lat="41.72385058" lon="2.518169637">
        <ele>140.00000</ele>
        <time>2019-03-16T10:52:48Z</time>
      </trkpt>
      <trkpt lat="41.72403682" lon="2.518223114">
        <ele>142.00000</ele>
        <time>2019-03-16T10:53:03Z</time>
      </trkpt>
      <trkpt lat="41.72421704" lon="2.518161088">
        <ele>143.00000</ele>
        <time>2019-03-16T10:53:20Z</time>
      </trkpt>
      <trkpt lat="41.72428535" lon="2.518100235">
        <ele>143.00000</ele>
        <time>2019-03-16T10:53:28Z</time>
      </trkpt>
      <trkpt lat="41.72437587" lon="2.518006190">
        <ele>143.00000</ele>
        <time>2019-03-16T10:53:38Z</time>
      </trkpt>
      <trkpt lat="41.72452717" lon="2.517870068">
        <ele>144.00000</ele>
        <time>2019-03-16T10:53:52Z</time>
      </trkpt>
      <trkpt lat="41.72470377" lon="2.517773089">
        <ele>145.00000</ele>
        <time>2019-03-16T10:54:07Z</time>
      </trkpt>
      <trkpt lat="41.72488356" lon="2.517789350">
        <ele>147.00000</ele>
        <time>2019-03-16T10:54:22Z</time>
      </trkpt>
      <trkpt lat="41.72506562" lon="2.517852131">
        <ele>146.00000</ele>
        <time>2019-03-16T10:54:36Z</time>
      </trkpt>
      <trkpt lat="41.72524843" lon="2.517891610">
        <ele>150.00000</ele>
        <time>2019-03-16T10:54:51Z</time>
      </trkpt>
      <trkpt lat="41.72531347" lon="2.517896387">
        <ele>150.00000</ele>
        <time>2019-03-16T10:54:57Z</time>
      </trkpt>
      <trkpt lat="41.72540048" lon="2.517702430">
        <ele>153.00000</ele>
        <time>2019-03-16T10:55:16Z</time>
      </trkpt>
      <trkpt lat="41.72542068" lon="2.517455751">
        <ele>150.00000</ele>
        <time>2019-03-16T10:55:33Z</time>
      </trkpt>
      <trkpt lat="41.72555345" lon="2.517298841">
        <ele>151.00000</ele>
        <time>2019-03-16T10:55:46Z</time>
      </trkpt>
      <trkpt lat="41.72575025" lon="2.517338320">
        <ele>149.00000</ele>
        <time>2019-03-16T10:55:59Z</time>
      </trkpt>
      <trkpt lat="41.72593248" lon="2.517369501">
        <ele>146.00000</ele>
        <time>2019-03-16T10:56:13Z</time>
      </trkpt>
      <trkpt lat="41.72611612" lon="2.517447788">
        <ele>148.00000</ele>
        <time>2019-03-16T10:56:31Z</time>
      </trkpt>
      <trkpt lat="41.72613607" lon="2.517454242">
        <ele>149.00000</ele>
        <time>2019-03-16T10:56:33Z</time>
      </trkpt>
      <trkpt lat="41.72619910" lon="2.517456924">
        <ele>150.00000</ele>
        <time>2019-03-16T10:56:39Z</time>
      </trkpt>
      <trkpt lat="41.72629700" lon="2.517416607">
        <ele>151.00000</ele>
        <time>2019-03-16T10:56:49Z</time>
      </trkpt>
      <trkpt lat="41.72633246" lon="2.517385175">
        <ele>152.00000</ele>
        <time>2019-03-16T10:56:54Z</time>
      </trkpt>
      <trkpt lat="41.72643220" lon="2.517184680">
        <ele>154.00000</ele>
        <time>2019-03-16T10:57:11Z</time>
      </trkpt>
      <trkpt lat="41.72650479" lon="2.516959039">
        <ele>155.00000</ele>
        <time>2019-03-16T10:57:25Z</time>
      </trkpt>
      <trkpt lat="41.72656573" lon="2.516802549">
        <ele>157.00000</ele>
        <time>2019-03-16T10:57:34Z</time>
      </trkpt>
      <trkpt lat="41.72659297" lon="2.516764998">
        <ele>157.00000</ele>
        <time>2019-03-16T10:57:37Z</time>
      </trkpt>
      <trkpt lat="41.72673437" lon="2.516603143">
        <ele>159.00000</ele>
        <time>2019-03-16T10:57:53Z</time>
      </trkpt>
      <trkpt lat="41.72682431" lon="2.516503650">
        <ele>162.00000</ele>
        <time>2019-03-16T10:58:04Z</time>
      </trkpt>
      <trkpt lat="41.72695188" lon="2.516331905">
        <ele>165.00000</ele>
        <time>2019-03-16T10:58:21Z</time>
      </trkpt>
      <trkpt lat="41.72695624" lon="2.516318745">
        <ele>165.00000</ele>
        <time>2019-03-16T10:58:22Z</time>
      </trkpt>
      <trkpt lat="41.72695230" lon="2.516240542">
        <ele>166.00000</ele>
        <time>2019-03-16T10:58:27Z</time>
      </trkpt>
      <trkpt lat="41.72688961" lon="2.516002748">
        <ele>167.00000</ele>
        <time>2019-03-16T10:58:42Z</time>
      </trkpt>
      <trkpt lat="41.72678835" lon="2.515853801">
        <ele>166.00000</ele>
        <time>2019-03-16T10:58:58Z</time>
      </trkpt>
      <trkpt lat="41.72668257" lon="2.515654312">
        <ele>166.00000</ele>
        <time>2019-03-16T10:59:16Z</time>
      </trkpt>
      <trkpt lat="41.72663723" lon="2.515408890">
        <ele>165.00000</ele>
        <time>2019-03-16T10:59:31Z</time>
      </trkpt>
      <trkpt lat="41.72663488" lon="2.515351306">
        <ele>165.00000</ele>
        <time>2019-03-16T10:59:34Z</time>
      </trkpt>
      <trkpt lat="41.72661619" lon="2.515171682">
        <ele>165.00000</ele>
        <time>2019-03-16T10:59:45Z</time>
      </trkpt>
      <trkpt lat="41.72653597" lon="2.514954172">
        <ele>163.00000</ele>
        <time>2019-03-16T11:00:02Z</time>
      </trkpt>
      <trkpt lat="41.72650261" lon="2.514709169">
        <ele>161.00000</ele>
        <time>2019-03-16T11:00:17Z</time>
      </trkpt>
      <trkpt lat="41.72658241" lon="2.514460394">
        <ele>158.00000</ele>
        <time>2019-03-16T11:00:28Z</time>
      </trkpt>
      <trkpt lat="41.72665868" lon="2.514235507">
        <ele>157.00000</ele>
        <time>2019-03-16T11:00:43Z</time>
      </trkpt>
      <trkpt lat="41.72681601" lon="2.514114640">
        <ele>156.00000</ele>
        <time>2019-03-16T11:00:56Z</time>
      </trkpt>
      <trkpt lat="41.72696278" lon="2.513954965">
        <ele>155.00000</ele>
        <time>2019-03-16T11:01:13Z</time>
      </trkpt>
      <trkpt lat="41.72712606" lon="2.513820184">
        <ele>155.00000</ele>
        <time>2019-03-16T11:01:29Z</time>
      </trkpt>
      <trkpt lat="41.72714777" lon="2.513805935">
        <ele>155.00000</ele>
        <time>2019-03-16T11:01:31Z</time>
      </trkpt>
      <trkpt lat="41.72726243" lon="2.513743657">
        <ele>154.00000</ele>
        <time>2019-03-16T11:01:41Z</time>
      </trkpt>
      <trkpt lat="41.72744147" lon="2.513659335">
        <ele>153.00000</ele>
        <time>2019-03-16T11:01:55Z</time>
      </trkpt>
      <trkpt lat="41.72745304" lon="2.513651456">
        <ele>153.00000</ele>
        <time>2019-03-16T11:01:56Z</time>
      </trkpt>
      <trkpt lat="41.72761070" lon="2.513510305">
        <ele>153.00000</ele>
        <time>2019-03-16T11:02:14Z</time>
      </trkpt>
      <trkpt lat="41.72777331" lon="2.513395138">
        <ele>155.00000</ele>
        <time>2019-03-16T11:02:29Z</time>
      </trkpt>
      <trkpt lat="41.72790725" lon="2.513300925">
        <ele>157.00000</ele>
        <time>2019-03-16T11:02:43Z</time>
      </trkpt>
      <trkpt lat="41.72805486" lon="2.513155834">
        <ele>159.00000</ele>
        <time>2019-03-16T11:03:03Z</time>
      </trkpt>
      <trkpt lat="41.72812485" lon="2.512930026">
        <ele>160.00000</ele>
        <time>2019-03-16T11:03:23Z</time>
      </trkpt>
      <trkpt lat="41.72824102" lon="2.512731794">
        <ele>160.00000</ele>
        <time>2019-03-16T11:03:39Z</time>
      </trkpt>
      <trkpt lat="41.72836281" lon="2.512550074">
        <ele>159.00000</ele>
        <time>2019-03-16T11:03:54Z</time>
      </trkpt>
      <trkpt lat="41.72848988" lon="2.512364583">
        <ele>159.00000</ele>
        <time>2019-03-16T11:04:10Z</time>
      </trkpt>
      <trkpt lat="41.72863153" lon="2.512212535">
        <ele>159.00000</ele>
        <time>2019-03-16T11:04:26Z</time>
      </trkpt>
      <trkpt lat="41.72876413" lon="2.512059314">
        <ele>156.00000</ele>
        <time>2019-03-16T11:05:13Z</time>
      </trkpt>
      <trkpt lat="41.72877905" lon="2.512064259">
        <ele>156.00000</ele>
        <time>2019-03-16T11:05:51Z</time>
      </trkpt>
      <trkpt lat="41.72876849" lon="2.512160399">
        <ele>154.00000</ele>
        <time>2019-03-16T11:07:23Z</time>
      </trkpt>
      <trkpt lat="41.72894879" lon="2.512174397">
        <ele>154.00000</ele>
        <time>2019-03-16T11:07:41Z</time>
      </trkpt>
      <trkpt lat="41.72909505" lon="2.512286966">
        <ele>155.00000</ele>
        <time>2019-03-16T11:08:06Z</time>
      </trkpt>
      <trkpt lat="41.72922380" lon="2.512419568">
        <ele>156.00000</ele>
        <time>2019-03-16T11:08:42Z</time>
      </trkpt>
      <trkpt lat="41.72940468" lon="2.512439265">
        <ele>158.00000</ele>
        <time>2019-03-16T11:09:00Z</time>
      </trkpt>
      <trkpt lat="41.72958112" lon="2.512505901">
        <ele>160.00000</ele>
        <time>2019-03-16T11:09:18Z</time>
      </trkpt>
      <trkpt lat="41.72974490" lon="2.512605311">
        <ele>164.00000</ele>
        <time>2019-03-16T11:09:35Z</time>
      </trkpt>
      <trkpt lat="41.72991044" lon="2.512697344">
        <ele>167.00000</ele>
        <time>2019-03-16T11:09:51Z</time>
      </trkpt>
      <trkpt lat="41.73009024" lon="2.512690806">
        <ele>169.00000</ele>
        <time>2019-03-16T11:10:07Z</time>
      </trkpt>
      <trkpt lat="41.73026525" lon="2.512626014">
        <ele>170.00000</ele>
        <time>2019-03-16T11:10:24Z</time>
      </trkpt>
      <trkpt lat="41.73039374" lon="2.512545129">
        <ele>171.00000</ele>
        <time>2019-03-16T11:10:37Z</time>
      </trkpt>
      <trkpt lat="41.73053464" lon="2.512381682">
        <ele>171.00000</ele>
        <time>2019-03-16T11:10:51Z</time>
      </trkpt>
      <trkpt lat="41.73069113" lon="2.512417975">
        <ele>171.00000</ele>
        <time>2019-03-16T11:11:07Z</time>
      </trkpt>
      <trkpt lat="41.73073489" lon="2.512455191">
        <ele>171.00000</ele>
        <time>2019-03-16T11:11:11Z</time>
      </trkpt>
      <trkpt lat="41.73077713" lon="2.512478493">
        <ele>171.00000</ele>
        <time>2019-03-16T11:11:16Z</time>
      </trkpt>
      <trkpt lat="41.73094167" lon="2.512436918">
        <ele>171.00000</ele>
        <time>2019-03-16T11:11:39Z</time>
      </trkpt>
      <trkpt lat="41.73111467" lon="2.512489557">
        <ele>170.00000</ele>
        <time>2019-03-16T11:11:54Z</time>
      </trkpt>
      <trkpt lat="41.73123193" lon="2.512668175">
        <ele>170.00000</ele>
        <time>2019-03-16T11:12:13Z</time>
      </trkpt>
      <trkpt lat="41.73129362" lon="2.512640850">
        <ele>171.00000</ele>
        <time>2019-03-16T11:12:22Z</time>
      </trkpt>
      <trkpt lat="41.73147157" lon="2.512558959">
        <ele>170.00000</ele>
        <time>2019-03-16T11:12:38Z</time>
      </trkpt>
      <trkpt lat="41.73156260" lon="2.512502381">
        <ele>170.00000</ele>
        <time>2019-03-16T11:12:50Z</time>
      </trkpt>
      <trkpt lat="41.73172781" lon="2.512583853">
        <ele>168.00000</ele>
        <time>2019-03-16T11:13:04Z</time>
      </trkpt>
      <trkpt lat="41.73176050" lon="2.512601288">
        <ele>167.00000</ele>
        <time>2019-03-16T11:13:07Z</time>
      </trkpt>
      <trkpt lat="41.73176913" lon="2.512601036">
        <ele>167.00000</ele>
        <time>2019-03-16T11:13:08Z</time>
      </trkpt>
      <trkpt lat="41.73183074" lon="2.512600785">
        <ele>168.00000</ele>
        <time>2019-03-16T11:13:14Z</time>
      </trkpt>
      <trkpt lat="41.73201556" lon="2.512589385">
        <ele>168.00000</ele>
        <time>2019-03-16T11:13:32Z</time>
      </trkpt>
      <trkpt lat="41.73198371" lon="2.512372378">
        <ele>167.00000</ele>
        <time>2019-03-16T11:13:59Z</time>
      </trkpt>
      <trkpt lat="41.73189821" lon="2.512304736">
        <ele>167.00000</ele>
        <time>2019-03-16T11:14:08Z</time>
      </trkpt>
      <trkpt lat="41.73175706" lon="2.512174146">
        <ele>166.00000</ele>
        <time>2019-03-16T11:14:24Z</time>
      </trkpt>
      <trkpt lat="41.73171096" lon="2.512116311">
        <ele>167.00000</ele>
        <time>2019-03-16T11:14:30Z</time>
      </trkpt>
      <trkpt lat="41.73164508" lon="2.512023104">
        <ele>166.00000</ele>
        <time>2019-03-16T11:14:38Z</time>
      </trkpt>
      <trkpt lat="41.73151759" lon="2.511842641">
        <ele>166.00000</ele>
        <time>2019-03-16T11:14:56Z</time>
      </trkpt>
      <trkpt lat="41.73136906" lon="2.511680619">
        <ele>166.00000</ele>
        <time>2019-03-16T11:15:10Z</time>
      </trkpt>
      <trkpt lat="41.73120327" lon="2.511556232">
        <ele>165.00000</ele>
        <time>2019-03-16T11:15:22Z</time>
      </trkpt>
      <trkpt lat="41.73104871" lon="2.511416673">
        <ele>164.00000</ele>
        <time>2019-03-16T11:15:35Z</time>
      </trkpt>
      <trkpt lat="41.73091518" lon="2.511252639">
        <ele>163.00000</ele>
        <time>2019-03-16T11:15:54Z</time>
      </trkpt>
      <trkpt lat="41.73076104" lon="2.511108219">
        <ele>162.00000</ele>
        <time>2019-03-16T11:16:08Z</time>
      </trkpt>
      <trkpt lat="41.73059265" lon="2.511001937">
        <ele>162.00000</ele>
        <time>2019-03-16T11:16:22Z</time>
      </trkpt>
      <trkpt lat="41.73052559" lon="2.510964805">
        <ele>162.00000</ele>
        <time>2019-03-16T11:16:29Z</time>
      </trkpt>
      <trkpt lat="41.73048888" lon="2.510940497">
        <ele>162.00000</ele>
        <time>2019-03-16T11:16:33Z</time>
      </trkpt>
      <trkpt lat="41.73046415" lon="2.510930439">
        <ele>162.00000</ele>
        <time>2019-03-16T11:16:36Z</time>
      </trkpt>
      <trkpt lat="41.73043305" lon="2.510930439">
        <ele>162.00000</ele>
        <time>2019-03-16T11:16:40Z</time>
      </trkpt>
      <trkpt lat="41.73025653" lon="2.510980227">
        <ele>161.00000</ele>
        <time>2019-03-16T11:17:02Z</time>
      </trkpt>
      <trkpt lat="41.73008101" lon="2.511069327">
        <ele>161.00000</ele>
        <time>2019-03-16T11:17:19Z</time>
      </trkpt>
      <trkpt lat="41.72988463" lon="2.511086091">
        <ele>161.00000</ele>
        <time>2019-03-16T11:17:34Z</time>
      </trkpt>
      <trkpt lat="41.72969846" lon="2.511066896">
        <ele>160.00000</ele>
        <time>2019-03-16T11:17:46Z</time>
      </trkpt>
      <trkpt lat="41.72951364" lon="2.511005122">
        <ele>158.00000</ele>
        <time>2019-03-16T11:18:03Z</time>
      </trkpt>
      <trkpt lat="41.72933335" lon="2.510970840">
        <ele>157.00000</ele>
        <time>2019-03-16T11:18:19Z</time>
      </trkpt>
      <trkpt lat="41.72919664" lon="2.510896157">
        <ele>155.00000</ele>
        <time>2019-03-16T11:18:32Z</time>
      </trkpt>
      <trkpt lat="41.72917510" lon="2.510779397">
        <ele>154.00000</ele>
        <time>2019-03-16T11:18:39Z</time>
      </trkpt>
      <trkpt lat="41.72926110" lon="2.510572029">
        <ele>153.00000</ele>
        <time>2019-03-16T11:18:55Z</time>
      </trkpt>
      <trkpt lat="41.72935229" lon="2.510363655">
        <ele>150.00000</ele>
        <time>2019-03-16T11:19:13Z</time>
      </trkpt>
      <trkpt lat="41.72943737" lon="2.510148240">
        <ele>150.00000</ele>
        <time>2019-03-16T11:19:30Z</time>
      </trkpt>
      <trkpt lat="41.72946025" lon="2.510100128">
        <ele>152.00000</ele>
        <time>2019-03-16T11:20:05Z</time>
      </trkpt>
      <trkpt lat="41.72945891" lon="2.510091327">
        <ele>152.00000</ele>
        <time>2019-03-16T11:20:08Z</time>
      </trkpt>
      <trkpt lat="41.72947190" lon="2.510067773">
        <ele>152.00000</ele>
        <time>2019-03-16T11:20:11Z</time>
      </trkpt>
      <trkpt lat="41.72957777" lon="2.509876750">
        <ele>154.00000</ele>
        <time>2019-03-16T11:20:41Z</time>
      </trkpt>
      <trkpt lat="41.72957919" lon="2.509640799">
        <ele>154.00000</ele>
        <time>2019-03-16T11:20:59Z</time>
      </trkpt>
      <trkpt lat="41.72943309" lon="2.509506354">
        <ele>154.00000</ele>
        <time>2019-03-16T11:21:15Z</time>
      </trkpt>
      <trkpt lat="41.72930954" lon="2.509329076">
        <ele>154.00000</ele>
        <time>2019-03-16T11:21:32Z</time>
      </trkpt>
      <trkpt lat="41.72926110" lon="2.509080637">
        <ele>155.00000</ele>
        <time>2019-03-16T11:21:56Z</time>
      </trkpt>
      <trkpt lat="41.72919488" lon="2.508863210">
        <ele>156.00000</ele>
        <time>2019-03-16T11:22:16Z</time>
      </trkpt>
      <trkpt lat="41.72908139" lon="2.508663302">
        <ele>158.00000</ele>
        <time>2019-03-16T11:22:34Z</time>
      </trkpt>
      <trkpt lat="41.72901433" lon="2.508426513">
        <ele>158.00000</ele>
        <time>2019-03-16T11:22:54Z</time>
      </trkpt>
      <trkpt lat="41.72902582" lon="2.508188299">
        <ele>159.00000</ele>
        <time>2019-03-16T11:23:09Z</time>
      </trkpt>
      <trkpt lat="41.72906052" lon="2.508119316">
        <ele>159.00000</ele>
        <time>2019-03-16T11:23:16Z</time>
      </trkpt>
      <trkpt lat="41.72909807" lon="2.507950505">
        <ele>161.00000</ele>
        <time>2019-03-16T11:23:27Z</time>
      </trkpt>
      <trkpt lat="41.72910662" lon="2.507912786">
        <ele>161.00000</ele>
        <time>2019-03-16T11:23:30Z</time>
      </trkpt>
      <trkpt lat="41.72911441" lon="2.507842713">
        <ele>162.00000</ele>
        <time>2019-03-16T11:23:35Z</time>
      </trkpt>
      <trkpt lat="41.72911517" lon="2.507720421">
        <ele>162.00000</ele>
        <time>2019-03-16T11:23:44Z</time>
      </trkpt>
      <trkpt lat="41.72915674" lon="2.507515819">
        <ele>163.00000</ele>
        <time>2019-03-16T11:23:58Z</time>
      </trkpt>
      <trkpt lat="41.72921324" lon="2.507369723">
        <ele>163.00000</ele>
        <time>2019-03-16T11:24:07Z</time>
      </trkpt>
      <trkpt lat="41.72928851" lon="2.507153972">
        <ele>163.00000</ele>
        <time>2019-03-16T11:24:24Z</time>
      </trkpt>
      <trkpt lat="41.72937702" lon="2.506954902">
        <ele>162.00000</ele>
        <time>2019-03-16T11:24:40Z</time>
      </trkpt>
      <trkpt lat="41.72947266" lon="2.506753737">
        <ele>162.00000</ele>
        <time>2019-03-16T11:24:54Z</time>
      </trkpt>
      <trkpt lat="41.72948246" lon="2.506742672">
        <ele>162.00000</ele>
        <time>2019-03-16T11:24:55Z</time>
      </trkpt>
      <trkpt lat="41.72948565" lon="2.506728842">
        <ele>162.00000</ele>
        <time>2019-03-16T11:24:56Z</time>
      </trkpt>
      <trkpt lat="41.72959101" lon="2.506534047">
        <ele>163.00000</ele>
        <time>2019-03-16T11:25:13Z</time>
      </trkpt>
      <trkpt lat="41.72962755" lon="2.506497418">
        <ele>164.00000</ele>
        <time>2019-03-16T11:25:17Z</time>
      </trkpt>
      <trkpt lat="41.72974968" lon="2.506289714">
        <ele>165.00000</ele>
        <time>2019-03-16T11:25:38Z</time>
      </trkpt>
      <trkpt lat="41.72990181" lon="2.506165327">
        <ele>165.00000</ele>
        <time>2019-03-16T11:25:56Z</time>
      </trkpt>
      <trkpt lat="41.73006727" lon="2.506064744">
        <ele>165.00000</ele>
        <time>2019-03-16T11:26:21Z</time>
      </trkpt>
      <trkpt lat="41.73024061" lon="2.505961479">
        <ele>165.00000</ele>
        <time>2019-03-16T11:26:38Z</time>
      </trkpt>
      <trkpt lat="41.73033976" lon="2.505762660">
        <ele>165.00000</ele>
        <time>2019-03-16T11:26:56Z</time>
      </trkpt>
      <trkpt lat="41.73051369" lon="2.505679847">
        <ele>165.00000</ele>
        <time>2019-03-16T11:27:14Z</time>
      </trkpt>
      <trkpt lat="41.73061620" lon="2.505567278">
        <ele>167.00000</ele>
        <time>2019-03-16T11:27:28Z</time>
      </trkpt>
      <trkpt lat="41.73069784" lon="2.505405591">
        <ele>169.00000</ele>
        <time>2019-03-16T11:27:40Z</time>
      </trkpt>
      <trkpt lat="41.73072190" lon="2.505335016">
        <ele>169.00000</ele>
        <time>2019-03-16T11:27:46Z</time>
      </trkpt>
      <trkpt lat="41.73076322" lon="2.505280952">
        <ele>170.00000</ele>
        <time>2019-03-16T11:27:51Z</time>
      </trkpt>
      <trkpt lat="41.73080203" lon="2.505171904">
        <ele>171.00000</ele>
        <time>2019-03-16T11:27:58Z</time>
      </trkpt>
      <trkpt lat="41.73081980" lon="2.505130916">
        <ele>171.00000</ele>
        <time>2019-03-16T11:28:01Z</time>
      </trkpt>
      <trkpt lat="41.73085198" lon="2.505081966">
        <ele>172.00000</ele>
        <time>2019-03-16T11:28:05Z</time>
      </trkpt>
      <trkpt lat="41.73092935" lon="2.505012815">
        <ele>174.00000</ele>
        <time>2019-03-16T11:28:12Z</time>
      </trkpt>
      <trkpt lat="41.73104032" lon="2.504910891">
        <ele>177.00000</ele>
        <time>2019-03-16T11:28:24Z</time>
      </trkpt>
      <trkpt lat="41.73105030" lon="2.504899241">
        <ele>178.00000</ele>
        <time>2019-03-16T11:28:26Z</time>
      </trkpt>
      <trkpt lat="41.73112632" lon="2.504814080">
        <ele>181.00000</ele>
        <time>2019-03-16T11:28:36Z</time>
      </trkpt>
      <trkpt lat="41.73129455" lon="2.504663038">
        <ele>184.00000</ele>
        <time>2019-03-16T11:28:51Z</time>
      </trkpt>
      <trkpt lat="41.73142740" lon="2.504503782">
        <ele>182.00000</ele>
        <time>2019-03-16T11:29:26Z</time>
      </trkpt>
      <trkpt lat="41.73140485" lon="2.504395404">
        <ele>180.00000</ele>
        <time>2019-03-16T11:29:48Z</time>
      </trkpt>
      <trkpt lat="41.73138340" lon="2.504395907">
        <ele>180.00000</ele>
        <time>2019-03-16T11:29:52Z</time>
      </trkpt>
      <trkpt lat="41.73123939" lon="2.504353243">
        <ele>177.00000</ele>
        <time>2019-03-16T11:30:34Z</time>
      </trkpt>
      <trkpt lat="41.73106061" lon="2.504272777">
        <ele>176.00000</ele>
        <time>2019-03-16T11:30:47Z</time>
      </trkpt>
      <trkpt lat="41.73091040" lon="2.504141852">
        <ele>176.00000</ele>
        <time>2019-03-16T11:31:03Z</time>
      </trkpt>
      <trkpt lat="41.73081829" lon="2.503954851">
        <ele>175.00000</ele>
        <time>2019-03-16T11:31:19Z</time>
      </trkpt>
      <trkpt lat="41.73094427" lon="2.503773132">
        <ele>173.00000</ele>
        <time>2019-03-16T11:31:37Z</time>
      </trkpt>
      <trkpt lat="41.73104896" lon="2.503552353">
        <ele>171.00000</ele>
        <time>2019-03-16T11:31:53Z</time>
      </trkpt>
      <trkpt lat="41.73107092" lon="2.503470042">
        <ele>171.00000</ele>
        <time>2019-03-16T11:32:01Z</time>
      </trkpt>
      <trkpt lat="41.73109548" lon="2.503417655">
        <ele>170.00000</ele>
        <time>2019-03-16T11:32:05Z</time>
      </trkpt>
      <trkpt lat="41.73110864" lon="2.503388235">
        <ele>170.00000</ele>
        <time>2019-03-16T11:32:07Z</time>
      </trkpt>
      <trkpt lat="41.73121031" lon="2.503247335">
        <ele>169.00000</ele>
        <time>2019-03-16T11:32:19Z</time>
      </trkpt>
      <trkpt lat="41.73127938" lon="2.503105513">
        <ele>169.00000</ele>
        <time>2019-03-16T11:32:32Z</time>
      </trkpt>
      <trkpt lat="41.73134626" lon="2.503022365">
        <ele>168.00000</ele>
        <time>2019-03-16T11:32:39Z</time>
      </trkpt>
      <trkpt lat="41.73143461" lon="2.502815332">
        <ele>167.00000</ele>
        <time>2019-03-16T11:32:54Z</time>
      </trkpt>
      <trkpt lat="41.73147744" lon="2.502720952">
        <ele>168.00000</ele>
        <time>2019-03-16T11:33:01Z</time>
      </trkpt>
      <trkpt lat="41.73170819" lon="2.502434710">
        <ele>190.00000</ele>
        <time>2019-03-16T11:48:22Z</time>
      </trkpt>
      <trkpt lat="41.73172814" lon="2.502450635">
        <ele>193.00000</ele>
        <time>2019-03-16T11:48:23Z</time>
      </trkpt>
      <trkpt lat="41.73163703" lon="2.502302778">
        <ele>158.00000</ele>
        <time>2019-03-16T11:50:11Z</time>
      </trkpt>
      <trkpt lat="41.73163762" lon="2.502288697">
        <ele>163.00000</ele>
        <time>2019-03-16T11:50:14Z</time>
      </trkpt>
      <trkpt lat="41.73180048" lon="2.502248547">
        <ele>179.00000</ele>
        <time>2019-03-16T11:50:45Z</time>
      </trkpt>
      <trkpt lat="41.73193744" lon="2.502097170">
        <ele>178.00000</ele>
        <time>2019-03-16T11:51:05Z</time>
      </trkpt>
      <trkpt lat="41.73200156" lon="2.502060793">
        <ele>177.00000</ele>
        <time>2019-03-16T11:51:13Z</time>
      </trkpt>
      <trkpt lat="41.73197038" lon="2.502027098">
        <ele>178.00000</ele>
        <time>2019-03-16T11:51:29Z</time>
      </trkpt>
      <trkpt lat="41.73203878" lon="2.501894831">
        <ele>177.00000</ele>
        <time>2019-03-16T11:51:50Z</time>
      </trkpt>
      <trkpt lat="41.73207356" lon="2.501809336">
        <ele>177.00000</ele>
        <time>2019-03-16T11:52:02Z</time>
      </trkpt>
      <trkpt lat="41.73213005" lon="2.501727109">
        <ele>178.00000</ele>
        <time>2019-03-16T11:52:10Z</time>
      </trkpt>
      <trkpt lat="41.73213525" lon="2.501724427">
        <ele>178.00000</ele>
        <time>2019-03-16T11:52:12Z</time>
      </trkpt>
      <trkpt lat="41.73216660" lon="2.501540612">
        <ele>177.00000</ele>
        <time>2019-03-16T11:53:12Z</time>
      </trkpt>
      <trkpt lat="41.73223173" lon="2.501309104">
        <ele>176.00000</ele>
        <time>2019-03-16T11:53:35Z</time>
      </trkpt>
      <trkpt lat="41.73241009" lon="2.501220256">
        <ele>176.00000</ele>
        <time>2019-03-16T11:53:49Z</time>
      </trkpt>
      <trkpt lat="41.73253691" lon="2.501053456">
        <ele>175.00000</ele>
        <time>2019-03-16T11:54:08Z</time>
      </trkpt>
      <trkpt lat="41.73262501" lon="2.500845249">
        <ele>174.00000</ele>
        <time>2019-03-16T11:54:28Z</time>
      </trkpt>
      <trkpt lat="41.73271042" lon="2.500629499">
        <ele>173.00000</ele>
        <time>2019-03-16T11:54:48Z</time>
      </trkpt>
      <trkpt lat="41.73271721" lon="2.500602426">
        <ele>173.00000</ele>
        <time>2019-03-16T11:54:50Z</time>
      </trkpt>
      <trkpt lat="41.73274160" lon="2.500528497">
        <ele>173.00000</ele>
        <time>2019-03-16T11:54:57Z</time>
      </trkpt>
      <trkpt lat="41.73273774" lon="2.500440320">
        <ele>173.00000</ele>
        <time>2019-03-16T11:55:03Z</time>
      </trkpt>
      <trkpt lat="41.73275853" lon="2.500395560">
        <ele>173.00000</ele>
        <time>2019-03-16T11:55:07Z</time>
      </trkpt>
      <trkpt lat="41.73288275" lon="2.500206967">
        <ele>174.00000</ele>
        <time>2019-03-16T11:55:27Z</time>
      </trkpt>
      <trkpt lat="41.73304134" lon="2.500093728">
        <ele>175.00000</ele>
        <time>2019-03-16T11:55:45Z</time>
      </trkpt>
      <trkpt lat="41.73311459" lon="2.500106636">
        <ele>175.00000</ele>
        <time>2019-03-16T11:55:48Z</time>
      </trkpt>
      <trkpt lat="41.73330469" lon="2.500060535">
        <ele>176.00000</ele>
        <time>2019-03-16T11:56:05Z</time>
      </trkpt>
      <trkpt lat="41.73339421" lon="2.500076880">
        <ele>177.00000</ele>
        <time>2019-03-16T11:56:15Z</time>
      </trkpt>
      <trkpt lat="41.73357183" lon="2.500033797">
        <ele>176.00000</ele>
        <time>2019-03-16T11:56:44Z</time>
      </trkpt>
      <trkpt lat="41.73376469" lon="2.500034216">
        <ele>176.00000</ele>
        <time>2019-03-16T11:57:08Z</time>
      </trkpt>
      <trkpt lat="41.73394507" lon="2.500018961">
        <ele>176.00000</ele>
        <time>2019-03-16T11:57:30Z</time>
      </trkpt>
      <trkpt lat="41.73412805" lon="2.500029774">
        <ele>175.00000</ele>
        <time>2019-03-16T11:57:50Z</time>
      </trkpt>
      <trkpt lat="41.73427515" lon="2.500033546">
        <ele>176.00000</ele>
        <time>2019-03-16T11:58:03Z</time>
      </trkpt>
      <trkpt lat="41.73446165" lon="2.500046119">
        <ele>179.00000</ele>
        <time>2019-03-16T11:58:18Z</time>
      </trkpt>
      <trkpt lat="41.73458939" lon="2.500066906">
        <ele>181.00000</ele>
        <time>2019-03-16T11:58:30Z</time>
      </trkpt>
      <trkpt lat="41.73478594" lon="2.500034300">
        <ele>186.00000</ele>
        <time>2019-03-16T11:58:46Z</time>
      </trkpt>
      <trkpt lat="41.73483557" lon="2.500113593">
        <ele>186.00000</ele>
        <time>2019-03-16T11:58:53Z</time>
      </trkpt>
      <trkpt lat="41.73482953" lon="2.500119460">
        <ele>186.00000</ele>
        <time>2019-03-16T11:58:54Z</time>
      </trkpt>
      <trkpt lat="41.73489835" lon="2.500281566">
        <ele>186.00000</ele>
        <time>2019-03-16T11:59:13Z</time>
      </trkpt>
      <trkpt lat="41.73502877" lon="2.500449540">
        <ele>187.00000</ele>
        <time>2019-03-16T11:59:29Z</time>
      </trkpt>
      <trkpt lat="41.73510815" lon="2.500667218">
        <ele>188.00000</ele>
        <time>2019-03-16T11:59:48Z</time>
      </trkpt>
      <trkpt lat="41.73506984" lon="2.500902665">
        <ele>187.00000</ele>
        <time>2019-03-16T12:00:05Z</time>
      </trkpt>
      <trkpt lat="41.73500874" lon="2.500981288">
        <ele>186.00000</ele>
        <time>2019-03-16T12:00:15Z</time>
      </trkpt>
      <trkpt lat="41.73494646" lon="2.501056641">
        <ele>186.00000</ele>
        <time>2019-03-16T12:00:21Z</time>
      </trkpt>
      <trkpt lat="41.73494629" lon="2.501295022">
        <ele>187.00000</ele>
        <time>2019-03-16T12:00:36Z</time>
      </trkpt>
      <trkpt lat="41.73494956" lon="2.501324443">
        <ele>187.00000</ele>
        <time>2019-03-16T12:00:39Z</time>
      </trkpt>
      <trkpt lat="41.73512675" lon="2.501410106">
        <ele>190.00000</ele>
        <time>2019-03-16T12:01:03Z</time>
      </trkpt>
      <trkpt lat="41.73531115" lon="2.501418739">
        <ele>192.00000</ele>
        <time>2019-03-16T12:01:21Z</time>
      </trkpt>
      <trkpt lat="41.73537771" lon="2.501403568">
        <ele>193.00000</ele>
        <time>2019-03-16T12:01:29Z</time>
      </trkpt>
      <trkpt lat="41.73555901" lon="2.501387055">
        <ele>193.00000</ele>
        <time>2019-03-16T12:01:51Z</time>
      </trkpt>
      <trkpt lat="41.73573779" lon="2.501324946">
        <ele>195.00000</ele>
        <time>2019-03-16T12:02:10Z</time>
      </trkpt>
      <trkpt lat="41.73589412" lon="2.501217154">
        <ele>194.00000</ele>
        <time>2019-03-16T12:02:33Z</time>
      </trkpt>
      <trkpt lat="41.73607609" lon="2.501150015">
        <ele>196.00000</ele>
        <time>2019-03-16T12:02:54Z</time>
      </trkpt>
      <trkpt lat="41.73628957" lon="2.501146914">
        <ele>198.00000</ele>
        <time>2019-03-16T12:03:08Z</time>
      </trkpt>
      <trkpt lat="41.73648303" lon="2.501165186">
        <ele>201.00000</ele>
        <time>2019-03-16T12:03:23Z</time>
      </trkpt>
      <trkpt lat="41.73666617" lon="2.501202067">
        <ele>206.00000</ele>
        <time>2019-03-16T12:03:34Z</time>
      </trkpt>
      <trkpt lat="41.73681101" lon="2.501226626">
        <ele>209.00000</ele>
        <time>2019-03-16T12:03:43Z</time>
      </trkpt>
      <trkpt lat="41.73699969" lon="2.501154961">
        <ele>205.00000</ele>
        <time>2019-03-16T12:04:03Z</time>
      </trkpt>
      <trkpt lat="41.73715911" lon="2.501031579">
        <ele>202.00000</ele>
        <time>2019-03-16T12:04:19Z</time>
      </trkpt>
      <trkpt lat="41.73726364" lon="2.500812644">
        <ele>204.00000</ele>
        <time>2019-03-16T12:04:35Z</time>
      </trkpt>
      <trkpt lat="41.73739825" lon="2.500629583">
        <ele>204.00000</ele>
        <time>2019-03-16T12:04:53Z</time>
      </trkpt>
      <trkpt lat="41.73741593" lon="2.500608880">
        <ele>204.00000</ele>
        <time>2019-03-16T12:04:55Z</time>
      </trkpt>
      <trkpt lat="41.73748475" lon="2.500489354">
        <ele>205.00000</ele>
        <time>2019-03-16T12:05:05Z</time>
      </trkpt>
      <trkpt lat="41.73750185" lon="2.500465549">
        <ele>205.00000</ele>
        <time>2019-03-16T12:05:07Z</time>
      </trkpt>
      <trkpt lat="41.73764686" lon="2.500305622">
        <ele>206.00000</ele>
        <time>2019-03-16T12:05:23Z</time>
      </trkpt>
      <trkpt lat="41.73777166" lon="2.500130189">
        <ele>203.00000</ele>
        <time>2019-03-16T12:05:36Z</time>
      </trkpt>
      <trkpt lat="41.73789781" lon="2.499997252">
        <ele>201.00000</ele>
        <time>2019-03-16T12:05:50Z</time>
      </trkpt>
      <trkpt lat="41.73792815" lon="2.499959198">
        <ele>200.00000</ele>
        <time>2019-03-16T12:05:54Z</time>
      </trkpt>
      <trkpt lat="41.73803142" lon="2.499848473">
        <ele>197.00000</ele>
        <time>2019-03-16T12:06:06Z</time>
      </trkpt>
      <trkpt lat="41.73804575" lon="2.499831290">
        <ele>197.00000</ele>
        <time>2019-03-16T12:06:08Z</time>
      </trkpt>
      <trkpt lat="41.73807517" lon="2.499787956">
        <ele>196.00000</ele>
        <time>2019-03-16T12:06:12Z</time>
      </trkpt>
      <trkpt lat="41.73810459" lon="2.499755099">
        <ele>195.00000</ele>
        <time>2019-03-16T12:06:15Z</time>
      </trkpt>
      <trkpt lat="41.73824826" lon="2.499591233">
        <ele>193.00000</ele>
        <time>2019-03-16T12:06:31Z</time>
      </trkpt>
      <trkpt lat="41.73825178" lon="2.499575978">
        <ele>193.00000</ele>
        <time>2019-03-16T12:06:32Z</time>
      </trkpt>
      <trkpt lat="41.73828648" lon="2.499534152">
        <ele>192.00000</ele>
        <time>2019-03-16T12:06:37Z</time>
      </trkpt>
      <trkpt lat="41.73841824" lon="2.499360395">
        <ele>192.00000</ele>
        <time>2019-03-16T12:06:50Z</time>
      </trkpt>
      <trkpt lat="41.73853475" lon="2.499175909">
        <ele>192.00000</ele>
        <time>2019-03-16T12:07:06Z</time>
      </trkpt>
      <trkpt lat="41.73863902" lon="2.498967619">
        <ele>193.00000</ele>
        <time>2019-03-16T12:07:21Z</time>
      </trkpt>
      <trkpt lat="41.73864933" lon="2.498943731">
        <ele>193.00000</ele>
        <time>2019-03-16T12:07:23Z</time>
      </trkpt>
      <trkpt lat="41.73873240" lon="2.498718928">
        <ele>193.00000</ele>
        <time>2019-03-16T12:07:39Z</time>
      </trkpt>
      <trkpt lat="41.73880331" lon="2.498560426">
        <ele>192.00000</ele>
        <time>2019-03-16T12:07:50Z</time>
      </trkpt>
      <trkpt lat="41.73887698" lon="2.498336629">
        <ele>190.00000</ele>
        <time>2019-03-16T12:08:06Z</time>
      </trkpt>
      <trkpt lat="41.73888453" lon="2.498323973">
        <ele>190.00000</ele>
        <time>2019-03-16T12:08:07Z</time>
      </trkpt>
      <trkpt lat="41.73895318" lon="2.498166728">
        <ele>189.00000</ele>
        <time>2019-03-16T12:08:19Z</time>
      </trkpt>
      <trkpt lat="41.73897597" lon="2.498096823">
        <ele>189.00000</ele>
        <time>2019-03-16T12:08:24Z</time>
      </trkpt>
      <trkpt lat="41.73899509" lon="2.497993726">
        <ele>190.00000</ele>
        <time>2019-03-16T12:08:30Z</time>
      </trkpt>
      <trkpt lat="41.73903490" lon="2.497888281">
        <ele>191.00000</ele>
        <time>2019-03-16T12:08:37Z</time>
      </trkpt>
      <trkpt lat="41.73906742" lon="2.497826591">
        <ele>193.00000</ele>
        <time>2019-03-16T12:08:42Z</time>
      </trkpt>
      <trkpt lat="41.73912132" lon="2.497718045">
        <ele>195.00000</ele>
        <time>2019-03-16T12:08:50Z</time>
      </trkpt>
      <trkpt lat="41.73917261" lon="2.497642524">
        <ele>197.00000</ele>
        <time>2019-03-16T12:08:57Z</time>
      </trkpt>
      <trkpt lat="41.73931586" lon="2.497482597">
        <ele>201.00000</ele>
        <time>2019-03-16T12:09:15Z</time>
      </trkpt>
      <trkpt lat="41.73946975" lon="2.497333399">
        <ele>204.00000</ele>
        <time>2019-03-16T12:09:29Z</time>
      </trkpt>
      <trkpt lat="41.73947948" lon="2.497320575">
        <ele>205.00000</ele>
        <time>2019-03-16T12:09:30Z</time>
      </trkpt>
      <trkpt lat="41.73958500" lon="2.497116224">
        <ele>209.00000</ele>
        <time>2019-03-16T12:09:47Z</time>
      </trkpt>
      <trkpt lat="41.73961861" lon="2.496940623">
        <ele>212.00000</ele>
        <time>2019-03-16T12:09:58Z</time>
      </trkpt>
      <trkpt lat="41.73961384" lon="2.496697464">
        <ele>213.00000</ele>
        <time>2019-03-16T12:10:19Z</time>
      </trkpt>
      <trkpt lat="41.73958090" lon="2.496467633">
        <ele>215.00000</ele>
        <time>2019-03-16T12:10:36Z</time>
      </trkpt>
      <trkpt lat="41.73960554" lon="2.496218187">
        <ele>216.00000</ele>
        <time>2019-03-16T12:10:52Z</time>
      </trkpt>
      <trkpt lat="41.73964343" lon="2.496067732">
        <ele>216.00000</ele>
        <time>2019-03-16T12:11:00Z</time>
      </trkpt>
      <trkpt lat="41.73968978" lon="2.495848545">
        <ele>216.00000</ele>
        <time>2019-03-16T12:11:13Z</time>
      </trkpt>
      <trkpt lat="41.73979405" lon="2.495651738">
        <ele>216.00000</ele>
        <time>2019-03-16T12:11:33Z</time>
      </trkpt>
      <trkpt lat="41.73986295" lon="2.495513604">
        <ele>214.00000</ele>
        <time>2019-03-16T12:11:56Z</time>
      </trkpt>
      <trkpt lat="41.74006495" lon="2.495141616">
        <ele>211.00000</ele>
        <time>2019-03-16T12:18:11Z</time>
      </trkpt>
      <trkpt lat="41.74014450" lon="2.495138011">
        <ele>211.00000</ele>
        <time>2019-03-16T12:18:34Z</time>
      </trkpt>
      <trkpt lat="41.74032856" lon="2.495138263">
        <ele>209.00000</ele>
        <time>2019-03-16T12:18:56Z</time>
      </trkpt>
      <trkpt lat="41.74050777" lon="2.495073387">
        <ele>209.00000</ele>
        <time>2019-03-16T12:19:23Z</time>
      </trkpt>
      <trkpt lat="41.74065554" lon="2.495160726">
        <ele>209.00000</ele>
        <time>2019-03-16T12:19:38Z</time>
      </trkpt>
      <trkpt lat="41.74059972" lon="2.495288550">
        <ele>209.00000</ele>
        <time>2019-03-16T12:19:48Z</time>
      </trkpt>
      <trkpt lat="41.74055965" lon="2.495444202">
        <ele>210.00000</ele>
        <time>2019-03-16T12:20:00Z</time>
      </trkpt>
      <trkpt lat="41.74073676" lon="2.495402125">
        <ele>213.00000</ele>
        <time>2019-03-16T12:20:21Z</time>
      </trkpt>
      <trkpt lat="41.74084455" lon="2.495428277">
        <ele>214.00000</ele>
        <time>2019-03-16T12:20:32Z</time>
      </trkpt>
      <trkpt lat="41.74092778" lon="2.495406987">
        <ele>214.00000</ele>
        <time>2019-03-16T12:20:42Z</time>
      </trkpt>
      <trkpt lat="41.74110280" lon="2.495467420">
        <ele>215.00000</ele>
        <time>2019-03-16T12:21:00Z</time>
      </trkpt>
      <trkpt lat="41.74124630" lon="2.495317719">
        <ele>216.00000</ele>
        <time>2019-03-16T12:21:25Z</time>
      </trkpt>
      <trkpt lat="41.74141301" lon="2.495228452">
        <ele>216.00000</ele>
        <time>2019-03-16T12:21:47Z</time>
      </trkpt>
      <trkpt lat="41.74159666" lon="2.495285617">
        <ele>219.00000</ele>
        <time>2019-03-16T12:22:08Z</time>
      </trkpt>
      <trkpt lat="41.74176958" lon="2.495313026">
        <ele>220.00000</ele>
        <time>2019-03-16T12:22:27Z</time>
      </trkpt>
      <trkpt lat="41.74189606" lon="2.495285281">
        <ele>222.00000</ele>
        <time>2019-03-16T12:22:42Z</time>
      </trkpt>
      <trkpt lat="41.74189866" lon="2.495226524">
        <ele>227.00000</ele>
        <time>2019-03-16T12:23:53Z</time>
      </trkpt>
      <trkpt lat="41.74207267" lon="2.495155949">
        <ele>227.00000</ele>
        <time>2019-03-16T12:24:10Z</time>
      </trkpt>
      <trkpt lat="41.74221566" lon="2.495012534">
        <ele>226.00000</ele>
        <time>2019-03-16T12:24:32Z</time>
      </trkpt>
      <trkpt lat="41.74228733" lon="2.494792593">
        <ele>225.00000</ele>
        <time>2019-03-16T12:24:54Z</time>
      </trkpt>
      <trkpt lat="41.74239386" lon="2.494593355">
        <ele>223.00000</ele>
        <time>2019-03-16T12:25:15Z</time>
      </trkpt>
      <trkpt lat="41.74249000" lon="2.494389340">
        <ele>222.00000</ele>
        <time>2019-03-16T12:25:35Z</time>
      </trkpt>
      <trkpt lat="41.74249981" lon="2.494365703">
        <ele>222.00000</ele>
        <time>2019-03-16T12:25:38Z</time>
      </trkpt>
      <trkpt lat="41.74251439" lon="2.494379533">
        <ele>222.00000</ele>
        <time>2019-03-16T12:26:09Z</time>
      </trkpt>
      <trkpt lat="41.74259436" lon="2.494159257">
        <ele>221.00000</ele>
        <time>2019-03-16T12:26:30Z</time>
      </trkpt>
      <trkpt lat="41.74265001" lon="2.494033193">
        <ele>221.00000</ele>
        <time>2019-03-16T12:26:45Z</time>
      </trkpt>
      <trkpt lat="41.74260475" lon="2.493799086">
        <ele>221.00000</ele>
        <time>2019-03-16T12:27:04Z</time>
      </trkpt>
      <trkpt lat="41.74255438" lon="2.493663886">
        <ele>221.00000</ele>
        <time>2019-03-16T12:27:18Z</time>
      </trkpt>
      <trkpt lat="41.74254423" lon="2.493604794">
        <ele>221.00000</ele>
        <time>2019-03-16T12:27:52Z</time>
      </trkpt>
      <trkpt lat="41.74246410" lon="2.493465654">
        <ele>221.00000</ele>
        <time>2019-03-16T12:28:13Z</time>
      </trkpt>
      <trkpt lat="41.74235489" lon="2.493309751">
        <ele>222.00000</ele>
        <time>2019-03-16T12:28:35Z</time>
      </trkpt>
      <trkpt lat="41.74235346" lon="2.493291394">
        <ele>222.00000</ele>
        <time>2019-03-16T12:28:37Z</time>
      </trkpt>
      <trkpt lat="41.74233720" lon="2.493243869">
        <ele>222.00000</ele>
        <time>2019-03-16T12:28:41Z</time>
      </trkpt>
      <trkpt lat="41.74229403" lon="2.493007499">
        <ele>223.00000</ele>
        <time>2019-03-16T12:29:00Z</time>
      </trkpt>
      <trkpt lat="41.74239453" lon="2.492813542">
        <ele>224.00000</ele>
        <time>2019-03-16T12:29:24Z</time>
      </trkpt>
      <trkpt lat="41.74244139" lon="2.492749588">
        <ele>226.00000</ele>
        <time>2019-03-16T12:29:52Z</time>
      </trkpt>
      <trkpt lat="41.74249109" lon="2.492695441">
        <ele>227.00000</ele>
        <time>2019-03-16T12:30:32Z</time>
      </trkpt>
      <trkpt lat="41.74262654" lon="2.492540040">
        <ele>229.00000</ele>
        <time>2019-03-16T12:30:54Z</time>
      </trkpt>
      <trkpt lat="41.74269989" lon="2.492454294">
        <ele>229.00000</ele>
        <time>2019-03-16T12:31:05Z</time>
      </trkpt>
      <trkpt lat="41.74286090" lon="2.492323787">
        <ele>230.00000</ele>
        <time>2019-03-16T12:31:23Z</time>
      </trkpt>
      <trkpt lat="41.74291086" lon="2.492256145">
        <ele>231.00000</ele>
        <time>2019-03-16T12:31:31Z</time>
      </trkpt>
      <trkpt lat="41.74291279" lon="2.492225384">
        <ele>233.00000</ele>
        <time>2019-03-16T12:32:10Z</time>
      </trkpt>
      <trkpt lat="41.74304187" lon="2.492113821">
        <ele>234.00000</ele>
        <time>2019-03-16T12:32:33Z</time>
      </trkpt>
      <trkpt lat="41.74314329" lon="2.491907961">
        <ele>234.00000</ele>
        <time>2019-03-16T12:32:58Z</time>
      </trkpt>
      <trkpt lat="41.74324505" lon="2.491713417">
        <ele>235.00000</ele>
        <time>2019-03-16T12:33:18Z</time>
      </trkpt>
      <trkpt lat="41.74329416" lon="2.491485429">
        <ele>236.00000</ele>
        <time>2019-03-16T12:33:40Z</time>
      </trkpt>
      <trkpt lat="41.74342433" lon="2.491318210">
        <ele>238.00000</ele>
        <time>2019-03-16T12:34:00Z</time>
      </trkpt>
      <trkpt lat="41.74350002" lon="2.491274876">
        <ele>238.00000</ele>
        <time>2019-03-16T12:34:07Z</time>
      </trkpt>
      <trkpt lat="41.74368199" lon="2.491255262">
        <ele>240.00000</ele>
        <time>2019-03-16T12:34:30Z</time>
      </trkpt>
      <trkpt lat="41.74379104" lon="2.491239840">
        <ele>241.00000</ele>
        <time>2019-03-16T12:34:45Z</time>
      </trkpt>
      <trkpt lat="41.74391442" lon="2.491279905">
        <ele>245.00000</ele>
        <time>2019-03-16T12:35:54Z</time>
      </trkpt>
      <trkpt lat="41.74409933" lon="2.491247300">
        <ele>247.00000</ele>
        <time>2019-03-16T12:36:23Z</time>
      </trkpt>
      <trkpt lat="41.74428524" lon="2.491250904">
        <ele>250.00000</ele>
        <time>2019-03-16T12:36:44Z</time>
      </trkpt>
      <trkpt lat="41.74447073" lon="2.491284934">
        <ele>258.00000</ele>
        <time>2019-03-16T12:37:08Z</time>
      </trkpt>
      <trkpt lat="41.74461180" lon="2.491290131">
        <ele>261.00000</ele>
        <time>2019-03-16T12:37:26Z</time>
      </trkpt>
      <trkpt lat="41.74479721" lon="2.491269931">
        <ele>264.00000</ele>
        <time>2019-03-16T12:37:47Z</time>
      </trkpt>
      <trkpt lat="41.74493635" lon="2.491244617">
        <ele>264.00000</ele>
        <time>2019-03-16T12:38:00Z</time>
      </trkpt>
      <trkpt lat="41.74497893" lon="2.491251155">
        <ele>264.00000</ele>
        <time>2019-03-16T12:38:04Z</time>
      </trkpt>
      <trkpt lat="41.74503073" lon="2.491240426">
        <ele>265.00000</ele>
        <time>2019-03-16T12:38:10Z</time>
      </trkpt>
      <trkpt lat="41.74514346" lon="2.491252748">
        <ele>266.00000</ele>
        <time>2019-03-16T12:38:24Z</time>
      </trkpt>
      <trkpt lat="41.74529702" lon="2.491239085">
        <ele>267.00000</ele>
        <time>2019-03-16T12:38:48Z</time>
      </trkpt>
      <trkpt lat="41.74547329" lon="2.491285856">
        <ele>269.00000</ele>
        <time>2019-03-16T12:39:09Z</time>
      </trkpt>
      <trkpt lat="41.74560572" lon="2.491309829">
        <ele>270.00000</ele>
        <time>2019-03-16T12:39:23Z</time>
      </trkpt>
      <trkpt lat="41.74565275" lon="2.491318210">
        <ele>271.00000</ele>
        <time>2019-03-16T12:39:27Z</time>
      </trkpt>
      <trkpt lat="41.74581376" lon="2.491398258">
        <ele>266.00000</ele>
        <time>2019-03-16T12:40:12Z</time>
      </trkpt>
      <trkpt lat="41.74596925" lon="2.491260459">
        <ele>265.00000</ele>
        <time>2019-03-16T12:40:46Z</time>
      </trkpt>
      <trkpt lat="41.74609255" lon="2.491113692">
        <ele>267.00000</ele>
        <time>2019-03-16T12:41:18Z</time>
      </trkpt>
      <trkpt lat="41.74620461" lon="2.490923758">
        <ele>267.00000</ele>
        <time>2019-03-16T12:41:45Z</time>
      </trkpt>
      <trkpt lat="41.74630863" lon="2.490794928">
        <ele>267.00000</ele>
        <time>2019-03-16T12:42:21Z</time>
      </trkpt>
      <trkpt lat="41.74644551" lon="2.490734159">
        <ele>268.00000</ele>
        <time>2019-03-16T12:42:47Z</time>
      </trkpt>
      <trkpt lat="41.74660552" lon="2.490636929">
        <ele>269.00000</ele>
        <time>2019-03-16T12:43:13Z</time>
      </trkpt>
      <trkpt lat="41.74677726" lon="2.490566940">
        <ele>269.00000</ele>
        <time>2019-03-16T12:43:35Z</time>
      </trkpt>
      <trkpt lat="41.74695563" lon="2.490508770">
        <ele>269.00000</ele>
        <time>2019-03-16T12:43:55Z</time>
      </trkpt>
      <trkpt lat="41.74712335" lon="2.490415731">
        <ele>270.00000</ele>
        <time>2019-03-16T12:44:18Z</time>
      </trkpt>
      <trkpt lat="41.74720734" lon="2.490213140">
        <ele>272.00000</ele>
        <time>2019-03-16T12:44:51Z</time>
      </trkpt>
      <trkpt lat="41.74721798" lon="2.490030331">
        <ele>273.00000</ele>
        <time>2019-03-16T12:45:16Z</time>
      </trkpt>
      <trkpt lat="41.74727188" lon="2.489803517">
        <ele>273.00000</ele>
        <time>2019-03-16T12:45:44Z</time>
      </trkpt>
      <trkpt lat="41.74726685" lon="2.489561866">
        <ele>273.00000</ele>
        <time>2019-03-16T12:46:11Z</time>
      </trkpt>
      <trkpt lat="41.74727926" lon="2.489322228">
        <ele>273.00000</ele>
        <time>2019-03-16T12:46:31Z</time>
      </trkpt>
      <trkpt lat="41.74727356" lon="2.489075046">
        <ele>273.00000</ele>
        <time>2019-03-16T12:46:55Z</time>
      </trkpt>
      <trkpt lat="41.74727515" lon="2.489039925">
        <ele>273.00000</ele>
        <time>2019-03-16T12:46:58Z</time>
      </trkpt>
      <trkpt lat="41.74730172" lon="2.488988796">
        <ele>273.00000</ele>
        <time>2019-03-16T12:47:03Z</time>
      </trkpt>
      <trkpt lat="41.74731136" lon="2.488960716">
        <ele>273.00000</ele>
        <time>2019-03-16T12:47:10Z</time>
      </trkpt>
      <trkpt lat="41.74730340" lon="2.488879328">
        <ele>273.00000</ele>
        <time>2019-03-16T12:47:35Z</time>
      </trkpt>
      <trkpt lat="41.74729719" lon="2.488833395">
        <ele>273.00000</ele>
        <time>2019-03-16T12:47:39Z</time>
      </trkpt>
      <trkpt lat="41.74729091" lon="2.488795844">
        <ele>273.00000</ele>
        <time>2019-03-16T12:47:44Z</time>
      </trkpt>
      <trkpt lat="41.74719619" lon="2.488811686">
        <ele>275.00000</ele>
        <time>2019-03-16T12:49:09Z</time>
      </trkpt>
      <trkpt lat="41.74728034" lon="2.488841274">
        <ele>274.00000</ele>
        <time>2019-03-16T12:50:35Z</time>
      </trkpt>
      <trkpt lat="41.74735167" lon="2.488836077">
        <ele>274.00000</ele>
        <time>2019-03-16T12:51:14Z</time>
      </trkpt>
      <trkpt lat="41.74735628" lon="2.488663326">
        <ele>276.00000</ele>
        <time>2019-03-16T12:51:55Z</time>
      </trkpt>
      <trkpt lat="41.74734547" lon="2.488446068">
        <ele>278.00000</ele>
        <time>2019-03-16T12:52:28Z</time>
      </trkpt>
      <trkpt lat="41.74735042" lon="2.488395525">
        <ele>279.00000</ele>
        <time>2019-03-16T12:52:39Z</time>
      </trkpt>
      <trkpt lat="41.74735620" lon="2.488389071">
        <ele>279.00000</ele>
        <time>2019-03-16T12:52:45Z</time>
      </trkpt>
      <trkpt lat="41.74740557" lon="2.488606665">
        <ele>280.00000</ele>
        <time>2019-03-16T12:53:09Z</time>
      </trkpt>
      <trkpt lat="41.74749576" lon="2.488559642">
        <ele>281.00000</ele>
        <time>2019-03-16T12:53:43Z</time>
      </trkpt>
      <trkpt lat="41.74756541" lon="2.488769525">
        <ele>282.00000</ele>
        <time>2019-03-16T12:54:07Z</time>
      </trkpt>
      <trkpt lat="41.74759198" lon="2.488814704">
        <ele>284.00000</ele>
        <time>2019-03-16T12:54:35Z</time>
      </trkpt>
      <trkpt lat="41.74764647" lon="2.488599373">
        <ele>286.00000</ele>
        <time>2019-03-16T12:55:03Z</time>
      </trkpt>
      <trkpt lat="41.74770740" lon="2.488804059">
        <ele>287.00000</ele>
        <time>2019-03-16T12:55:30Z</time>
      </trkpt>
      <trkpt lat="41.74775468" lon="2.489008577">
        <ele>289.00000</ele>
        <time>2019-03-16T12:56:00Z</time>
      </trkpt>
      <trkpt lat="41.74779038" lon="2.488786038">
        <ele>291.00000</ele>
        <time>2019-03-16T12:56:28Z</time>
      </trkpt>
      <trkpt lat="41.74786247" lon="2.488845214">
        <ele>293.00000</ele>
        <time>2019-03-16T12:56:55Z</time>
      </trkpt>
      <trkpt lat="41.74799180" lon="2.488999357">
        <ele>294.00000</ele>
        <time>2019-03-16T12:57:22Z</time>
      </trkpt>
      <trkpt lat="41.74805726" lon="2.489097341">
        <ele>298.00000</ele>
        <time>2019-03-16T12:57:56Z</time>
      </trkpt>
      <trkpt lat="41.74819339" lon="2.489117877">
        <ele>301.00000</ele>
        <time>2019-03-16T12:58:32Z</time>
      </trkpt>
      <trkpt lat="41.74820872" lon="2.489132462">
        <ele>301.00000</ele>
        <time>2019-03-16T12:58:35Z</time>
      </trkpt>
      <trkpt lat="41.74816380" lon="2.489230530">
        <ele>310.00000</ele>
        <time>2019-03-16T13:00:05Z</time>
      </trkpt>
      <trkpt lat="41.74827134" lon="2.489373693">
        <ele>311.00000</ele>
        <time>2019-03-16T13:00:46Z</time>
      </trkpt>
      <trkpt lat="41.74842665" lon="2.489397833">
        <ele>313.00000</ele>
        <time>2019-03-16T13:01:17Z</time>
      </trkpt>
      <trkpt lat="41.74840268" lon="2.489636130">
        <ele>315.00000</ele>
        <time>2019-03-16T13:01:45Z</time>
      </trkpt>
      <trkpt lat="41.74841802" lon="2.489753728">
        <ele>317.00000</ele>
        <time>2019-03-16T13:01:59Z</time>
      </trkpt>
      <trkpt lat="41.74845742" lon="2.489572344">
        <ele>321.00000</ele>
        <time>2019-03-16T13:02:25Z</time>
      </trkpt>
      <trkpt lat="41.74846454" lon="2.489812402">
        <ele>325.00000</ele>
        <time>2019-03-16T13:02:51Z</time>
      </trkpt>
      <trkpt lat="41.74857535" lon="2.489619534">
        <ele>327.00000</ele>
        <time>2019-03-16T13:03:11Z</time>
      </trkpt>
      <trkpt lat="41.74858365" lon="2.489613583">
        <ele>327.00000</ele>
        <time>2019-03-16T13:03:12Z</time>
      </trkpt>
      <trkpt lat="41.74867023" lon="2.489629173">
        <ele>333.00000</ele>
        <time>2019-03-16T13:03:54Z</time>
      </trkpt>
      <trkpt lat="41.74864618" lon="2.489603105">
        <ele>336.00000</ele>
        <time>2019-03-16T13:04:43Z</time>
      </trkpt>
      <trkpt lat="41.74866621" lon="2.489613918">
        <ele>336.00000</ele>
        <time>2019-03-16T13:04:47Z</time>
      </trkpt>
      <trkpt lat="41.74878691" lon="2.489663371">
        <ele>337.00000</ele>
        <time>2019-03-16T13:05:42Z</time>
      </trkpt>
      <trkpt lat="41.74897047" lon="2.489624060">
        <ele>337.00000</ele>
        <time>2019-03-16T13:06:11Z</time>
      </trkpt>
      <trkpt lat="41.74913099" lon="2.489510821">
        <ele>338.00000</ele>
        <time>2019-03-16T13:06:36Z</time>
      </trkpt>
      <trkpt lat="41.74920693" lon="2.489374112">
        <ele>339.00000</ele>
        <time>2019-03-16T13:07:18Z</time>
      </trkpt>
      <trkpt lat="41.74915848" lon="2.489312421">
        <ele>339.00000</ele>
        <time>2019-03-16T13:07:32Z</time>
      </trkpt>
      <trkpt lat="41.74922134" lon="2.489376459">
        <ele>341.00000</ele>
        <time>2019-03-16T13:08:16Z</time>
      </trkpt>
      <trkpt lat="41.74916443" lon="2.489478634">
        <ele>342.00000</ele>
        <time>2019-03-16T13:08:57Z</time>
      </trkpt>
      <trkpt lat="41.74901280" lon="2.489590533">
        <ele>343.00000</ele>
        <time>2019-03-16T13:09:22Z</time>
      </trkpt>
      <trkpt lat="41.74883871" lon="2.489643590">
        <ele>343.00000</ele>
        <time>2019-03-16T13:09:45Z</time>
      </trkpt>
      <trkpt lat="41.74868742" lon="2.489640321">
        <ele>344.00000</ele>
        <time>2019-03-16T13:10:18Z</time>
      </trkpt>
      <trkpt lat="41.74859932" lon="2.489868225">
        <ele>343.00000</ele>
        <time>2019-03-16T13:10:50Z</time>
      </trkpt>
      <trkpt lat="41.74850687" lon="2.490080790">
        <ele>344.00000</ele>
        <time>2019-03-16T13:11:12Z</time>
      </trkpt>
      <trkpt lat="41.74845507" lon="2.490312131">
        <ele>345.00000</ele>
        <time>2019-03-16T13:11:34Z</time>
      </trkpt>
      <trkpt lat="41.74837846" lon="2.490553362">
        <ele>347.00000</ele>
        <time>2019-03-16T13:11:50Z</time>
      </trkpt>
      <trkpt lat="41.74829816" lon="2.490745894">
        <ele>343.00000</ele>
        <time>2019-03-16T13:12:23Z</time>
      </trkpt>
      <trkpt lat="41.74823949" lon="2.490978576">
        <ele>342.00000</ele>
        <time>2019-03-16T13:12:44Z</time>
      </trkpt>
      <trkpt lat="41.74820059" lon="2.491084607">
        <ele>342.00000</ele>
        <time>2019-03-16T13:12:52Z</time>
      </trkpt>
      <trkpt lat="41.74817310" lon="2.491187034">
        <ele>342.00000</ele>
        <time>2019-03-16T13:12:59Z</time>
      </trkpt>
      <trkpt lat="41.74816556" lon="2.491214862">
        <ele>341.00000</ele>
        <time>2019-03-16T13:13:01Z</time>
      </trkpt>
      <trkpt lat="41.74814955" lon="2.491274960">
        <ele>341.00000</ele>
        <time>2019-03-16T13:13:06Z</time>
      </trkpt>
      <trkpt lat="41.74814754" lon="2.491312175">
        <ele>340.00000</ele>
        <time>2019-03-16T13:13:09Z</time>
      </trkpt>
      <trkpt lat="41.74817176" lon="2.491424158">
        <ele>339.00000</ele>
        <time>2019-03-16T13:13:19Z</time>
      </trkpt>
      <trkpt lat="41.74820101" lon="2.491470761">
        <ele>338.00000</ele>
        <time>2019-03-16T13:13:24Z</time>
      </trkpt>
      <trkpt lat="41.74831987" lon="2.491622222">
        <ele>335.00000</ele>
        <time>2019-03-16T13:13:41Z</time>
      </trkpt>
      <trkpt lat="41.74833898" lon="2.491681817">
        <ele>333.00000</ele>
        <time>2019-03-16T13:13:46Z</time>
      </trkpt>
      <trkpt lat="41.74837963" lon="2.491754489">
        <ele>331.00000</ele>
        <time>2019-03-16T13:13:55Z</time>
      </trkpt>
      <trkpt lat="41.74841878" lon="2.491800840">
        <ele>330.00000</ele>
        <time>2019-03-16T13:14:01Z</time>
      </trkpt>
      <trkpt lat="41.74852271" lon="2.492009717">
        <ele>326.00000</ele>
        <time>2019-03-16T13:14:24Z</time>
      </trkpt>
      <trkpt lat="41.74858910" lon="2.492230916">
        <ele>324.00000</ele>
        <time>2019-03-16T13:14:46Z</time>
      </trkpt>
      <trkpt lat="41.74860192" lon="2.492468291">
        <ele>321.00000</ele>
        <time>2019-03-16T13:15:10Z</time>
      </trkpt>
      <trkpt lat="41.74853956" lon="2.492698542">
        <ele>318.00000</ele>
        <time>2019-03-16T13:15:30Z</time>
      </trkpt>
      <trkpt lat="41.74846555" lon="2.492891494">
        <ele>316.00000</ele>
        <time>2019-03-16T13:15:47Z</time>
      </trkpt>
      <trkpt lat="41.74835256" lon="2.493091821">
        <ele>315.00000</ele>
        <time>2019-03-16T13:16:07Z</time>
      </trkpt>
      <trkpt lat="41.74818651" lon="2.493190141">
        <ele>313.00000</ele>
        <time>2019-03-16T13:16:24Z</time>
      </trkpt>
      <trkpt lat="41.74800530" lon="2.493213359">
        <ele>312.00000</ele>
        <time>2019-03-16T13:16:42Z</time>
      </trkpt>
      <trkpt lat="41.74785844" lon="2.493345374">
        <ele>311.00000</ele>
        <time>2019-03-16T13:17:01Z</time>
      </trkpt>
      <trkpt lat="41.74779424" lon="2.493408825">
        <ele>311.00000</ele>
        <time>2019-03-16T13:17:36Z</time>
      </trkpt>
      <trkpt lat="41.74776943" lon="2.493594568">
        <ele>311.00000</ele>
        <time>2019-03-16T13:17:52Z</time>
      </trkpt>
      <trkpt lat="41.74777488" lon="2.493617366">
        <ele>312.00000</ele>
        <time>2019-03-16T13:17:54Z</time>
      </trkpt>
      <trkpt lat="41.74777965" lon="2.493651481">
        <ele>311.00000</ele>
        <time>2019-03-16T13:17:57Z</time>
      </trkpt>
      <trkpt lat="41.74769843" lon="2.493743430">
        <ele>318.00000</ele>
        <time>2019-03-16T13:22:30Z</time>
      </trkpt>
      <trkpt lat="41.74753976" lon="2.493830770">
        <ele>318.00000</ele>
        <time>2019-03-16T13:22:49Z</time>
      </trkpt>
      <trkpt lat="41.74750397" lon="2.493841834">
        <ele>318.00000</ele>
        <time>2019-03-16T13:22:54Z</time>
      </trkpt>
      <trkpt lat="41.74745628" lon="2.493833536">
        <ele>318.00000</ele>
        <time>2019-03-16T13:22:59Z</time>
      </trkpt>
      <trkpt lat="41.74745033" lon="2.493826411">
        <ele>317.00000</ele>
        <time>2019-03-16T13:23:00Z</time>
      </trkpt>
      <trkpt lat="41.74740431" lon="2.493815682">
        <ele>317.00000</ele>
        <time>2019-03-16T13:23:04Z</time>
      </trkpt>
      <trkpt lat="41.74739803" lon="2.493807217">
        <ele>317.00000</ele>
        <time>2019-03-16T13:23:05Z</time>
      </trkpt>
      <trkpt lat="41.74733986" lon="2.493733288">
        <ele>317.00000</ele>
        <time>2019-03-16T13:23:14Z</time>
      </trkpt>
      <trkpt lat="41.74718680" lon="2.493601860">
        <ele>316.00000</ele>
        <time>2019-03-16T13:23:33Z</time>
      </trkpt>
      <trkpt lat="41.74712436" lon="2.493573864">
        <ele>316.00000</ele>
        <time>2019-03-16T13:23:41Z</time>
      </trkpt>
      <trkpt lat="41.74707541" lon="2.493545282">
        <ele>315.00000</ele>
        <time>2019-03-16T13:23:47Z</time>
      </trkpt>
      <trkpt lat="41.74689989" lon="2.493569171">
        <ele>315.00000</ele>
        <time>2019-03-16T13:24:11Z</time>
      </trkpt>
      <trkpt lat="41.74673527" lon="2.493505552">
        <ele>315.00000</ele>
        <time>2019-03-16T13:24:36Z</time>
      </trkpt>
      <trkpt lat="41.74656646" lon="2.493390301">
        <ele>315.00000</ele>
        <time>2019-03-16T13:24:57Z</time>
      </trkpt>
      <trkpt lat="41.74639631" lon="2.493317378">
        <ele>315.00000</ele>
        <time>2019-03-16T13:25:19Z</time>
      </trkpt>
      <trkpt lat="41.74630327" lon="2.493295334">
        <ele>314.00000</ele>
        <time>2019-03-16T13:25:29Z</time>
      </trkpt>
      <trkpt lat="41.74611828" lon="2.493297932">
        <ele>312.00000</ele>
        <time>2019-03-16T13:25:48Z</time>
      </trkpt>
      <trkpt lat="41.74594075" lon="2.493245378">
        <ele>311.00000</ele>
        <time>2019-03-16T13:26:16Z</time>
      </trkpt>
      <trkpt lat="41.74576414" lon="2.493195002">
        <ele>311.00000</ele>
        <time>2019-03-16T13:26:39Z</time>
      </trkpt>
      <trkpt lat="41.74559047" lon="2.493107914">
        <ele>309.00000</ele>
        <time>2019-03-16T13:27:03Z</time>
      </trkpt>
      <trkpt lat="41.74541302" lon="2.493023928">
        <ele>307.00000</ele>
        <time>2019-03-16T13:27:25Z</time>
      </trkpt>
      <trkpt lat="41.74528721" lon="2.492881519">
        <ele>305.00000</ele>
        <time>2019-03-16T13:27:44Z</time>
      </trkpt>
      <trkpt lat="41.74512058" lon="2.492802143">
        <ele>304.00000</ele>
        <time>2019-03-16T13:28:12Z</time>
      </trkpt>
      <trkpt lat="41.74493869" lon="2.492738775">
        <ele>303.00000</ele>
        <time>2019-03-16T13:28:32Z</time>
      </trkpt>
      <trkpt lat="41.74475161" lon="2.492732238">
        <ele>302.00000</ele>
        <time>2019-03-16T13:28:52Z</time>
      </trkpt>
      <trkpt lat="41.74458028" lon="2.492699800">
        <ele>301.00000</ele>
        <time>2019-03-16T13:29:29Z</time>
      </trkpt>
      <trkpt lat="41.74440200" lon="2.492670631">
        <ele>301.00000</ele>
        <time>2019-03-16T13:29:51Z</time>
      </trkpt>
      <trkpt lat="41.74421802" lon="2.492670714">
        <ele>300.00000</ele>
        <time>2019-03-16T13:30:10Z</time>
      </trkpt>
      <trkpt lat="41.74404443" lon="2.492715390">
        <ele>299.00000</ele>
        <time>2019-03-16T13:30:30Z</time>
      </trkpt>
      <trkpt lat="41.74396388" lon="2.492826869">
        <ele>296.00000</ele>
        <time>2019-03-16T13:31:20Z</time>
      </trkpt>
      <trkpt lat="41.74388827" lon="2.493044463">
        <ele>294.00000</ele>
        <time>2019-03-16T13:31:39Z</time>
      </trkpt>
      <trkpt lat="41.74387922" lon="2.493063826">
        <ele>294.00000</ele>
        <time>2019-03-16T13:31:40Z</time>
      </trkpt>
      <trkpt lat="41.74377445" lon="2.493249317">
        <ele>293.00000</ele>
        <time>2019-03-16T13:31:51Z</time>
      </trkpt>
      <trkpt lat="41.74372164" lon="2.493254346">
        <ele>290.00000</ele>
        <time>2019-03-16T13:32:03Z</time>
      </trkpt>
      <trkpt lat="41.74373488" lon="2.493046307">
        <ele>287.00000</ele>
        <time>2019-03-16T13:32:21Z</time>
      </trkpt>
      <trkpt lat="41.74374511" lon="2.492998950">
        <ele>286.00000</ele>
        <time>2019-03-16T13:32:30Z</time>
      </trkpt>
      <trkpt lat="41.74387268" lon="2.492874730">
        <ele>286.00000</ele>
        <time>2019-03-16T13:33:12Z</time>
      </trkpt>
      <trkpt lat="41.74386573" lon="2.492831563">
        <ele>290.00000</ele>
        <time>2019-03-16T13:34:20Z</time>
      </trkpt>
      <trkpt lat="41.74388685" lon="2.492590667">
        <ele>291.00000</ele>
        <time>2019-03-16T13:34:43Z</time>
      </trkpt>
      <trkpt lat="41.74390889" lon="2.492645317">
        <ele>291.00000</ele>
        <time>2019-03-16T13:35:21Z</time>
      </trkpt>
      <trkpt lat="41.74384335" lon="2.492874730">
        <ele>290.00000</ele>
        <time>2019-03-16T13:35:46Z</time>
      </trkpt>
      <trkpt lat="41.74376749" lon="2.493092659">
        <ele>290.00000</ele>
        <time>2019-03-16T13:36:08Z</time>
      </trkpt>
      <trkpt lat="41.74371787" lon="2.493307488">
        <ele>290.00000</ele>
        <time>2019-03-16T13:36:38Z</time>
      </trkpt>
      <trkpt lat="41.74368090" lon="2.493542432">
        <ele>288.00000</ele>
        <time>2019-03-16T13:37:08Z</time>
      </trkpt>
      <trkpt lat="41.74366657" lon="2.493784083">
        <ele>287.00000</ele>
        <time>2019-03-16T13:37:29Z</time>
      </trkpt>
      <trkpt lat="41.74365517" lon="2.494029840">
        <ele>286.00000</ele>
        <time>2019-03-16T13:37:52Z</time>
      </trkpt>
      <trkpt lat="41.74360924" lon="2.494269562">
        <ele>285.00000</ele>
        <time>2019-03-16T13:38:08Z</time>
      </trkpt>
      <trkpt lat="41.74346700" lon="2.494452875">
        <ele>284.00000</ele>
        <time>2019-03-16T13:38:21Z</time>
      </trkpt>
      <trkpt lat="41.74331990" lon="2.494594948">
        <ele>284.00000</ele>
        <time>2019-03-16T13:38:38Z</time>
      </trkpt>
      <trkpt lat="41.74323298" lon="2.494810447">
        <ele>282.00000</ele>
        <time>2019-03-16T13:38:57Z</time>
      </trkpt>
      <trkpt lat="41.74318310" lon="2.495042458">
        <ele>280.00000</ele>
        <time>2019-03-16T13:39:13Z</time>
      </trkpt>
      <trkpt lat="41.74306592" lon="2.495229123">
        <ele>278.00000</ele>
        <time>2019-03-16T13:39:29Z</time>
      </trkpt>
      <trkpt lat="41.74288035" lon="2.495291233">
        <ele>277.00000</ele>
        <time>2019-03-16T13:39:44Z</time>
      </trkpt>
      <trkpt lat="41.74271631" lon="2.495406484">
        <ele>276.00000</ele>
        <time>2019-03-16T13:40:01Z</time>
      </trkpt>
      <trkpt lat="41.74262596" lon="2.495617456">
        <ele>274.00000</ele>
        <time>2019-03-16T13:40:20Z</time>
      </trkpt>
      <trkpt lat="41.74244893" lon="2.495727008">
        <ele>273.00000</ele>
        <time>2019-03-16T13:40:36Z</time>
      </trkpt>
      <trkpt lat="41.74227484" lon="2.495805546">
        <ele>272.00000</ele>
        <time>2019-03-16T13:40:54Z</time>
      </trkpt>
      <trkpt lat="41.74209396" lon="2.495846031">
        <ele>271.00000</ele>
        <time>2019-03-16T13:41:11Z</time>
      </trkpt>
      <trkpt lat="41.74204828" lon="2.495851144">
        <ele>271.00000</ele>
        <time>2019-03-16T13:41:15Z</time>
      </trkpt>
      <trkpt lat="41.74187737" lon="2.495944350">
        <ele>270.00000</ele>
        <time>2019-03-16T13:41:31Z</time>
      </trkpt>
      <trkpt lat="41.74185600" lon="2.495950888">
        <ele>270.00000</ele>
        <time>2019-03-16T13:41:33Z</time>
      </trkpt>
      <trkpt lat="41.74174946" lon="2.495905039">
        <ele>270.00000</ele>
        <time>2019-03-16T13:41:45Z</time>
      </trkpt>
      <trkpt lat="41.74157160" lon="2.495863717">
        <ele>267.00000</ele>
        <time>2019-03-16T13:42:04Z</time>
      </trkpt>
      <trkpt lat="41.74138946" lon="2.495863297">
        <ele>264.00000</ele>
        <time>2019-03-16T13:42:22Z</time>
      </trkpt>
      <trkpt lat="41.74134805" lon="2.495883582">
        <ele>263.00000</ele>
        <time>2019-03-16T13:42:26Z</time>
      </trkpt>
      <trkpt lat="41.74130857" lon="2.495902022">
        <ele>262.00000</ele>
        <time>2019-03-16T13:42:31Z</time>
      </trkpt>
      <trkpt lat="41.74128267" lon="2.495941920">
        <ele>261.00000</ele>
        <time>2019-03-16T13:42:36Z</time>
      </trkpt>
      <trkpt lat="41.74117212" lon="2.496108468">
        <ele>257.00000</ele>
        <time>2019-03-16T13:43:07Z</time>
      </trkpt>
      <trkpt lat="41.74108117" lon="2.496318519">
        <ele>253.00000</ele>
        <time>2019-03-16T13:43:27Z</time>
      </trkpt>
      <trkpt lat="41.74108302" lon="2.496569724">
        <ele>251.00000</ele>
        <time>2019-03-16T13:43:45Z</time>
      </trkpt>
      <trkpt lat="41.74101814" lon="2.496800981">
        <ele>249.00000</ele>
        <time>2019-03-16T13:44:00Z</time>
      </trkpt>
      <trkpt lat="41.74096919" lon="2.496835263">
        <ele>249.00000</ele>
        <time>2019-03-16T13:44:02Z</time>
      </trkpt>
      <trkpt lat="41.74093868" lon="2.496850686">
        <ele>249.00000</ele>
        <time>2019-03-16T13:44:04Z</time>
      </trkpt>
      <trkpt lat="41.74080247" lon="2.496754629">
        <ele>249.00000</ele>
        <time>2019-03-16T13:44:17Z</time>
      </trkpt>
      <trkpt lat="41.74080524" lon="2.496736943">
        <ele>249.00000</ele>
        <time>2019-03-16T13:44:18Z</time>
      </trkpt>
      <trkpt lat="41.74084941" lon="2.496616663">
        <ele>247.00000</ele>
        <time>2019-03-16T13:44:27Z</time>
      </trkpt>
      <trkpt lat="41.74089635" lon="2.496379707">
        <ele>245.00000</ele>
        <time>2019-03-16T13:44:42Z</time>
      </trkpt>
      <trkpt lat="41.74089384" lon="2.496364451">
        <ele>245.00000</ele>
        <time>2019-03-16T13:44:43Z</time>
      </trkpt>
      <trkpt lat="41.74077314" lon="2.496210644">
        <ele>235.00000</ele>
        <time>2019-03-16T13:45:14Z</time>
      </trkpt>
      <trkpt lat="41.74072000" lon="2.495981985">
        <ele>231.00000</ele>
        <time>2019-03-16T13:45:34Z</time>
      </trkpt>
      <trkpt lat="41.74083785" lon="2.495851311">
        <ele>227.00000</ele>
        <time>2019-03-16T13:46:17Z</time>
      </trkpt>
      <trkpt lat="41.74090708" lon="2.495784675">
        <ele>225.00000</ele>
        <time>2019-03-16T13:47:16Z</time>
      </trkpt>
      <trkpt lat="41.74094413" lon="2.495730025">
        <ele>224.00000</ele>
        <time>2019-03-16T13:49:28Z</time>
      </trkpt>
      <trkpt lat="41.74097917" lon="2.495471276">
        <ele>223.00000</ele>
        <time>2019-03-16T13:49:47Z</time>
      </trkpt>
      <trkpt lat="41.74077490" lon="2.495453674">
        <ele>222.00000</ele>
        <time>2019-03-16T13:49:59Z</time>
      </trkpt>
      <trkpt lat="41.74059762" lon="2.495534811">
        <ele>222.00000</ele>
        <time>2019-03-16T13:50:12Z</time>
      </trkpt>
      <trkpt lat="41.74047491" lon="2.495674286">
        <ele>220.00000</ele>
        <time>2019-03-16T13:50:28Z</time>
      </trkpt>
      <trkpt lat="41.74040492" lon="2.495707562">
        <ele>220.00000</ele>
        <time>2019-03-16T13:50:36Z</time>
      </trkpt>
      <trkpt lat="41.74037642" lon="2.495703874">
        <ele>220.00000</ele>
        <time>2019-03-16T13:50:39Z</time>
      </trkpt>
      <trkpt lat="41.74024483" lon="2.495690714">
        <ele>218.00000</ele>
        <time>2019-03-16T13:50:51Z</time>
      </trkpt>
      <trkpt lat="41.74009697" lon="2.495546462">
        <ele>217.00000</ele>
        <time>2019-03-16T13:51:06Z</time>
      </trkpt>
      <trkpt lat="41.74000519" lon="2.495488794">
        <ele>216.00000</ele>
        <time>2019-03-16T13:51:15Z</time>
      </trkpt>
      <trkpt lat="41.73989136" lon="2.495678979">
        <ele>212.00000</ele>
        <time>2019-03-16T13:51:36Z</time>
      </trkpt>
      <trkpt lat="41.73974962" lon="2.495832033">
        <ele>209.00000</ele>
        <time>2019-03-16T13:51:56Z</time>
      </trkpt>
      <trkpt lat="41.73968542" lon="2.496052980">
        <ele>204.00000</ele>
        <time>2019-03-16T13:52:16Z</time>
      </trkpt>
      <trkpt lat="41.73968751" lon="2.496302844">
        <ele>201.00000</ele>
        <time>2019-03-16T13:52:32Z</time>
      </trkpt>
      <trkpt lat="41.73974803" lon="2.496551619">
        <ele>199.00000</ele>
        <time>2019-03-16T13:52:49Z</time>
      </trkpt>
      <trkpt lat="41.73975155" lon="2.496567294">
        <ele>199.00000</ele>
        <time>2019-03-16T13:52:50Z</time>
      </trkpt>
      <trkpt lat="41.73975985" lon="2.496659662">
        <ele>200.00000</ele>
        <time>2019-03-16T13:52:57Z</time>
      </trkpt>
      <trkpt lat="41.73976572" lon="2.496690256">
        <ele>200.00000</ele>
        <time>2019-03-16T13:53:00Z</time>
      </trkpt>
      <trkpt lat="41.73976253" lon="2.496723029">
        <ele>201.00000</ele>
        <time>2019-03-16T13:53:03Z</time>
      </trkpt>
      <trkpt lat="41.73973621" lon="2.496972642">
        <ele>201.00000</ele>
        <time>2019-03-16T13:53:27Z</time>
      </trkpt>
      <trkpt lat="41.73970093" lon="2.497061491">
        <ele>201.00000</ele>
        <time>2019-03-16T13:53:33Z</time>
      </trkpt>
      <trkpt lat="41.73960738" lon="2.497263243">
        <ele>202.00000</ele>
        <time>2019-03-16T13:53:57Z</time>
      </trkpt>
      <trkpt lat="41.73950504" lon="2.497356282">
        <ele>203.00000</ele>
        <time>2019-03-16T13:54:22Z</time>
      </trkpt>
      <trkpt lat="41.73935442" lon="2.497497014">
        <ele>203.00000</ele>
        <time>2019-03-16T13:54:36Z</time>
      </trkpt>
      <trkpt lat="41.73919692" lon="2.497628862">
        <ele>204.00000</ele>
        <time>2019-03-16T13:54:48Z</time>
      </trkpt>
      <trkpt lat="41.73916071" lon="2.497669765">
        <ele>205.00000</ele>
        <time>2019-03-16T13:54:52Z</time>
      </trkpt>
      <trkpt lat="41.73913381" lon="2.497704131">
        <ele>205.00000</ele>
        <time>2019-03-16T13:54:55Z</time>
      </trkpt>
      <trkpt lat="41.73907572" lon="2.497825585">
        <ele>206.00000</ele>
        <time>2019-03-16T13:55:05Z</time>
      </trkpt>
      <trkpt lat="41.73900699" lon="2.498003449">
        <ele>209.00000</ele>
        <time>2019-03-16T13:55:17Z</time>
      </trkpt>
      <trkpt lat="41.73898771" lon="2.498072935">
        <ele>209.00000</ele>
        <time>2019-03-16T13:55:22Z</time>
      </trkpt>
      <trkpt lat="41.73891806" lon="2.498305030">
        <ele>211.00000</ele>
        <time>2019-03-16T13:55:43Z</time>
      </trkpt>
      <trkpt lat="41.73881529" lon="2.498529329">
        <ele>212.00000</ele>
        <time>2019-03-16T13:55:59Z</time>
      </trkpt>
      <trkpt lat="41.73871572" lon="2.498740302">
        <ele>214.00000</ele>
        <time>2019-03-16T13:56:12Z</time>
      </trkpt>
      <trkpt lat="41.73863014" lon="2.498958399">
        <ele>214.00000</ele>
        <time>2019-03-16T13:56:27Z</time>
      </trkpt>
      <trkpt lat="41.73854196" lon="2.499181106">
        <ele>213.00000</ele>
        <time>2019-03-16T13:56:43Z</time>
      </trkpt>
      <trkpt lat="41.73842780" lon="2.499372381">
        <ele>214.00000</ele>
        <time>2019-03-16T13:56:57Z</time>
      </trkpt>
      <trkpt lat="41.73835228" lon="2.499486291">
        <ele>214.00000</ele>
        <time>2019-03-16T13:57:07Z</time>
      </trkpt>
      <trkpt lat="41.73828698" lon="2.499614031">
        <ele>214.00000</ele>
        <time>2019-03-16T13:57:18Z</time>
      </trkpt>
      <trkpt lat="41.73826695" lon="2.499638674">
        <ele>214.00000</ele>
        <time>2019-03-16T13:57:21Z</time>
      </trkpt>
      <trkpt lat="41.73824390" lon="2.499674549">
        <ele>214.00000</ele>
        <time>2019-03-16T13:57:25Z</time>
      </trkpt>
      <trkpt lat="41.73810878" lon="2.499849395">
        <ele>216.00000</ele>
        <time>2019-03-16T13:57:40Z</time>
      </trkpt>
      <trkpt lat="41.73795506" lon="2.499991301">
        <ele>217.00000</ele>
        <time>2019-03-16T13:57:55Z</time>
      </trkpt>
      <trkpt lat="41.73780008" lon="2.500141086">
        <ele>217.00000</ele>
        <time>2019-03-16T13:58:11Z</time>
      </trkpt>
      <trkpt lat="41.73764920" lon="2.500282069">
        <ele>215.00000</ele>
        <time>2019-03-16T13:58:29Z</time>
      </trkpt>
      <trkpt lat="41.73751073" lon="2.500447696">
        <ele>213.00000</ele>
        <time>2019-03-16T13:58:45Z</time>
      </trkpt>
      <trkpt lat="41.73736749" lon="2.500604689">
        <ele>210.00000</ele>
        <time>2019-03-16T13:59:02Z</time>
      </trkpt>
      <trkpt lat="41.73724243" lon="2.500788420">
        <ele>208.00000</ele>
        <time>2019-03-16T13:59:22Z</time>
      </trkpt>
      <trkpt lat="41.73711997" lon="2.500973492">
        <ele>207.00000</ele>
        <time>2019-03-16T13:59:42Z</time>
      </trkpt>
      <trkpt lat="41.73696231" lon="2.501111207">
        <ele>207.00000</ele>
        <time>2019-03-16T13:59:56Z</time>
      </trkpt>
      <trkpt lat="41.73681369" lon="2.501245485">
        <ele>203.00000</ele>
        <time>2019-03-16T14:00:14Z</time>
      </trkpt>
      <trkpt lat="41.73663114" lon="2.501274319">
        <ele>200.00000</ele>
        <time>2019-03-16T14:00:33Z</time>
      </trkpt>
      <trkpt lat="41.73652016" lon="2.501265015">
        <ele>199.00000</ele>
        <time>2019-03-16T14:00:44Z</time>
      </trkpt>
      <trkpt lat="41.73644531" lon="2.501280689">
        <ele>197.00000</ele>
        <time>2019-03-16T14:00:52Z</time>
      </trkpt>
      <trkpt lat="41.73640592" lon="2.501276498">
        <ele>196.00000</ele>
        <time>2019-03-16T14:00:56Z</time>
      </trkpt>
      <trkpt lat="41.73625077" lon="2.501267362">
        <ele>192.00000</ele>
        <time>2019-03-16T14:01:11Z</time>
      </trkpt>
      <trkpt lat="41.73608380" lon="2.501284545">
        <ele>188.00000</ele>
        <time>2019-03-16T14:01:27Z</time>
      </trkpt>
      <trkpt lat="41.73603921" lon="2.501294435">
        <ele>186.00000</ele>
        <time>2019-03-16T14:01:31Z</time>
      </trkpt>
      <trkpt lat="41.73601373" lon="2.501288903">
        <ele>186.00000</ele>
        <time>2019-03-16T14:01:33Z</time>
      </trkpt>
      <trkpt lat="41.73582907" lon="2.501344559">
        <ele>185.00000</ele>
        <time>2019-03-16T14:01:50Z</time>
      </trkpt>
      <trkpt lat="41.73564903" lon="2.501367693">
        <ele>180.00000</ele>
        <time>2019-03-16T14:02:06Z</time>
      </trkpt>
      <trkpt lat="41.73545734" lon="2.501352690">
        <ele>175.00000</ele>
        <time>2019-03-16T14:02:24Z</time>
      </trkpt>
      <trkpt lat="41.73527721" lon="2.501362748">
        <ele>171.00000</ele>
        <time>2019-03-16T14:02:41Z</time>
      </trkpt>
      <trkpt lat="41.73509574" lon="2.501370543">
        <ele>168.00000</ele>
        <time>2019-03-16T14:02:59Z</time>
      </trkpt>
      <trkpt lat="41.73493363" lon="2.501279432">
        <ele>167.00000</ele>
        <time>2019-03-16T14:03:16Z</time>
      </trkpt>
      <trkpt lat="41.73489214" lon="2.501043062">
        <ele>166.00000</ele>
        <time>2019-03-16T14:03:33Z</time>
      </trkpt>
      <trkpt lat="41.73483054" lon="2.500870395">
        <ele>162.00000</ele>
        <time>2019-03-16T14:04:03Z</time>
      </trkpt>
      <trkpt lat="41.73465200" lon="2.500901911">
        <ele>161.00000</ele>
        <time>2019-03-16T14:04:23Z</time>
      </trkpt>
      <trkpt lat="41.73463046" lon="2.501055216">
        <ele>161.00000</ele>
        <time>2019-03-16T14:04:51Z</time>
      </trkpt>
      <trkpt lat="41.73455092" lon="2.501025712">
        <ele>163.00000</ele>
        <time>2019-03-16T14:05:11Z</time>
      </trkpt>
      <trkpt lat="41.73455469" lon="2.501265937">
        <ele>169.00000</ele>
        <time>2019-03-16T14:05:35Z</time>
      </trkpt>
      <trkpt lat="41.73449493" lon="2.501473054">
        <ele>173.00000</ele>
        <time>2019-03-16T14:05:55Z</time>
      </trkpt>
      <trkpt lat="41.73433860" lon="2.501629376">
        <ele>176.00000</ele>
        <time>2019-03-16T14:06:14Z</time>
      </trkpt>
      <trkpt lat="41.73415085" lon="2.501733647">
        <ele>177.00000</ele>
        <time>2019-03-16T14:06:30Z</time>
      </trkpt>
      <trkpt lat="41.73397709" lon="2.501805815">
        <ele>180.00000</ele>
        <time>2019-03-16T14:06:47Z</time>
      </trkpt>
      <trkpt lat="41.73383443" lon="2.501971358">
        <ele>179.00000</ele>
        <time>2019-03-16T14:07:01Z</time>
      </trkpt>
      <trkpt lat="41.73378313" lon="2.502190377">
        <ele>181.00000</ele>
        <time>2019-03-16T14:07:24Z</time>
      </trkpt>
      <trkpt lat="41.73380987" lon="2.502227677">
        <ele>182.00000</ele>
        <time>2019-03-16T14:07:37Z</time>
      </trkpt>
      <trkpt lat="41.73382814" lon="2.502149138">
        <ele>180.00000</ele>
        <time>2019-03-16T14:08:00Z</time>
      </trkpt>
      <trkpt lat="41.73379311" lon="2.502382406">
        <ele>182.00000</ele>
        <time>2019-03-16T14:08:32Z</time>
      </trkpt>
      <trkpt lat="41.73368733" lon="2.502595810">
        <ele>182.00000</ele>
        <time>2019-03-16T14:08:46Z</time>
      </trkpt>
      <trkpt lat="41.73351081" lon="2.502685664">
        <ele>182.00000</ele>
        <time>2019-03-16T14:08:57Z</time>
      </trkpt>
      <trkpt lat="41.73337435" lon="2.502613076">
        <ele>181.00000</ele>
        <time>2019-03-16T14:09:21Z</time>
      </trkpt>
      <trkpt lat="41.73321618" lon="2.502577956">
        <ele>179.00000</ele>
        <time>2019-03-16T14:09:31Z</time>
      </trkpt>
      <trkpt lat="41.73304972" lon="2.502492796">
        <ele>175.00000</ele>
        <time>2019-03-16T14:09:50Z</time>
      </trkpt>
      <trkpt lat="41.73299725" lon="2.502490449">
        <ele>173.00000</ele>
        <time>2019-03-16T14:10:17Z</time>
      </trkpt>
      <trkpt lat="41.73281989" lon="2.502449713">
        <ele>172.00000</ele>
        <time>2019-03-16T14:10:32Z</time>
      </trkpt>
      <trkpt lat="41.73264672" lon="2.502376455">
        <ele>171.00000</ele>
        <time>2019-03-16T14:10:50Z</time>
      </trkpt>
      <trkpt lat="41.73247111" lon="2.502328427">
        <ele>170.00000</ele>
        <time>2019-03-16T14:11:13Z</time>
      </trkpt>
      <trkpt lat="41.73236508" lon="2.502118963">
        <ele>169.00000</ele>
        <time>2019-03-16T14:11:32Z</time>
      </trkpt>
      <trkpt lat="41.73220147" lon="2.501977477">
        <ele>169.00000</ele>
        <time>2019-03-16T14:11:45Z</time>
      </trkpt>
      <trkpt lat="41.73200567" lon="2.501931544">
        <ele>168.00000</ele>
        <time>2019-03-16T14:11:57Z</time>
      </trkpt>
      <trkpt lat="41.73184800" lon="2.501817047">
        <ele>167.00000</ele>
        <time>2019-03-16T14:12:14Z</time>
      </trkpt>
      <trkpt lat="41.73180174" lon="2.501774132">
        <ele>167.00000</ele>
        <time>2019-03-16T14:12:19Z</time>
      </trkpt>
      <trkpt lat="41.73177651" lon="2.501751752">
        <ele>167.00000</ele>
        <time>2019-03-16T14:12:22Z</time>
      </trkpt>
      <trkpt lat="41.73173569" lon="2.501703975">
        <ele>168.00000</ele>
        <time>2019-03-16T14:12:27Z</time>
      </trkpt>
      <trkpt lat="41.73159034" lon="2.501543965">
        <ele>169.00000</ele>
        <time>2019-03-16T14:12:43Z</time>
      </trkpt>
      <trkpt lat="41.73145623" lon="2.501383703">
        <ele>172.00000</ele>
        <time>2019-03-16T14:13:00Z</time>
      </trkpt>
      <trkpt lat="41.73140628" lon="2.501364760">
        <ele>172.00000</ele>
        <time>2019-03-16T14:13:04Z</time>
      </trkpt>
      <trkpt lat="41.73154617" lon="2.501429803">
        <ele>171.00000</ele>
        <time>2019-03-16T14:13:28Z</time>
      </trkpt>
      <trkpt lat="41.73168472" lon="2.501592999">
        <ele>170.00000</ele>
        <time>2019-03-16T14:13:45Z</time>
      </trkpt>
      <trkpt lat="41.73181816" lon="2.501756614">
        <ele>170.00000</ele>
        <time>2019-03-16T14:14:02Z</time>
      </trkpt>
      <trkpt lat="41.73182881" lon="2.501764744">
        <ele>170.00000</ele>
        <time>2019-03-16T14:14:03Z</time>
      </trkpt>
      <trkpt lat="41.73197172" lon="2.501892400">
        <ele>168.00000</ele>
        <time>2019-03-16T14:14:19Z</time>
      </trkpt>
      <trkpt lat="41.73196225" lon="2.502039000">
        <ele>168.00000</ele>
        <time>2019-03-16T14:14:50Z</time>
      </trkpt>
      <trkpt lat="41.73188606" lon="2.502253912">
        <ele>170.00000</ele>
        <time>2019-03-16T14:15:09Z</time>
      </trkpt>
      <trkpt lat="41.73185446" lon="2.502338904">
        <ele>170.00000</ele>
        <time>2019-03-16T14:15:17Z</time>
      </trkpt>
      <trkpt lat="41.73168615" lon="2.502378551">
        <ele>174.00000</ele>
        <time>2019-03-16T14:15:45Z</time>
      </trkpt>
      <trkpt lat="41.73168581" lon="2.502383496">
        <ele>174.00000</ele>
        <time>2019-03-16T14:15:49Z</time>
      </trkpt>
      <trkpt lat="41.73124258" lon="2.504812991">
        <ele>225.00000</ele>
        <time>2019-03-16T16:21:39Z</time>
      </trkpt>
      <trkpt lat="41.73126219" lon="2.504746438">
        <ele>218.00000</ele>
        <time>2019-03-16T16:21:40Z</time>
      </trkpt>
      <trkpt lat="41.73122540" lon="2.504779631">
        <ele>228.00000</ele>
        <time>2019-03-16T16:21:56Z</time>
      </trkpt>
      <trkpt lat="41.73144785" lon="2.503871200">
        <ele>79.000000</ele>
        <time>2019-03-16T16:21:57Z</time>
      </trkpt>
      <trkpt lat="41.73121877" lon="2.504757335">
        <ele>230.00000</ele>
        <time>2019-03-16T16:21:58Z</time>
      </trkpt>
      <trkpt lat="41.73124970" lon="2.504628673">
        <ele>213.00000</ele>
        <time>2019-03-16T16:22:03Z</time>
      </trkpt>
      <trkpt lat="41.73124384" lon="2.504643341">
        <ele>214.00000</ele>
        <time>2019-03-16T16:22:05Z</time>
      </trkpt>
      <trkpt lat="41.73141634" lon="2.504324326">
        <ele>173.00000</ele>
        <time>2019-03-16T16:22:21Z</time>
      </trkpt>
      <trkpt lat="41.73142665" lon="2.504320638">
        <ele>170.00000</ele>
        <time>2019-03-16T16:22:23Z</time>
      </trkpt>
      <trkpt lat="41.73147015" lon="2.504377886">
        <ele>173.00000</ele>
        <time>2019-03-16T16:22:39Z</time>
      </trkpt>
      <trkpt lat="41.73144576" lon="2.504526497">
        <ele>168.00000</ele>
        <time>2019-03-16T16:23:12Z</time>
      </trkpt>
      <trkpt lat="41.73126119" lon="2.504563294">
        <ele>169.00000</ele>
        <time>2019-03-16T16:23:36Z</time>
      </trkpt>
      <trkpt lat="41.73111794" lon="2.504712995">
        <ele>168.00000</ele>
        <time>2019-03-16T16:23:52Z</time>
      </trkpt>
      <trkpt lat="41.73097478" lon="2.504878789">
        <ele>166.00000</ele>
        <time>2019-03-16T16:24:09Z</time>
      </trkpt>
      <trkpt lat="41.73091024" lon="2.505106776">
        <ele>165.00000</ele>
        <time>2019-03-16T16:24:29Z</time>
      </trkpt>
      <trkpt lat="41.73087805" lon="2.505350019">
        <ele>165.00000</ele>
        <time>2019-03-16T16:24:47Z</time>
      </trkpt>
      <trkpt lat="41.73077931" lon="2.505558142">
        <ele>165.00000</ele>
        <time>2019-03-16T16:25:02Z</time>
      </trkpt>
      <trkpt lat="41.73059692" lon="2.505624359">
        <ele>164.00000</ele>
        <time>2019-03-16T16:25:16Z</time>
      </trkpt>
      <trkpt lat="41.73048377" lon="2.505666855">
        <ele>164.00000</ele>
        <time>2019-03-16T16:25:25Z</time>
      </trkpt>
      <trkpt lat="41.73045158" lon="2.505758302">
        <ele>164.00000</ele>
        <time>2019-03-16T16:25:32Z</time>
      </trkpt>
      <trkpt lat="41.73040556" lon="2.505865506">
        <ele>164.00000</ele>
        <time>2019-03-16T16:25:39Z</time>
      </trkpt>
      <trkpt lat="41.73024295" lon="2.505974723">
        <ele>164.00000</ele>
        <time>2019-03-16T16:25:54Z</time>
      </trkpt>
      <trkpt lat="41.73015151" lon="2.506028702">
        <ele>163.00000</ele>
        <time>2019-03-16T16:26:03Z</time>
      </trkpt>
      <trkpt lat="41.73008244" lon="2.506066253">
        <ele>163.00000</ele>
        <time>2019-03-16T16:26:11Z</time>
      </trkpt>
      <trkpt lat="41.73005134" lon="2.506087878">
        <ele>163.00000</ele>
        <time>2019-03-16T16:26:15Z</time>
      </trkpt>
      <trkpt lat="41.72985278" lon="2.506186366">
        <ele>161.00000</ele>
        <time>2019-03-16T16:26:34Z</time>
      </trkpt>
      <trkpt lat="41.72971489" lon="2.506337491">
        <ele>160.00000</ele>
        <time>2019-03-16T16:26:55Z</time>
      </trkpt>
      <trkpt lat="41.72965496" lon="2.506417790">
        <ele>160.00000</ele>
        <time>2019-03-16T16:27:06Z</time>
      </trkpt>
      <trkpt lat="41.72958221" lon="2.506538741">
        <ele>159.00000</ele>
        <time>2019-03-16T16:27:15Z</time>
      </trkpt>
      <trkpt lat="41.72946369" lon="2.506705876">
        <ele>156.00000</ele>
        <time>2019-03-16T16:27:38Z</time>
      </trkpt>
      <trkpt lat="41.72940233" lon="2.506926571">
        <ele>156.00000</ele>
        <time>2019-03-16T16:27:56Z</time>
      </trkpt>
      <trkpt lat="41.72935397" lon="2.507120948">
        <ele>155.00000</ele>
        <time>2019-03-16T16:28:11Z</time>
      </trkpt>
      <trkpt lat="41.72925045" lon="2.507316498">
        <ele>154.00000</ele>
        <time>2019-03-16T16:28:29Z</time>
      </trkpt>
      <trkpt lat="41.72920837" lon="2.507498804">
        <ele>154.00000</ele>
        <time>2019-03-16T16:28:41Z</time>
      </trkpt>
      <trkpt lat="41.72920477" lon="2.507558232">
        <ele>154.00000</ele>
        <time>2019-03-16T16:28:45Z</time>
      </trkpt>
      <trkpt lat="41.72910754" lon="2.507750596">
        <ele>152.00000</ele>
        <time>2019-03-16T16:29:12Z</time>
      </trkpt>
      <trkpt lat="41.72918356" lon="2.507832571">
        <ele>151.00000</ele>
        <time>2019-03-16T16:30:04Z</time>
      </trkpt>
      <trkpt lat="41.72914140" lon="2.508076066">
        <ele>153.00000</ele>
        <time>2019-03-16T16:30:24Z</time>
      </trkpt>
      <trkpt lat="41.72913042" lon="2.508331881">
        <ele>154.00000</ele>
        <time>2019-03-16T16:30:40Z</time>
      </trkpt>
      <trkpt lat="41.72912891" lon="2.508440427">
        <ele>155.00000</ele>
        <time>2019-03-16T16:30:47Z</time>
      </trkpt>
      <trkpt lat="41.72913378" lon="2.508499184">
        <ele>155.00000</ele>
        <time>2019-03-16T16:30:51Z</time>
      </trkpt>
      <trkpt lat="41.72914668" lon="2.508546458">
        <ele>155.00000</ele>
        <time>2019-03-16T16:30:54Z</time>
      </trkpt>
      <trkpt lat="41.72915347" lon="2.508615273">
        <ele>154.00000</ele>
        <time>2019-03-16T16:30:59Z</time>
      </trkpt>
      <trkpt lat="41.72926856" lon="2.508809650">
        <ele>150.00000</ele>
        <time>2019-03-16T16:31:23Z</time>
      </trkpt>
      <trkpt lat="41.72935045" lon="2.509033866">
        <ele>147.00000</ele>
        <time>2019-03-16T16:31:40Z</time>
      </trkpt>
      <trkpt lat="41.72943485" lon="2.509235450">
        <ele>145.00000</ele>
        <time>2019-03-16T16:32:06Z</time>
      </trkpt>
      <trkpt lat="41.72955673" lon="2.509414236">
        <ele>144.00000</ele>
        <time>2019-03-16T16:32:27Z</time>
      </trkpt>
      <trkpt lat="41.72965991" lon="2.509613558">
        <ele>144.00000</ele>
        <time>2019-03-16T16:32:45Z</time>
      </trkpt>
      <trkpt lat="41.72962864" lon="2.509842049">
        <ele>146.00000</ele>
        <time>2019-03-16T16:33:13Z</time>
      </trkpt>
      <trkpt lat="41.72951012" lon="2.510018907">
        <ele>148.00000</ele>
        <time>2019-03-16T16:33:28Z</time>
      </trkpt>
      <trkpt lat="41.72941231" lon="2.510228455">
        <ele>148.00000</ele>
        <time>2019-03-16T16:33:48Z</time>
      </trkpt>
      <trkpt lat="41.72930586" lon="2.510426938">
        <ele>148.00000</ele>
        <time>2019-03-16T16:34:05Z</time>
      </trkpt>
      <trkpt lat="41.72929404" lon="2.510462561">
        <ele>149.00000</ele>
        <time>2019-03-16T16:34:08Z</time>
      </trkpt>
      <trkpt lat="41.72922967" lon="2.510558199">
        <ele>149.00000</ele>
        <time>2019-03-16T16:34:15Z</time>
      </trkpt>
      <trkpt lat="41.72921114" lon="2.510650819">
        <ele>150.00000</ele>
        <time>2019-03-16T16:34:22Z</time>
      </trkpt>
      <trkpt lat="41.72920787" lon="2.510725250">
        <ele>150.00000</ele>
        <time>2019-03-16T16:34:27Z</time>
      </trkpt>
      <trkpt lat="41.72921625" lon="2.510740756">
        <ele>150.00000</ele>
        <time>2019-03-16T16:34:28Z</time>
      </trkpt>
      <trkpt lat="41.72923721" lon="2.510788366">
        <ele>151.00000</ele>
        <time>2019-03-16T16:34:32Z</time>
      </trkpt>
      <trkpt lat="41.72925414" lon="2.510838657">
        <ele>151.00000</ele>
        <time>2019-03-16T16:34:36Z</time>
      </trkpt>
      <trkpt lat="41.72942144" lon="2.510872771">
        <ele>153.00000</ele>
        <time>2019-03-16T16:34:59Z</time>
      </trkpt>
      <trkpt lat="41.72960291" lon="2.510939827">
        <ele>153.00000</ele>
        <time>2019-03-16T16:35:18Z</time>
      </trkpt>
      <trkpt lat="41.72978086" lon="2.511017192">
        <ele>152.00000</ele>
        <time>2019-03-16T16:35:35Z</time>
      </trkpt>
      <trkpt lat="41.72981824" lon="2.511017862">
        <ele>152.00000</ele>
        <time>2019-03-16T16:35:39Z</time>
      </trkpt>
      <trkpt lat="41.73000399" lon="2.510955752">
        <ele>152.00000</ele>
        <time>2019-03-16T16:35:55Z</time>
      </trkpt>
      <trkpt lat="41.73016794" lon="2.510839663">
        <ele>153.00000</ele>
        <time>2019-03-16T16:36:12Z</time>
      </trkpt>
      <trkpt lat="41.73034102" lon="2.510771183">
        <ele>153.00000</ele>
        <time>2019-03-16T16:36:30Z</time>
      </trkpt>
      <trkpt lat="41.73052475" lon="2.510772440">
        <ele>152.00000</ele>
        <time>2019-03-16T16:36:49Z</time>
      </trkpt>
      <trkpt lat="41.73069826" lon="2.510890625">
        <ele>153.00000</ele>
        <time>2019-03-16T16:37:05Z</time>
      </trkpt>
      <trkpt lat="41.73084989" lon="2.511036302">
        <ele>154.00000</ele>
        <time>2019-03-16T16:37:20Z</time>
      </trkpt>
      <trkpt lat="41.73099976" lon="2.511190697">
        <ele>154.00000</ele>
        <time>2019-03-16T16:37:37Z</time>
      </trkpt>
      <trkpt lat="41.73115775" lon="2.511309636">
        <ele>154.00000</ele>
        <time>2019-03-16T16:37:52Z</time>
      </trkpt>
      <trkpt lat="41.73127929" lon="2.511495128">
        <ele>154.00000</ele>
        <time>2019-03-16T16:38:07Z</time>
      </trkpt>
      <trkpt lat="41.73143218" lon="2.511636698">
        <ele>153.00000</ele>
        <time>2019-03-16T16:38:20Z</time>
      </trkpt>
      <trkpt lat="41.73153561" lon="2.511757900">
        <ele>153.00000</ele>
        <time>2019-03-16T16:38:31Z</time>
      </trkpt>
      <trkpt lat="41.73162002" lon="2.511823279">
        <ele>153.00000</ele>
        <time>2019-03-16T16:38:39Z</time>
      </trkpt>
      <trkpt lat="41.73165363" lon="2.511851442">
        <ele>153.00000</ele>
        <time>2019-03-16T16:38:42Z</time>
      </trkpt>
      <trkpt lat="41.73170417" lon="2.511920090">
        <ele>152.00000</ele>
        <time>2019-03-16T16:38:50Z</time>
      </trkpt>
      <trkpt lat="41.73186292" lon="2.512056212">
        <ele>154.00000</ele>
        <time>2019-03-16T16:39:07Z</time>
      </trkpt>
      <trkpt lat="41.73189419" lon="2.512092338">
        <ele>154.00000</ele>
        <time>2019-03-16T16:39:11Z</time>
      </trkpt>
      <trkpt lat="41.73198354" lon="2.512185210">
        <ele>155.00000</ele>
        <time>2019-03-16T16:39:19Z</time>
      </trkpt>
      <trkpt lat="41.73210432" lon="2.512359553">
        <ele>158.00000</ele>
        <time>2019-03-16T16:39:34Z</time>
      </trkpt>
      <trkpt lat="41.73212871" lon="2.512560300">
        <ele>157.00000</ele>
        <time>2019-03-16T16:39:48Z</time>
      </trkpt>
      <trkpt lat="41.73212503" lon="2.512667253">
        <ele>157.00000</ele>
        <time>2019-03-16T16:39:58Z</time>
      </trkpt>
      <trkpt lat="41.73195378" lon="2.512686531">
        <ele>157.00000</ele>
        <time>2019-03-16T16:40:17Z</time>
      </trkpt>
      <trkpt lat="41.73177307" lon="2.512634731">
        <ele>158.00000</ele>
        <time>2019-03-16T16:40:32Z</time>
      </trkpt>
      <trkpt lat="41.73161046" lon="2.512537082">
        <ele>159.00000</ele>
        <time>2019-03-16T16:40:50Z</time>
      </trkpt>
      <trkpt lat="41.73145347" lon="2.512635989">
        <ele>162.00000</ele>
        <time>2019-03-16T16:41:12Z</time>
      </trkpt>
      <trkpt lat="41.73126714" lon="2.512674042">
        <ele>164.00000</ele>
        <time>2019-03-16T16:41:28Z</time>
      </trkpt>
      <trkpt lat="41.73122900" lon="2.512687956">
        <ele>165.00000</ele>
        <time>2019-03-16T16:41:30Z</time>
      </trkpt>
      <trkpt lat="41.73119447" lon="2.512666247">
        <ele>165.00000</ele>
        <time>2019-03-16T16:41:34Z</time>
      </trkpt>
      <trkpt lat="41.73117142" lon="2.512621153">
        <ele>166.00000</ele>
        <time>2019-03-16T16:41:38Z</time>
      </trkpt>
      <trkpt lat="41.73115859" lon="2.512611262">
        <ele>166.00000</ele>
        <time>2019-03-16T16:41:39Z</time>
      </trkpt>
      <trkpt lat="41.73109372" lon="2.512505231">
        <ele>166.00000</ele>
        <time>2019-03-16T16:41:48Z</time>
      </trkpt>
      <trkpt lat="41.73106589" lon="2.512487545">
        <ele>166.00000</ele>
        <time>2019-03-16T16:41:52Z</time>
      </trkpt>
      <trkpt lat="41.73101199" lon="2.512483689">
        <ele>166.00000</ele>
        <time>2019-03-16T16:41:59Z</time>
      </trkpt>
      <trkpt lat="41.73096925" lon="2.512485785">
        <ele>166.00000</ele>
        <time>2019-03-16T16:42:04Z</time>
      </trkpt>
      <trkpt lat="41.73078996" lon="2.512497687">
        <ele>167.00000</ele>
        <time>2019-03-16T16:42:19Z</time>
      </trkpt>
      <trkpt lat="41.73077923" lon="2.512488719">
        <ele>167.00000</ele>
        <time>2019-03-16T16:42:20Z</time>
      </trkpt>
      <trkpt lat="41.73073279" lon="2.512447228">
        <ele>167.00000</ele>
        <time>2019-03-16T16:42:25Z</time>
      </trkpt>
      <trkpt lat="41.73062458" lon="2.512371707">
        <ele>168.00000</ele>
        <time>2019-03-16T16:42:37Z</time>
      </trkpt>
      <trkpt lat="41.73049734" lon="2.512525515">
        <ele>166.00000</ele>
        <time>2019-03-16T16:42:53Z</time>
      </trkpt>
      <trkpt lat="41.73044580" lon="2.512561641">
        <ele>165.00000</ele>
        <time>2019-03-16T16:42:57Z</time>
      </trkpt>
      <trkpt lat="41.73026961" lon="2.512639006">
        <ele>164.00000</ele>
        <time>2019-03-16T16:43:15Z</time>
      </trkpt>
      <trkpt lat="41.73008797" lon="2.512699188">
        <ele>163.00000</ele>
        <time>2019-03-16T16:43:31Z</time>
      </trkpt>
      <trkpt lat="41.72990332" lon="2.512676976">
        <ele>162.00000</ele>
        <time>2019-03-16T16:43:45Z</time>
      </trkpt>
      <trkpt lat="41.72973375" lon="2.512573879">
        <ele>160.00000</ele>
        <time>2019-03-16T16:43:58Z</time>
      </trkpt>
      <trkpt lat="41.72957860" lon="2.512493161">
        <ele>159.00000</ele>
        <time>2019-03-16T16:44:11Z</time>
      </trkpt>
      <trkpt lat="41.72938523" lon="2.512442870">
        <ele>156.00000</ele>
        <time>2019-03-16T16:44:26Z</time>
      </trkpt>
      <trkpt lat="41.72932488" lon="2.512441109">
        <ele>155.00000</ele>
        <time>2019-03-16T16:44:30Z</time>
      </trkpt>
      <trkpt lat="41.72915071" lon="2.512347819">
        <ele>151.00000</ele>
        <time>2019-03-16T16:44:45Z</time>
      </trkpt>
      <trkpt lat="41.72898667" lon="2.512223599">
        <ele>148.00000</ele>
        <time>2019-03-16T16:44:58Z</time>
      </trkpt>
      <trkpt lat="41.72897167" lon="2.512220330">
        <ele>148.00000</ele>
        <time>2019-03-16T16:44:59Z</time>
      </trkpt>
      <trkpt lat="41.72892163" lon="2.512198621">
        <ele>148.00000</ele>
        <time>2019-03-16T16:45:04Z</time>
      </trkpt>
      <trkpt lat="41.72889154" lon="2.512191664">
        <ele>148.00000</ele>
        <time>2019-03-16T16:45:08Z</time>
      </trkpt>
      <trkpt lat="41.72877428" lon="2.512227119">
        <ele>148.00000</ele>
        <time>2019-03-16T16:45:19Z</time>
      </trkpt>
      <trkpt lat="41.72866623" lon="2.512281853">
        <ele>148.00000</ele>
        <time>2019-03-16T16:45:28Z</time>
      </trkpt>
      <trkpt lat="41.72850974" lon="2.512390902">
        <ele>147.00000</ele>
        <time>2019-03-16T16:45:41Z</time>
      </trkpt>
      <trkpt lat="41.72844487" lon="2.512450413">
        <ele>147.00000</ele>
        <time>2019-03-16T16:45:49Z</time>
      </trkpt>
      <trkpt lat="41.72830673" lon="2.512613693">
        <ele>147.00000</ele>
        <time>2019-03-16T16:46:03Z</time>
      </trkpt>
      <trkpt lat="41.72823163" lon="2.512842016">
        <ele>146.00000</ele>
        <time>2019-03-16T16:46:20Z</time>
      </trkpt>
      <trkpt lat="41.72819257" lon="2.513082325">
        <ele>145.00000</ele>
        <time>2019-03-16T16:46:39Z</time>
      </trkpt>
      <trkpt lat="41.72805712" lon="2.513261195">
        <ele>146.00000</ele>
        <time>2019-03-16T16:46:56Z</time>
      </trkpt>
      <trkpt lat="41.72788982" lon="2.513362951">
        <ele>146.00000</ele>
        <time>2019-03-16T16:47:08Z</time>
      </trkpt>
      <trkpt lat="41.72771975" lon="2.513462528">
        <ele>145.00000</ele>
        <time>2019-03-16T16:47:28Z</time>
      </trkpt>
      <trkpt lat="41.72755764" lon="2.513585658">
        <ele>144.00000</ele>
        <time>2019-03-16T16:47:44Z</time>
      </trkpt>
      <trkpt lat="41.72739545" lon="2.513701915">
        <ele>144.00000</ele>
        <time>2019-03-16T16:48:03Z</time>
      </trkpt>
      <trkpt lat="41.72726713" lon="2.513805767">
        <ele>143.00000</ele>
        <time>2019-03-16T16:48:39Z</time>
      </trkpt>
      <trkpt lat="41.72710049" lon="2.513931412">
        <ele>143.00000</ele>
        <time>2019-03-16T16:48:59Z</time>
      </trkpt>
      <trkpt lat="41.72704216" lon="2.513981452">
        <ele>143.00000</ele>
        <time>2019-03-16T16:49:06Z</time>
      </trkpt>
      <trkpt lat="41.72698675" lon="2.514019589">
        <ele>143.00000</ele>
        <time>2019-03-16T16:49:12Z</time>
      </trkpt>
      <trkpt lat="41.72693923" lon="2.514045238">
        <ele>143.00000</ele>
        <time>2019-03-16T16:49:16Z</time>
      </trkpt>
      <trkpt lat="41.72681920" lon="2.514128973">
        <ele>144.00000</ele>
        <time>2019-03-16T16:49:28Z</time>
      </trkpt>
      <trkpt lat="41.72670579" lon="2.514282697">
        <ele>144.00000</ele>
        <time>2019-03-16T16:49:52Z</time>
      </trkpt>
      <trkpt lat="41.72663572" lon="2.514515044">
        <ele>143.00000</ele>
        <time>2019-03-16T16:50:09Z</time>
      </trkpt>
      <trkpt lat="41.72663723" lon="2.514748396">
        <ele>143.00000</ele>
        <time>2019-03-16T16:50:27Z</time>
      </trkpt>
      <trkpt lat="41.72670738" lon="2.514971187">
        <ele>143.00000</ele>
        <time>2019-03-16T16:50:43Z</time>
      </trkpt>
      <trkpt lat="41.72677142" lon="2.515206299">
        <ele>144.00000</ele>
        <time>2019-03-16T16:50:59Z</time>
      </trkpt>
      <trkpt lat="41.72682289" lon="2.515443339">
        <ele>147.00000</ele>
        <time>2019-03-16T16:51:16Z</time>
      </trkpt>
      <trkpt lat="41.72685423" lon="2.515619276">
        <ele>148.00000</ele>
        <time>2019-03-16T16:51:33Z</time>
      </trkpt>
      <trkpt lat="41.72688022" lon="2.515724888">
        <ele>148.00000</ele>
        <time>2019-03-16T16:52:24Z</time>
      </trkpt>
      <trkpt lat="41.72699111" lon="2.515919432">
        <ele>149.00000</ele>
        <time>2019-03-16T16:52:43Z</time>
      </trkpt>
      <trkpt lat="41.72701944" lon="2.516167117">
        <ele>150.00000</ele>
        <time>2019-03-16T16:53:00Z</time>
      </trkpt>
      <trkpt lat="41.72702657" lon="2.516178600">
        <ele>150.00000</ele>
        <time>2019-03-16T16:53:01Z</time>
      </trkpt>
      <trkpt lat="41.72705012" lon="2.516258563">
        <ele>150.00000</ele>
        <time>2019-03-16T16:53:08Z</time>
      </trkpt>
      <trkpt lat="41.72696689" lon="2.516478924">
        <ele>152.00000</ele>
        <time>2019-03-16T16:53:31Z</time>
      </trkpt>
      <trkpt lat="41.72681727" lon="2.516630552">
        <ele>152.00000</ele>
        <time>2019-03-16T16:53:49Z</time>
      </trkpt>
      <trkpt lat="41.72679883" lon="2.516649328">
        <ele>152.00000</ele>
        <time>2019-03-16T16:53:51Z</time>
      </trkpt>
      <trkpt lat="41.72666162" lon="2.516830461">
        <ele>150.00000</ele>
        <time>2019-03-16T16:54:09Z</time>
      </trkpt>
      <trkpt lat="41.72658601" lon="2.517044283">
        <ele>149.00000</ele>
        <time>2019-03-16T16:54:27Z</time>
      </trkpt>
      <trkpt lat="41.72653941" lon="2.517193397">
        <ele>149.00000</ele>
        <time>2019-03-16T16:54:38Z</time>
      </trkpt>
      <trkpt lat="41.72653195" lon="2.517247209">
        <ele>149.00000</ele>
        <time>2019-03-16T16:54:42Z</time>
      </trkpt>
      <trkpt lat="41.72640052" lon="2.517411159">
        <ele>150.00000</ele>
        <time>2019-03-16T16:54:58Z</time>
      </trkpt>
      <trkpt lat="41.72628921" lon="2.517433622">
        <ele>151.00000</ele>
        <time>2019-03-16T16:55:08Z</time>
      </trkpt>
      <trkpt lat="41.72610204" lon="2.517421636">
        <ele>150.00000</ele>
        <time>2019-03-16T16:55:22Z</time>
      </trkpt>
      <trkpt lat="41.72591320" lon="2.517410488">
        <ele>148.00000</ele>
        <time>2019-03-16T16:55:36Z</time>
      </trkpt>
      <trkpt lat="41.72573374" lon="2.517362460">
        <ele>148.00000</ele>
        <time>2019-03-16T16:55:54Z</time>
      </trkpt>
      <trkpt lat="41.72554967" lon="2.517404789">
        <ele>146.00000</ele>
        <time>2019-03-16T16:56:10Z</time>
      </trkpt>
      <trkpt lat="41.72550567" lon="2.517622802">
        <ele>144.00000</ele>
        <time>2019-03-16T16:56:26Z</time>
      </trkpt>
      <trkpt lat="41.72550634" lon="2.517713997">
        <ele>142.00000</ele>
        <time>2019-03-16T16:56:32Z</time>
      </trkpt>
      <trkpt lat="41.72551447" lon="2.517796643">
        <ele>141.00000</ele>
        <time>2019-03-16T16:56:38Z</time>
      </trkpt>
      <trkpt lat="41.72539578" lon="2.517928658">
        <ele>139.00000</ele>
        <time>2019-03-16T16:56:53Z</time>
      </trkpt>
      <trkpt lat="41.72521867" lon="2.517887419">
        <ele>136.00000</ele>
        <time>2019-03-16T16:57:13Z</time>
      </trkpt>
      <trkpt lat="41.72503913" lon="2.517825393">
        <ele>134.00000</ele>
        <time>2019-03-16T16:57:29Z</time>
      </trkpt>
      <trkpt lat="41.72484911" lon="2.517764037">
        <ele>132.00000</ele>
        <time>2019-03-16T16:57:43Z</time>
      </trkpt>
      <trkpt lat="41.72482539" lon="2.517761606">
        <ele>132.00000</ele>
        <time>2019-03-16T16:57:45Z</time>
      </trkpt>
      <trkpt lat="41.72474090" lon="2.517793877">
        <ele>131.00000</ele>
        <time>2019-03-16T16:57:54Z</time>
      </trkpt>
      <trkpt lat="41.72458441" lon="2.517913235">
        <ele>131.00000</ele>
        <time>2019-03-16T16:58:09Z</time>
      </trkpt>
      <trkpt lat="41.72451233" lon="2.518005101">
        <ele>131.00000</ele>
        <time>2019-03-16T16:58:18Z</time>
      </trkpt>
      <trkpt lat="41.72443983" lon="2.518092105">
        <ele>132.00000</ele>
        <time>2019-03-16T16:58:27Z</time>
      </trkpt>
      <trkpt lat="41.72437428" lon="2.518143737">
        <ele>132.00000</ele>
        <time>2019-03-16T16:58:33Z</time>
      </trkpt>
      <trkpt lat="41.72420354" lon="2.518235268">
        <ele>132.00000</ele>
        <time>2019-03-16T16:58:49Z</time>
      </trkpt>
      <trkpt lat="41.72403171" lon="2.518224790">
        <ele>131.00000</ele>
        <time>2019-03-16T16:59:13Z</time>
      </trkpt>
      <trkpt lat="41.72385913" lon="2.518114401">
        <ele>129.00000</ele>
        <time>2019-03-16T16:59:33Z</time>
      </trkpt>
      <trkpt lat="41.72382820" lon="2.518105516">
        <ele>129.00000</ele>
        <time>2019-03-16T16:59:35Z</time>
      </trkpt>
      <trkpt lat="41.72368470" lon="2.518127057">
        <ele>128.00000</ele>
        <time>2019-03-16T16:59:45Z</time>
      </trkpt>
      <trkpt lat="41.72360868" lon="2.518180450">
        <ele>127.00000</ele>
        <time>2019-03-16T16:59:52Z</time>
      </trkpt>
      <trkpt lat="41.72356702" lon="2.518218420">
        <ele>126.00000</ele>
        <time>2019-03-16T16:59:56Z</time>
      </trkpt>
      <trkpt lat="41.72354020" lon="2.518244571">
        <ele>126.00000</ele>
        <time>2019-03-16T16:59:59Z</time>
      </trkpt>
      <trkpt lat="41.72338949" lon="2.518380023">
        <ele>123.00000</ele>
        <time>2019-03-16T17:00:23Z</time>
      </trkpt>
      <trkpt lat="41.72321833" lon="2.518485048">
        <ele>120.00000</ele>
        <time>2019-03-16T17:00:41Z</time>
      </trkpt>
      <trkpt lat="41.72303225" lon="2.518538441">
        <ele>119.00000</ele>
        <time>2019-03-16T17:00:59Z</time>
      </trkpt>
      <trkpt lat="41.72285933" lon="2.518614297">
        <ele>118.00000</ele>
        <time>2019-03-16T17:01:18Z</time>
      </trkpt>
      <trkpt lat="41.72282036" lon="2.518635001">
        <ele>118.00000</ele>
        <time>2019-03-16T17:01:22Z</time>
      </trkpt>
      <trkpt lat="41.72278071" lon="2.518653441">
        <ele>117.00000</ele>
        <time>2019-03-16T17:01:26Z</time>
      </trkpt>
      <trkpt lat="41.72273889" lon="2.518689651">
        <ele>117.00000</ele>
        <time>2019-03-16T17:01:31Z</time>
      </trkpt>
      <trkpt lat="41.72265783" lon="2.518812948">
        <ele>118.00000</ele>
        <time>2019-03-16T17:01:41Z</time>
      </trkpt>
      <trkpt lat="41.72264761" lon="2.518865671">
        <ele>119.00000</ele>
        <time>2019-03-16T17:01:45Z</time>
      </trkpt>
      <trkpt lat="41.72269186" lon="2.519091311">
        <ele>121.00000</ele>
        <time>2019-03-16T17:02:07Z</time>
      </trkpt>
      <trkpt lat="41.72274702" lon="2.519324328">
        <ele>121.00000</ele>
        <time>2019-03-16T17:02:26Z</time>
      </trkpt>
      <trkpt lat="41.72277459" lon="2.519399262">
        <ele>121.00000</ele>
        <time>2019-03-16T17:02:32Z</time>
      </trkpt>
      <trkpt lat="41.72285757" lon="2.519559105">
        <ele>122.00000</ele>
        <time>2019-03-16T17:02:43Z</time>
      </trkpt>
      <trkpt lat="41.72284467" lon="2.519698245">
        <ele>123.00000</ele>
        <time>2019-03-16T17:02:54Z</time>
      </trkpt>
      <trkpt lat="41.72265917" lon="2.519778292">
        <ele>126.00000</ele>
        <time>2019-03-16T17:03:15Z</time>
      </trkpt>
      <trkpt lat="41.72247226" lon="2.519815927">
        <ele>127.00000</ele>
        <time>2019-03-16T17:03:29Z</time>
      </trkpt>
      <trkpt lat="41.72229020" lon="2.519833864">
        <ele>127.00000</ele>
        <time>2019-03-16T17:03:44Z</time>
      </trkpt>
      <trkpt lat="41.72211066" lon="2.519850209">
        <ele>127.00000</ele>
        <time>2019-03-16T17:04:03Z</time>
      </trkpt>
      <trkpt lat="41.72205450" lon="2.519867224">
        <ele>126.00000</ele>
        <time>2019-03-16T17:04:12Z</time>
      </trkpt>
      <trkpt lat="41.72205149" lon="2.519996389">
        <ele>123.00000</ele>
        <time>2019-03-16T17:04:35Z</time>
      </trkpt>
      <trkpt lat="41.72208703" lon="2.520226892">
        <ele>120.00000</ele>
        <time>2019-03-16T17:04:52Z</time>
      </trkpt>
      <trkpt lat="41.72207873" lon="2.520456472">
        <ele>119.00000</ele>
        <time>2019-03-16T17:05:09Z</time>
      </trkpt>
      <trkpt lat="41.72209742" lon="2.520540542">
        <ele>119.00000</ele>
        <time>2019-03-16T17:05:15Z</time>
      </trkpt>
      <trkpt lat="41.72205727" lon="2.520773643">
        <ele>118.00000</ele>
        <time>2019-03-16T17:05:30Z</time>
      </trkpt>
      <trkpt lat="41.72202198" lon="2.520868275">
        <ele>118.00000</ele>
        <time>2019-03-16T17:05:38Z</time>
      </trkpt>
      <trkpt lat="41.72201938" lon="2.520910017">
        <ele>118.00000</ele>
        <time>2019-03-16T17:05:42Z</time>
      </trkpt>
      <trkpt lat="41.72201536" lon="2.520949915">
        <ele>118.00000</ele>
        <time>2019-03-16T17:05:46Z</time>
      </trkpt>
      <trkpt lat="41.72203305" lon="2.520972294">
        <ele>117.00000</ele>
        <time>2019-03-16T17:05:55Z</time>
      </trkpt>
      <trkpt lat="41.72194135" lon="2.521163318">
        <ele>115.00000</ele>
        <time>2019-03-16T17:06:20Z</time>
      </trkpt>
      <trkpt lat="41.72175904" lon="2.521155020">
        <ele>115.00000</ele>
        <time>2019-03-16T17:06:35Z</time>
      </trkpt>
      <trkpt lat="41.72157288" lon="2.521147308">
        <ele>116.00000</ele>
        <time>2019-03-16T17:06:55Z</time>
      </trkpt>
      <trkpt lat="41.72139225" lon="2.521166251">
        <ele>116.00000</ele>
        <time>2019-03-16T17:07:10Z</time>
      </trkpt>
      <trkpt lat="41.72121405" lon="2.521220147">
        <ele>116.00000</ele>
        <time>2019-03-16T17:07:25Z</time>
      </trkpt>
      <trkpt lat="41.72117047" lon="2.521317880">
        <ele>115.00000</ele>
        <time>2019-03-16T17:07:34Z</time>
      </trkpt>
      <trkpt lat="41.72115546" lon="2.521414691">
        <ele>115.00000</ele>
        <time>2019-03-16T17:07:42Z</time>
      </trkpt>
      <trkpt lat="41.72074651" lon="2.523172879">
        <ele>113.00000</ele>
        <time>2019-03-16T17:11:03Z</time>
      </trkpt>
      <trkpt lat="41.72070225" lon="2.523221243">
        <ele>113.00000</ele>
        <time>2019-03-16T17:11:08Z</time>
      </trkpt>
      <trkpt lat="41.72066311" lon="2.523262817">
        <ele>112.00000</ele>
        <time>2019-03-16T17:11:12Z</time>
      </trkpt>
      <trkpt lat="41.72064417" lon="2.523293159">
        <ele>112.00000</ele>
        <time>2019-03-16T17:11:16Z</time>
      </trkpt>
      <trkpt lat="41.72056638" lon="2.523415116">
        <ele>112.00000</ele>
        <time>2019-03-16T17:11:26Z</time>
      </trkpt>
      <trkpt lat="41.72054870" lon="2.523449314">
        <ele>111.00000</ele>
        <time>2019-03-16T17:11:29Z</time>
      </trkpt>
      <trkpt lat="41.72053319" lon="2.523568840">
        <ele>111.00000</ele>
        <time>2019-03-16T17:11:40Z</time>
      </trkpt>
      <trkpt lat="41.72043470" lon="2.523780567">
        <ele>113.00000</ele>
        <time>2019-03-16T17:11:57Z</time>
      </trkpt>
      <trkpt lat="41.72036496" lon="2.524001179">
        <ele>115.00000</ele>
        <time>2019-03-16T17:12:15Z</time>
      </trkpt>
      <trkpt lat="41.72032113" lon="2.524239979">
        <ele>117.00000</ele>
        <time>2019-03-16T17:12:33Z</time>
      </trkpt>
      <trkpt lat="41.72026044" lon="2.524479702">
        <ele>117.00000</ele>
        <time>2019-03-16T17:12:47Z</time>
      </trkpt>
      <trkpt lat="41.72025499" lon="2.524730488">
        <ele>117.00000</ele>
        <time>2019-03-16T17:13:05Z</time>
      </trkpt>
      <trkpt lat="41.72028332" lon="2.524920674">
        <ele>117.00000</ele>
        <time>2019-03-16T17:13:23Z</time>
      </trkpt>
      <trkpt lat="41.72025969" lon="2.524967193">
        <ele>117.00000</ele>
        <time>2019-03-16T17:13:34Z</time>
      </trkpt>
      <trkpt lat="41.72030285" lon="2.525209179">
        <ele>117.00000</ele>
        <time>2019-03-16T17:13:53Z</time>
      </trkpt>
      <trkpt lat="41.72036807" lon="2.525436412">
        <ele>117.00000</ele>
        <time>2019-03-16T17:14:14Z</time>
      </trkpt>
      <trkpt lat="41.72035298" lon="2.525669513">
        <ele>118.00000</ele>
        <time>2019-03-16T17:14:32Z</time>
      </trkpt>
      <trkpt lat="41.72020219" lon="2.525816028">
        <ele>120.00000</ele>
        <time>2019-03-16T17:14:48Z</time>
      </trkpt>
      <trkpt lat="41.72009616" lon="2.525829775">
        <ele>120.00000</ele>
        <time>2019-03-16T17:15:05Z</time>
      </trkpt>
      <trkpt lat="41.72003279" lon="2.525842012">
        <ele>120.00000</ele>
        <time>2019-03-16T17:15:09Z</time>
      </trkpt>
      <trkpt lat="41.71987412" lon="2.525968328">
        <ele>116.00000</ele>
        <time>2019-03-16T17:15:33Z</time>
      </trkpt>
      <trkpt lat="41.71973381" lon="2.526123309">
        <ele>112.00000</ele>
        <time>2019-03-16T17:15:53Z</time>
      </trkpt>
      <trkpt lat="41.71964538" lon="2.526217857">
        <ele>109.00000</ele>
        <time>2019-03-16T17:16:03Z</time>
      </trkpt>
      <trkpt lat="41.71945687" lon="2.526331013">
        <ele>110.00000</ele>
        <time>2019-03-16T17:16:31Z</time>
      </trkpt>
      <trkpt lat="41.71928336" lon="2.526434781">
        <ele>111.00000</ele>
        <time>2019-03-16T17:16:49Z</time>
      </trkpt>
      <trkpt lat="41.71919913" lon="2.526502422">
        <ele>112.00000</ele>
        <time>2019-03-16T17:16:58Z</time>
      </trkpt>
      <trkpt lat="41.71909988" lon="2.526587080">
        <ele>114.00000</ele>
        <time>2019-03-16T17:17:09Z</time>
      </trkpt>
      <trkpt lat="41.71906401" lon="2.526611387">
        <ele>115.00000</ele>
        <time>2019-03-16T17:17:13Z</time>
      </trkpt>
      <trkpt lat="41.71889813" lon="2.526718173">
        <ele>117.00000</ele>
        <time>2019-03-16T17:17:29Z</time>
      </trkpt>
      <trkpt lat="41.71874667" lon="2.526873825">
        <ele>118.00000</ele>
        <time>2019-03-16T17:17:48Z</time>
      </trkpt>
      <trkpt lat="41.71857367" lon="2.526956638">
        <ele>118.00000</ele>
        <time>2019-03-16T17:18:03Z</time>
      </trkpt>
      <trkpt lat="41.71838952" lon="2.527036685">
        <ele>120.00000</ele>
        <time>2019-03-16T17:18:20Z</time>
      </trkpt>
      <trkpt lat="41.71822791" lon="2.527153864">
        <ele>122.00000</ele>
        <time>2019-03-16T17:18:35Z</time>
      </trkpt>
      <trkpt lat="41.71808307" lon="2.527315467">
        <ele>122.00000</ele>
        <time>2019-03-16T17:18:53Z</time>
      </trkpt>
      <trkpt lat="41.71791560" lon="2.527422588">
        <ele>122.00000</ele>
        <time>2019-03-16T17:19:09Z</time>
      </trkpt>
      <trkpt lat="41.71777479" lon="2.527495846">
        <ele>123.00000</ele>
        <time>2019-03-16T17:19:21Z</time>
      </trkpt>
      <trkpt lat="41.71763489" lon="2.527660215">
        <ele>124.00000</ele>
        <time>2019-03-16T17:19:37Z</time>
      </trkpt>
      <trkpt lat="41.71762660" lon="2.527670189">
        <ele>124.00000</ele>
        <time>2019-03-16T17:19:38Z</time>
      </trkpt>
      <trkpt lat="41.71759139" lon="2.527707237">
        <ele>124.00000</ele>
        <time>2019-03-16T17:19:42Z</time>
      </trkpt>
      <trkpt lat="41.71746944" lon="2.527885688">
        <ele>124.00000</ele>
        <time>2019-03-16T17:19:59Z</time>
      </trkpt>
      <trkpt lat="41.71732996" lon="2.528051314">
        <ele>125.00000</ele>
        <time>2019-03-16T17:20:17Z</time>
      </trkpt>
      <trkpt lat="41.71718068" lon="2.528207218">
        <ele>127.00000</ele>
        <time>2019-03-16T17:20:34Z</time>
      </trkpt>
      <trkpt lat="41.71703886" lon="2.528365636">
        <ele>127.00000</ele>
        <time>2019-03-16T17:20:50Z</time>
      </trkpt>
      <trkpt lat="41.71692067" lon="2.528555318">
        <ele>128.00000</ele>
        <time>2019-03-16T17:21:09Z</time>
      </trkpt>
      <trkpt lat="41.71676795" lon="2.528724800">
        <ele>128.00000</ele>
        <time>2019-03-16T17:21:26Z</time>
      </trkpt>
      <trkpt lat="41.71665396" lon="2.528925715">
        <ele>130.00000</ele>
        <time>2019-03-16T17:21:42Z</time>
      </trkpt>
      <trkpt lat="41.71663745" lon="2.528943400">
        <ele>130.00000</ele>
        <time>2019-03-16T17:21:44Z</time>
      </trkpt>
      <trkpt lat="41.71651004" lon="2.529132161">
        <ele>131.00000</ele>
        <time>2019-03-16T17:21:59Z</time>
      </trkpt>
      <trkpt lat="41.71636981" lon="2.529283873">
        <ele>130.00000</ele>
        <time>2019-03-16T17:22:14Z</time>
      </trkpt>
      <trkpt lat="41.71630469" lon="2.529428293">
        <ele>130.00000</ele>
        <time>2019-03-16T17:22:26Z</time>
      </trkpt>
      <trkpt lat="41.71619002" lon="2.529623927">
        <ele>123.00000</ele>
        <time>2019-03-16T17:22:39Z</time>
      </trkpt>
      <trkpt lat="41.71614057" lon="2.529677823">
        <ele>121.00000</ele>
        <time>2019-03-16T17:22:45Z</time>
      </trkpt>
      <trkpt lat="41.71608265" lon="2.529737083">
        <ele>120.00000</ele>
        <time>2019-03-16T17:22:51Z</time>
      </trkpt>
      <trkpt lat="41.71607770" lon="2.529745213">
        <ele>120.00000</ele>
        <time>2019-03-16T17:22:52Z</time>
      </trkpt>
      <trkpt lat="41.71604367" lon="2.529914528">
        <ele>118.00000</ele>
        <time>2019-03-16T17:23:42Z</time>
      </trkpt>
      <trkpt lat="41.71596824" lon="2.530127428">
        <ele>118.00000</ele>
        <time>2019-03-16T17:24:09Z</time>
      </trkpt>
      <trkpt lat="41.71585592" lon="2.530322475">
        <ele>119.00000</ele>
        <time>2019-03-16T17:24:27Z</time>
      </trkpt>
      <trkpt lat="41.71572969" lon="2.530498411">
        <ele>119.00000</ele>
        <time>2019-03-16T17:24:44Z</time>
      </trkpt>
      <trkpt lat="41.71561284" lon="2.530691530">
        <ele>120.00000</ele>
        <time>2019-03-16T17:25:01Z</time>
      </trkpt>
      <trkpt lat="41.71548821" lon="2.530875010">
        <ele>120.00000</ele>
        <time>2019-03-16T17:25:16Z</time>
      </trkpt>
      <trkpt lat="41.71534018" lon="2.531037954">
        <ele>121.00000</ele>
        <time>2019-03-16T17:25:31Z</time>
      </trkpt>
      <trkpt lat="41.71521051" lon="2.531217243">
        <ele>121.00000</ele>
        <time>2019-03-16T17:25:46Z</time>
      </trkpt>
      <trkpt lat="41.71509291" lon="2.531412625">
        <ele>118.00000</ele>
        <time>2019-03-16T17:26:00Z</time>
      </trkpt>
      <trkpt lat="41.71501513" lon="2.531497031">
        <ele>116.00000</ele>
        <time>2019-03-16T17:26:09Z</time>
      </trkpt>
      <trkpt lat="41.71496719" lon="2.531688222">
        <ele>116.00000</ele>
        <time>2019-03-16T17:26:33Z</time>
      </trkpt>
      <trkpt lat="41.71476694" lon="2.531784111">
        <ele>116.00000</ele>
        <time>2019-03-16T17:26:45Z</time>
      </trkpt>
      <trkpt lat="41.71474146" lon="2.531976727">
        <ele>110.00000</ele>
        <time>2019-03-16T17:26:54Z</time>
      </trkpt>
      <trkpt lat="41.71465538" lon="2.532177474">
        <ele>104.00000</ele>
        <time>2019-03-16T17:27:13Z</time>
      </trkpt>
      <trkpt lat="41.71470768" lon="2.532406467">
        <ele>101.00000</ele>
        <time>2019-03-16T17:27:31Z</time>
      </trkpt>
      <trkpt lat="41.71474616" lon="2.532601179">
        <ele>99.000000</ele>
        <time>2019-03-16T17:27:45Z</time>
      </trkpt>
      <trkpt lat="41.71478111" lon="2.532718190">
        <ele>100.00000</ele>
        <time>2019-03-16T17:27:53Z</time>
      </trkpt>
      <trkpt lat="41.71483023" lon="2.532962774">
        <ele>101.00000</ele>
        <time>2019-03-16T17:28:10Z</time>
      </trkpt>
      <trkpt lat="41.71485613" lon="2.533041900">
        <ele>102.00000</ele>
        <time>2019-03-16T17:28:16Z</time>
      </trkpt>
      <trkpt lat="41.71487767" lon="2.533077858">
        <ele>103.00000</ele>
        <time>2019-03-16T17:28:20Z</time>
      </trkpt>
      <trkpt lat="41.71497121" lon="2.533293608">
        <ele>104.00000</ele>
        <time>2019-03-16T17:28:36Z</time>
      </trkpt>
      <trkpt lat="41.71508587" lon="2.533473819">
        <ele>104.00000</ele>
        <time>2019-03-16T17:28:51Z</time>
      </trkpt>
      <trkpt lat="41.71518621" lon="2.533688982">
        <ele>103.00000</ele>
        <time>2019-03-16T17:29:11Z</time>
      </trkpt>
      <trkpt lat="41.71530992" lon="2.533867517">
        <ele>102.00000</ele>
        <time>2019-03-16T17:29:30Z</time>
      </trkpt>
      <trkpt lat="41.71544060" lon="2.534033814">
        <ele>102.00000</ele>
        <time>2019-03-16T17:29:46Z</time>
      </trkpt>
      <trkpt lat="41.71558401" lon="2.534194830">
        <ele>102.00000</ele>
        <time>2019-03-16T17:30:02Z</time>
      </trkpt>
      <trkpt lat="41.71564805" lon="2.534284600">
        <ele>102.00000</ele>
        <time>2019-03-16T17:30:10Z</time>
      </trkpt>
      <trkpt lat="41.71576028" lon="2.534426758">
        <ele>103.00000</ele>
        <time>2019-03-16T17:30:23Z</time>
      </trkpt>
      <trkpt lat="41.71589188" lon="2.534598587">
        <ele>105.00000</ele>
        <time>2019-03-16T17:30:40Z</time>
      </trkpt>
      <trkpt lat="41.71601199" lon="2.534773433">
        <ele>107.00000</ele>
        <time>2019-03-16T17:30:55Z</time>
      </trkpt>
      <trkpt lat="41.71607955" lon="2.534869825">
        <ele>106.00000</ele>
        <time>2019-03-16T17:31:03Z</time>
      </trkpt>
      <trkpt lat="41.71608852" lon="2.534878542">
        <ele>106.00000</ele>
        <time>2019-03-16T17:31:04Z</time>
      </trkpt>
      <trkpt lat="41.71611811" lon="2.534905783">
        <ele>106.00000</ele>
        <time>2019-03-16T17:31:08Z</time>
      </trkpt>
      <trkpt lat="41.71627292" lon="2.535052886">
        <ele>103.00000</ele>
        <time>2019-03-16T17:31:23Z</time>
      </trkpt>
      <trkpt lat="41.71641382" lon="2.535218764">
        <ele>101.00000</ele>
        <time>2019-03-16T17:31:39Z</time>
      </trkpt>
      <trkpt lat="41.71653863" lon="2.535400651">
        <ele>100.00000</ele>
        <time>2019-03-16T17:31:54Z</time>
      </trkpt>
      <trkpt lat="41.71669160" lon="2.535550855">
        <ele>100.00000</ele>
        <time>2019-03-16T17:32:10Z</time>
      </trkpt>
      <trkpt lat="41.71672512" lon="2.535607935">
        <ele>101.00000</ele>
        <time>2019-03-16T17:32:15Z</time>
      </trkpt>
      <trkpt lat="41.71677407" lon="2.535660071">
        <ele>101.00000</ele>
        <time>2019-03-16T17:32:20Z</time>
      </trkpt>
      <trkpt lat="41.71686334" lon="2.535818237">
        <ele>101.00000</ele>
        <time>2019-03-16T17:32:33Z</time>
      </trkpt>
      <trkpt lat="41.71694129" lon="2.536035496">
        <ele>101.00000</ele>
        <time>2019-03-16T17:32:51Z</time>
      </trkpt>
      <trkpt lat="41.71696837" lon="2.536119315">
        <ele>101.00000</ele>
        <time>2019-03-16T17:32:57Z</time>
      </trkpt>
      <trkpt lat="41.71706677" lon="2.536337831">
        <ele>101.00000</ele>
        <time>2019-03-16T17:33:13Z</time>
      </trkpt>
      <trkpt lat="41.71708722" lon="2.536388710">
        <ele>101.00000</ele>
        <time>2019-03-16T17:33:17Z</time>
      </trkpt>
      <trkpt lat="41.71714019" lon="2.536576045">
        <ele>101.00000</ele>
        <time>2019-03-16T17:33:31Z</time>
      </trkpt>
      <trkpt lat="41.71721119" lon="2.536709988">
        <ele>100.00000</ele>
        <time>2019-03-16T17:33:41Z</time>
      </trkpt>
      <trkpt lat="41.71725067" lon="2.536791795">
        <ele>99.000000</ele>
        <time>2019-03-16T17:33:47Z</time>
      </trkpt>
      <trkpt lat="41.71727984" lon="2.536858096">
        <ele>99.000000</ele>
        <time>2019-03-16T17:33:52Z</time>
      </trkpt>
      <trkpt lat="41.71731454" lon="2.536933114">
        <ele>99.000000</ele>
        <time>2019-03-16T17:33:58Z</time>
      </trkpt>
      <trkpt lat="41.71740699" lon="2.537152552">
        <ele>98.000000</ele>
        <time>2019-03-16T17:34:17Z</time>
      </trkpt>
      <trkpt lat="41.71747849" lon="2.537324381">
        <ele>99.000000</ele>
        <time>2019-03-16T17:34:32Z</time>
      </trkpt>
      <trkpt lat="41.71750363" lon="2.537394957">
        <ele>99.000000</ele>
        <time>2019-03-16T17:34:38Z</time>
      </trkpt>
      <trkpt lat="41.71756457" lon="2.537490762">
        <ele>98.000000</ele>
        <time>2019-03-16T17:34:46Z</time>
      </trkpt>
      <trkpt lat="41.71767278" lon="2.537653120">
        <ele>97.000000</ele>
        <time>2019-03-16T17:35:00Z</time>
      </trkpt>
      <trkpt lat="41.71768452" lon="2.537807682">
        <ele>97.000000</ele>
        <time>2019-03-16T17:35:11Z</time>
      </trkpt>
      <trkpt lat="41.71779868" lon="2.537977080">
        <ele>96.000000</ele>
        <time>2019-03-16T17:35:38Z</time>
      </trkpt>
      <trkpt lat="41.71785308" lon="2.538067856">
        <ele>96.000000</ele>
        <time>2019-03-16T17:35:46Z</time>
      </trkpt>
      <trkpt lat="41.71787646" lon="2.538114879">
        <ele>95.000000</ele>
        <time>2019-03-16T17:35:51Z</time>
      </trkpt>
      <trkpt lat="41.71791812" lon="2.538168355">
        <ele>96.000000</ele>
        <time>2019-03-16T17:36:01Z</time>
      </trkpt>
      <trkpt lat="41.71797059" lon="2.538224095">
        <ele>96.000000</ele>
        <time>2019-03-16T17:36:07Z</time>
      </trkpt>
      <trkpt lat="41.71801912" lon="2.538290144">
        <ele>95.000000</ele>
        <time>2019-03-16T17:36:14Z</time>
      </trkpt>
      <trkpt lat="41.71804988" lon="2.538319732">
        <ele>95.000000</ele>
        <time>2019-03-16T17:36:18Z</time>
      </trkpt>
      <trkpt lat="41.71815197" lon="2.538513774">
        <ele>95.000000</ele>
        <time>2019-03-16T17:36:36Z</time>
      </trkpt>
      <trkpt lat="41.71814954" lon="2.538528945">
        <ele>95.000000</ele>
        <time>2019-03-16T17:36:37Z</time>
      </trkpt>
      <trkpt lat="41.71810914" lon="2.538635479">
        <ele>95.000000</ele>
        <time>2019-03-16T17:36:45Z</time>
      </trkpt>
      <trkpt lat="41.71807528" lon="2.538711419">
        <ele>96.000000</ele>
        <time>2019-03-16T17:36:55Z</time>
      </trkpt>
      <trkpt lat="41.71810487" lon="2.538786856">
        <ele>97.000000</ele>
        <time>2019-03-16T17:37:02Z</time>
      </trkpt>
    </trkseg>
  </trk>
</gpx>
